PWSweather.com
Personal Weather Stations
Station Observations
HVALPSUND
Hvalpsund, FarsoeDK 9640

HvalpsundFarsoeDK 9640

Lat: 56.705311, Lon: 9.203638

Elevation: 5

Station Type: Vantage Pro2

http://hvalpsundvejr.dk

High Low Average
Temperature 64.4°F18.0°C 58.2°F14.6°C 60.8°F16.0°C
Dew Point 61.4°F16.3°C 54.7°F12.6°C 58.2°F14.6°C
Winds 24.2 mph 38.9 kmh 1.0 mph 1.6 kmh 11.0 mph WSW17.7 kmh WSW
Wind Gusts 29.0 mph46.7 kmh 2.0 mph3.2 kmh 13.0 mph20.9 kmh
Humidity 96% 82% 91%
Pressure 29.84 in1010.5 mb 29.67 in1004.7 mb -
Precipitation 0.43 in10.9 mm - -
Hour Temp Dew Point Humidity Winds Wind Gusts Pressure Precip Precip Rate Daily Precip Total
12:00 AM 60.0°F15.6°C 58.0°F14.4°C 93% 7.3 mph SSE11.7 kmh SSE 13.0 mph20.9 kmh 29.84 in1010.5 mb 0.00 in0.0 mm 0.00 in0.0 mm 0.00 in0.0 mm
12:01 AM 60.0°F15.6°C 58.0°F14.4°C 93% 6.0 mph SSE9.7 kmh SSE 12.0 mph19.3 kmh 29.83 in1010.2 mb 0.00 in0.0 mm 0.00 in0.0 mm 0.00 in0.0 mm
12:02 AM 60.0°F15.6°C 58.0°F14.4°C 93% 9.0 mph SSE14.5 kmh SSE 12.0 mph19.3 kmh 29.84 in1010.5 mb 0.00 in0.0 mm 0.00 in0.0 mm 0.00 in0.0 mm
12:03 AM 60.0°F15.6°C 58.0°F14.4°C 93% 7.0 mph SE11.3 kmh SE 9.0 mph14.5 kmh 29.84 in1010.5 mb 0.00 in0.0 mm 0.00 in0.0 mm 0.00 in0.0 mm
12:04 AM 59.9°F15.5°C 57.9°F14.4°C 93% 7.1 mph SE11.4 kmh SE 11.0 mph17.7 kmh 29.83 in1010.2 mb 0.00 in0.0 mm 0.00 in0.0 mm 0.00 in0.0 mm
12:05 AM 59.9°F15.5°C 57.9°F14.4°C 93% 4.7 mph S7.6 kmh S 11.0 mph17.7 kmh 29.84 in1010.5 mb 0.00 in0.0 mm 0.00 in0.0 mm 0.00 in0.0 mm
12:06 AM 59.9°F15.5°C 57.9°F14.4°C 93% 5.4 mph SSE8.7 kmh SSE 11.0 mph17.7 kmh 29.84 in1010.5 mb 0.00 in0.0 mm 0.00 in0.0 mm 0.00 in0.0 mm
12:07 AM 60.0°F15.6°C 58.0°F14.4°C 93% 6.6 mph SSE10.6 kmh SSE 11.0 mph17.7 kmh 29.84 in1010.5 mb 0.00 in0.0 mm 0.00 in0.0 mm 0.00 in0.0 mm
12:08 AM 59.9°F15.5°C 57.9°F14.4°C 93% 5.5 mph SE8.9 kmh SE 11.0 mph17.7 kmh 29.83 in1010.2 mb 0.00 in0.0 mm 0.00 in0.0 mm 0.00 in0.0 mm
12:09 AM 59.9°F15.5°C 57.9°F14.4°C 93% 7.7 mph SSE12.4 kmh SSE 12.0 mph19.3 kmh 29.83 in1010.2 mb 0.00 in0.0 mm 0.00 in0.0 mm 0.00 in0.0 mm
12:10 AM 59.9°F15.5°C 57.9°F14.4°C 93% 9.0 mph SE14.5 kmh SE 11.0 mph17.7 kmh 29.83 in1010.2 mb 0.00 in0.0 mm 0.00 in0.0 mm 0.00 in0.0 mm
12:11 AM 60.0°F15.6°C 58.0°F14.4°C 93% 9.0 mph SE14.5 kmh SE 11.0 mph17.7 kmh 29.83 in1010.2 mb 0.00 in0.0 mm 0.00 in0.0 mm 0.00 in0.0 mm
12:12 AM 60.0°F15.6°C 58.0°F14.4°C 93% 4.4 mph SSE7.1 kmh SSE 7.0 mph11.3 kmh 29.83 in1010.2 mb 0.00 in0.0 mm 0.00 in0.0 mm 0.00 in0.0 mm
12:13 AM 60.0°F15.6°C 58.0°F14.4°C 93% 7.8 mph SSE12.6 kmh SSE 13.0 mph20.9 kmh 29.83 in1010.2 mb 0.00 in0.0 mm 0.00 in0.0 mm 0.00 in0.0 mm
12:14 AM 60.0°F15.6°C 58.0°F14.4°C 93% 8.1 mph SSE13.0 kmh SSE 13.0 mph20.9 kmh 29.83 in1010.2 mb 0.00 in0.0 mm 0.00 in0.0 mm 0.00 in0.0 mm
12:15 AM 60.0°F15.6°C 58.0°F14.4°C 93% 8.1 mph SE13.0 kmh SE 12.0 mph19.3 kmh 29.83 in1010.2 mb 0.00 in0.0 mm 0.00 in0.0 mm 0.00 in0.0 mm
12:16 AM 60.0°F15.6°C 58.0°F14.4°C 93% 7.3 mph SE11.7 kmh SE 12.0 mph19.3 kmh 29.83 in1010.2 mb 0.00 in0.0 mm 0.00 in0.0 mm 0.00 in0.0 mm
12:17 AM 60.0°F15.6°C 58.0°F14.4°C 93% 9.7 mph SE15.6 kmh SE 14.0 mph22.5 kmh 29.83 in1010.2 mb 0.00 in0.0 mm 0.00 in0.0 mm 0.00 in0.0 mm
12:18 AM 60.0°F15.6°C 58.0°F14.4°C 93% 8.5 mph SSE13.7 kmh SSE 14.0 mph22.5 kmh 29.83 in1010.2 mb 0.00 in0.0 mm 0.00 in0.0 mm 0.00 in0.0 mm
12:19 AM 60.0°F15.6°C 58.0°F14.4°C 93% 8.5 mph SE13.7 kmh SE 13.0 mph20.9 kmh 29.83 in1010.2 mb 0.00 in0.0 mm 0.00 in0.0 mm 0.00 in0.0 mm
12:20 AM 60.0°F15.6°C 58.0°F14.4°C 93% 8.3 mph SSE13.4 kmh SSE 12.0 mph19.3 kmh 29.83 in1010.2 mb 0.00 in0.0 mm 0.00 in0.0 mm 0.00 in0.0 mm
12:21 AM 60.0°F15.6°C 58.3°F14.6°C 94% 8.7 mph SSE14.0 kmh SSE 12.0 mph19.3 kmh 29.83 in1010.2 mb 0.00 in0.0 mm 0.00 in0.0 mm 0.00 in0.0 mm
12:22 AM 60.0°F15.6°C 58.3°F14.6°C 94% 7.3 mph SSE11.7 kmh SSE 12.0 mph19.3 kmh 29.83 in1010.2 mb 0.00 in0.0 mm 0.00 in0.0 mm 0.00 in0.0 mm
12:23 AM 59.9°F15.5°C 58.2°F14.6°C 94% 6.9 mph SE11.1 kmh SE 12.0 mph19.3 kmh 29.83 in1010.2 mb 0.00 in0.0 mm 0.00 in0.0 mm 0.00 in0.0 mm
12:24 AM 60.0°F15.6°C 58.3°F14.6°C 94% 8.6 mph SE13.8 kmh SE 11.0 mph17.7 kmh 29.83 in1010.2 mb 0.00 in0.0 mm 0.00 in0.0 mm 0.00 in0.0 mm
12:25 AM 59.9°F15.5°C 58.2°F14.6°C 94% 7.6 mph SE12.2 kmh SE 12.0 mph19.3 kmh 29.83 in1010.2 mb 0.00 in0.0 mm 0.00 in0.0 mm 0.00 in0.0 mm
12:26 AM 60.0°F15.6°C 58.3°F14.6°C 94% 9.3 mph SE15.0 kmh SE 12.0 mph19.3 kmh 29.83 in1010.2 mb 0.00 in0.0 mm 0.00 in0.0 mm 0.00 in0.0 mm
12:27 AM 59.9°F15.5°C 58.2°F14.6°C 94% 7.4 mph SE11.9 kmh SE 12.0 mph19.3 kmh 29.83 in1010.2 mb 0.00 in0.0 mm 0.00 in0.0 mm 0.00 in0.0 mm
12:28 AM 59.9°F15.5°C 58.2°F14.6°C 94% 8.6 mph SE13.8 kmh SE 11.0 mph17.7 kmh 29.83 in1010.2 mb 0.00 in0.0 mm 0.00 in0.0 mm 0.00 in0.0 mm
12:29 AM 59.9°F15.5°C 58.2°F14.6°C 94% 9.0 mph SE14.5 kmh SE 12.0 mph19.3 kmh 29.83 in1010.2 mb 0.00 in0.0 mm 0.00 in0.0 mm 0.00 in0.0 mm
12:30 AM 59.9°F15.5°C 58.2°F14.6°C 94% 10.2 mph SE16.4 kmh SE 13.0 mph20.9 kmh 29.83 in1010.2 mb 0.00 in0.0 mm 0.00 in0.0 mm 0.00 in0.0 mm
12:31 AM 59.9°F15.5°C 58.2°F14.6°C 94% 9.4 mph SE15.1 kmh SE 13.0 mph20.9 kmh 29.83 in1010.2 mb 0.00 in0.0 mm 0.00 in0.0 mm 0.00 in0.0 mm
12:32 AM 59.9°F15.5°C 58.2°F14.6°C 94% 9.9 mph SE15.9 kmh SE 15.0 mph24.1 kmh 29.83 in1010.2 mb 0.00 in0.0 mm 0.00 in0.0 mm 0.00 in0.0 mm
12:33 AM 59.9°F15.5°C 58.2°F14.6°C 94% 9.5 mph SE15.3 kmh SE 15.0 mph24.1 kmh 29.83 in1010.2 mb 0.00 in0.0 mm 0.00 in0.0 mm 0.00 in0.0 mm
12:34 AM 59.9°F15.5°C 58.2°F14.6°C 94% 10.1 mph SE16.3 kmh SE 13.0 mph20.9 kmh 29.83 in1010.2 mb 0.00 in0.0 mm 0.00 in0.0 mm 0.00 in0.0 mm
12:35 AM 59.9°F15.5°C 58.2°F14.6°C 94% 8.5 mph SE13.7 kmh SE 12.0 mph19.3 kmh 29.83 in1010.2 mb 0.00 in0.0 mm 0.00 in0.0 mm 0.00 in0.0 mm
12:36 AM 59.9°F15.5°C 58.2°F14.6°C 94% 8.9 mph SE14.3 kmh SE 12.0 mph19.3 kmh 29.83 in1010.2 mb 0.00 in0.0 mm 0.00 in0.0 mm 0.00 in0.0 mm
12:37 AM 59.9°F15.5°C 58.2°F14.6°C 94% 8.8 mph SE14.2 kmh SE 12.0 mph19.3 kmh 29.83 in1010.2 mb 0.00 in0.0 mm 0.00 in0.0 mm 0.00 in0.0 mm
12:38 AM 59.9°F15.5°C 58.2°F14.6°C 94% 9.3 mph SE15.0 kmh SE 15.0 mph24.1 kmh 29.83 in1010.2 mb 0.00 in0.0 mm 0.00 in0.0 mm 0.00 in0.0 mm
12:39 AM 59.9°F15.5°C 58.2°F14.6°C 94% 8.5 mph SE13.7 kmh SE 15.0 mph24.1 kmh 29.83 in1010.2 mb 0.00 in0.0 mm 0.00 in0.0 mm 0.00 in0.0 mm
12:40 AM 59.9°F15.5°C 58.2°F14.6°C 94% 9.5 mph SE15.3 kmh SE 13.0 mph20.9 kmh 29.83 in1010.2 mb 0.00 in0.0 mm 0.00 in0.0 mm 0.00 in0.0 mm
12:41 AM 59.9°F15.5°C 58.2°F14.6°C 94% 7.3 mph SE11.7 kmh SE 13.0 mph20.9 kmh 29.83 in1010.2 mb 0.00 in0.0 mm 0.00 in0.0 mm 0.00 in0.0 mm
12:42 AM 59.9°F15.5°C 58.2°F14.6°C 94% 10.6 mph SE17.1 kmh SE 12.0 mph19.3 kmh 29.82 in1009.8 mb 0.01 in0.3 mm 0.60 in15.2 mm 0.01 in0.3 mm
12:43 AM 59.9°F15.5°C 58.2°F14.6°C 94% 8.2 mph SE13.2 kmh SE 12.0 mph19.3 kmh 29.82 in1009.8 mb 0.01 in0.3 mm 0.00 in0.0 mm 0.01 in0.3 mm
12:44 AM 59.9°F15.5°C 58.2°F14.6°C 94% 9.5 mph SE15.3 kmh SE 12.0 mph19.3 kmh 29.82 in1009.8 mb 0.01 in0.3 mm 0.00 in0.0 mm 0.01 in0.3 mm
12:45 AM 59.9°F15.5°C 58.2°F14.6°C 94% 9.1 mph SSE14.6 kmh SSE 11.0 mph17.7 kmh 29.82 in1009.8 mb 0.01 in0.3 mm 0.00 in0.0 mm 0.01 in0.3 mm
12:46 AM 59.9°F15.5°C 58.2°F14.6°C 94% 7.5 mph SE12.1 kmh SE 11.0 mph17.7 kmh 29.82 in1009.8 mb 0.01 in0.3 mm 0.00 in0.0 mm 0.01 in0.3 mm
12:47 AM 59.9°F15.5°C 58.2°F14.6°C 94% 7.0 mph SE11.3 kmh SE 10.0 mph16.1 kmh 29.82 in1009.8 mb 0.01 in0.3 mm 0.00 in0.0 mm 0.01 in0.3 mm
12:48 AM 59.9°F15.5°C 58.2°F14.6°C 94% 10.0 mph SSE16.1 kmh SSE 14.0 mph22.5 kmh 29.82 in1009.8 mb 0.01 in0.3 mm 0.00 in0.0 mm 0.01 in0.3 mm
12:49 AM 60.0°F15.6°C 58.3°F14.6°C 94% 9.0 mph SE14.5 kmh SE 13.0 mph20.9 kmh 29.82 in1009.8 mb 0.01 in0.3 mm 0.00 in0.0 mm 0.01 in0.3 mm
12:50 AM 59.9°F15.5°C 58.2°F14.6°C 94% 9.5 mph SSE15.3 kmh SSE 12.0 mph19.3 kmh 29.82 in1009.8 mb 0.01 in0.3 mm 0.00 in0.0 mm 0.01 in0.3 mm
12:51 AM 59.9°F15.5°C 58.2°F14.6°C 94% 9.4 mph SE15.1 kmh SE 13.0 mph20.9 kmh 29.82 in1009.8 mb 0.01 in0.3 mm 0.00 in0.0 mm 0.01 in0.3 mm
12:52 AM 59.9°F15.5°C 58.2°F14.6°C 94% 7.9 mph SE12.7 kmh SE 13.0 mph20.9 kmh 29.82 in1009.8 mb 0.02 in0.5 mm 0.60 in15.2 mm 0.02 in0.5 mm
12:53 AM 59.9°F15.5°C 58.2°F14.6°C 94% 7.8 mph SE12.6 kmh SE 11.0 mph17.7 kmh 29.82 in1009.8 mb 0.02 in0.5 mm 0.00 in0.0 mm 0.02 in0.5 mm
12:54 AM 60.0°F15.6°C 58.3°F14.6°C 94% 9.3 mph SSE15.0 kmh SSE 12.0 mph19.3 kmh 29.82 in1009.8 mb 0.02 in0.5 mm 0.00 in0.0 mm 0.02 in0.5 mm
12:55 AM 59.9°F15.5°C 58.5°F14.7°C 95% 9.6 mph SSE15.4 kmh SSE 13.0 mph20.9 kmh 29.82 in1009.8 mb 0.02 in0.5 mm 0.00 in0.0 mm 0.02 in0.5 mm
12:56 AM 60.0°F15.6°C 58.3°F14.6°C 94% 7.7 mph SE12.4 kmh SE 13.0 mph20.9 kmh 29.82 in1009.8 mb 0.02 in0.5 mm 0.00 in0.0 mm 0.02 in0.5 mm
12:57 AM 60.0°F15.6°C 58.3°F14.6°C 94% 6.6 mph SE10.6 kmh SE 10.0 mph16.1 kmh 29.82 in1009.8 mb 0.02 in0.5 mm 0.00 in0.0 mm 0.02 in0.5 mm
12:58 AM 60.0°F15.6°C 58.3°F14.6°C 94% 8.4 mph SE13.5 kmh SE 12.0 mph19.3 kmh 29.82 in1009.8 mb 0.02 in0.5 mm 0.00 in0.0 mm 0.02 in0.5 mm
12:59 AM 59.9°F15.5°C 58.2°F14.6°C 94% 9.0 mph SE14.5 kmh SE 12.0 mph19.3 kmh 29.82 in1009.8 mb 0.02 in0.5 mm 0.00 in0.0 mm 0.02 in0.5 mm
01:00 AM 60.0°F15.6°C 58.3°F14.6°C 94% 6.7 mph SE10.8 kmh SE 12.0 mph19.3 kmh 29.82 in1009.8 mb 0.02 in0.5 mm 0.00 in0.0 mm 0.02 in0.5 mm
01:01 AM 60.0°F15.6°C 58.3°F14.6°C 94% 6.7 mph SSE10.8 kmh SSE 10.0 mph16.1 kmh 29.82 in1009.8 mb 0.02 in0.5 mm 0.00 in0.0 mm 0.02 in0.5 mm
01:02 AM 60.0°F15.6°C 58.6°F14.8°C 95% 6.2 mph SE10.0 kmh SE 9.0 mph14.5 kmh 29.82 in1009.8 mb 0.02 in0.5 mm 0.00 in0.0 mm 0.02 in0.5 mm
01:03 AM 60.0°F15.6°C 58.6°F14.8°C 95% 6.7 mph SE10.8 kmh SE 9.0 mph14.5 kmh 29.82 in1009.8 mb 0.02 in0.5 mm 0.00 in0.0 mm 0.02 in0.5 mm
01:04 AM 60.0°F15.6°C 58.6°F14.8°C 95% 7.5 mph SE12.1 kmh SE 11.0 mph17.7 kmh 29.82 in1009.8 mb 0.02 in0.5 mm 0.00 in0.0 mm 0.02 in0.5 mm
01:05 AM 60.0°F15.6°C 58.6°F14.8°C 95% 6.4 mph SE10.3 kmh SE 11.0 mph17.7 kmh 29.82 in1009.8 mb 0.02 in0.5 mm 0.00 in0.0 mm 0.02 in0.5 mm
01:06 AM 60.0°F15.6°C 58.6°F14.8°C 95% 8.6 mph SE13.8 kmh SE 11.0 mph17.7 kmh 29.82 in1009.8 mb 0.02 in0.5 mm 0.00 in0.0 mm 0.02 in0.5 mm
01:07 AM 60.0°F15.6°C 58.6°F14.8°C 95% 7.4 mph SE11.9 kmh SE 11.0 mph17.7 kmh 29.82 in1009.8 mb 0.02 in0.5 mm 0.00 in0.0 mm 0.02 in0.5 mm
01:08 AM 60.0°F15.6°C 58.6°F14.8°C 95% 7.4 mph SE11.9 kmh SE 12.0 mph19.3 kmh 29.82 in1009.8 mb 0.02 in0.5 mm 0.00 in0.0 mm 0.02 in0.5 mm
01:09 AM 60.0°F15.6°C 58.6°F14.8°C 95% 8.1 mph SSE13.0 kmh SSE 12.0 mph19.3 kmh 29.82 in1009.8 mb 0.02 in0.5 mm 0.00 in0.0 mm 0.02 in0.5 mm
01:10 AM 60.1°F15.6°C 58.7°F14.8°C 95% 8.0 mph SSE12.9 kmh SSE 12.0 mph19.3 kmh 29.82 in1009.8 mb 0.02 in0.5 mm 0.00 in0.0 mm 0.02 in0.5 mm
01:11 AM 60.1°F15.6°C 58.7°F14.8°C 95% 6.5 mph SE10.5 kmh SE 10.0 mph16.1 kmh 29.82 in1009.8 mb 0.02 in0.5 mm 0.00 in0.0 mm 0.02 in0.5 mm
01:12 AM 60.1°F15.6°C 58.7°F14.8°C 95% 7.1 mph SE11.4 kmh SE 9.0 mph14.5 kmh 29.82 in1009.8 mb 0.02 in0.5 mm 0.00 in0.0 mm 0.02 in0.5 mm
01:13 AM 60.1°F15.6°C 58.7°F14.8°C 95% 8.5 mph SE13.7 kmh SE 11.0 mph17.7 kmh 29.82 in1009.8 mb 0.02 in0.5 mm 0.00 in0.0 mm 0.02 in0.5 mm
01:14 AM 60.1°F15.6°C 58.7°F14.8°C 95% 6.8 mph SSE10.9 kmh SSE 11.0 mph17.7 kmh 29.82 in1009.8 mb 0.02 in0.5 mm 0.00 in0.0 mm 0.02 in0.5 mm
01:15 AM 60.1°F15.6°C 58.7°F14.8°C 95% 8.1 mph SSE13.0 kmh SSE 11.0 mph17.7 kmh 29.82 in1009.8 mb 0.02 in0.5 mm 0.00 in0.0 mm 0.02 in0.5 mm
01:16 AM 60.2°F15.7°C 58.8°F14.9°C 95% 8.3 mph SSE13.4 kmh SSE 13.0 mph20.9 kmh 29.82 in1009.8 mb 0.02 in0.5 mm 0.00 in0.0 mm 0.02 in0.5 mm
01:17 AM 60.1°F15.6°C 58.7°F14.8°C 95% 7.5 mph SSE12.1 kmh SSE 13.0 mph20.9 kmh 29.82 in1009.8 mb 0.02 in0.5 mm 0.00 in0.0 mm 0.02 in0.5 mm
01:18 AM 60.2°F15.7°C 58.8°F14.9°C 95% 7.6 mph SSE12.2 kmh SSE 12.0 mph19.3 kmh 29.81 in1009.5 mb 0.02 in0.5 mm 0.00 in0.0 mm 0.02 in0.5 mm
01:19 AM 60.2°F15.7°C 58.8°F14.9°C 95% 7.2 mph SSE11.6 kmh SSE 12.0 mph19.3 kmh 29.82 in1009.8 mb 0.02 in0.5 mm 0.00 in0.0 mm 0.02 in0.5 mm
01:20 AM 60.1°F15.6°C 58.7°F14.8°C 95% 7.5 mph SSE12.1 kmh SSE 11.0 mph17.7 kmh 29.81 in1009.5 mb 0.02 in0.5 mm 0.00 in0.0 mm 0.02 in0.5 mm
01:21 AM 60.2°F15.7°C 58.8°F14.9°C 95% 7.5 mph SSE12.1 kmh SSE 12.0 mph19.3 kmh 29.81 in1009.5 mb 0.02 in0.5 mm 0.00 in0.0 mm 0.02 in0.5 mm
01:22 AM 60.2°F15.7°C 58.8°F14.9°C 95% 6.8 mph SE10.9 kmh SE 12.0 mph19.3 kmh 29.81 in1009.5 mb 0.02 in0.5 mm 0.00 in0.0 mm 0.02 in0.5 mm
01:23 AM 60.2°F15.7°C 58.8°F14.9°C 95% 8.7 mph SE14.0 kmh SE 11.0 mph17.7 kmh 29.81 in1009.5 mb 0.02 in0.5 mm 0.00 in0.0 mm 0.02 in0.5 mm
01:24 AM 60.2°F15.7°C 58.8°F14.9°C 95% 7.9 mph SSE12.7 kmh SSE 11.0 mph17.7 kmh 29.81 in1009.5 mb 0.02 in0.5 mm 0.00 in0.0 mm 0.02 in0.5 mm
01:25 AM 60.2°F15.7°C 58.8°F14.9°C 95% 8.6 mph SSE13.8 kmh SSE 13.0 mph20.9 kmh 29.81 in1009.5 mb 0.02 in0.5 mm 0.00 in0.0 mm 0.02 in0.5 mm
01:26 AM 60.2°F15.7°C 58.8°F14.9°C 95% 7.0 mph SSE11.3 kmh SSE 13.0 mph20.9 kmh 29.81 in1009.5 mb 0.02 in0.5 mm 0.00 in0.0 mm 0.02 in0.5 mm
01:27 AM 60.2°F15.7°C 58.8°F14.9°C 95% 6.0 mph SE9.7 kmh SE 9.0 mph14.5 kmh 29.81 in1009.5 mb 0.02 in0.5 mm 0.00 in0.0 mm 0.02 in0.5 mm
01:28 AM 60.3°F15.7°C 58.9°F14.9°C 95% 5.8 mph SSE9.3 kmh SSE 10.0 mph16.1 kmh 29.81 in1009.5 mb 0.02 in0.5 mm 0.00 in0.0 mm 0.02 in0.5 mm
01:29 AM 60.3°F15.7°C 58.9°F14.9°C 95% 6.0 mph SSE9.7 kmh SSE 8.0 mph12.9 kmh 29.81 in1009.5 mb 0.02 in0.5 mm 0.00 in0.0 mm 0.02 in0.5 mm
01:30 AM 60.3°F15.7°C 58.9°F14.9°C 95% 6.0 mph SE9.7 kmh SE 9.0 mph14.5 kmh 29.81 in1009.5 mb 0.02 in0.5 mm 0.00 in0.0 mm 0.02 in0.5 mm
01:31 AM 60.3°F15.7°C 58.9°F14.9°C 95% 8.8 mph SSE14.2 kmh SSE 9.0 mph14.5 kmh 29.81 in1009.5 mb 0.02 in0.5 mm 0.00 in0.0 mm 0.02 in0.5 mm
01:32 AM 60.3°F15.7°C 58.9°F14.9°C 95% 5.2 mph SSE8.4 kmh SSE 9.0 mph14.5 kmh 29.81 in1009.5 mb 0.02 in0.5 mm 0.00 in0.0 mm 0.02 in0.5 mm
01:33 AM 60.3°F15.7°C 58.9°F14.9°C 95% 7.6 mph SSE12.2 kmh SSE 10.0 mph16.1 kmh 29.81 in1009.5 mb 0.02 in0.5 mm 0.00 in0.0 mm 0.02 in0.5 mm
01:34 AM 60.4°F15.8°C 59.0°F15.0°C 95% 6.6 mph SSE10.6 kmh SSE 11.0 mph17.7 kmh 29.81 in1009.5 mb 0.02 in0.5 mm 0.00 in0.0 mm 0.02 in0.5 mm
01:35 AM 60.3°F15.7°C 58.9°F14.9°C 95% 9.3 mph SSE15.0 kmh SSE 11.0 mph17.7 kmh 29.81 in1009.5 mb 0.02 in0.5 mm 0.00 in0.0 mm 0.02 in0.5 mm
01:36 AM 60.4°F15.8°C 59.0°F15.0°C 95% 5.6 mph SSE9.0 kmh SSE 11.0 mph17.7 kmh 29.81 in1009.5 mb 0.02 in0.5 mm 0.00 in0.0 mm 0.02 in0.5 mm
01:37 AM 60.4°F15.8°C 59.0°F15.0°C 95% 7.8 mph SSE12.6 kmh SSE 11.0 mph17.7 kmh 29.81 in1009.5 mb 0.02 in0.5 mm 0.00 in0.0 mm 0.02 in0.5 mm
01:38 AM 60.4°F15.8°C 59.0°F15.0°C 95% 6.5 mph S10.5 kmh S 11.0 mph17.7 kmh 29.81 in1009.5 mb 0.02 in0.5 mm 0.00 in0.0 mm 0.02 in0.5 mm
01:39 AM 60.5°F15.8°C 58.8°F14.9°C 94% 7.3 mph S11.7 kmh S 9.0 mph14.5 kmh 29.81 in1009.5 mb 0.02 in0.5 mm 0.00 in0.0 mm 0.02 in0.5 mm
01:40 AM 60.5°F15.8°C 58.8°F14.9°C 94% 5.0 mph S8.0 kmh S 8.0 mph12.9 kmh 29.81 in1009.5 mb 0.02 in0.5 mm 0.00 in0.0 mm 0.02 in0.5 mm
01:41 AM 60.5°F15.8°C 58.8°F14.9°C 94% 6.0 mph S9.7 kmh S 9.0 mph14.5 kmh 29.81 in1009.5 mb 0.02 in0.5 mm 0.00 in0.0 mm 0.02 in0.5 mm
01:42 AM 60.5°F15.8°C 58.8°F14.9°C 94% 5.8 mph SSE9.3 kmh SSE 8.0 mph12.9 kmh 29.81 in1009.5 mb 0.01 in0.3 mm 0.00 in0.0 mm 0.02 in0.5 mm
01:43 AM 60.5°F15.8°C 58.8°F14.9°C 94% 5.5 mph SSE8.9 kmh SSE 9.0 mph14.5 kmh 29.81 in1009.5 mb 0.01 in0.3 mm 0.00 in0.0 mm 0.02 in0.5 mm
01:44 AM 60.5°F15.8°C 58.8°F14.9°C 94% 6.1 mph S9.8 kmh S 9.0 mph14.5 kmh 29.81 in1009.5 mb 0.01 in0.3 mm 0.00 in0.0 mm 0.02 in0.5 mm
01:45 AM 60.5°F15.8°C 58.8°F14.9°C 94% 7.0 mph SSE11.3 kmh SSE 10.0 mph16.1 kmh 29.81 in1009.5 mb 0.01 in0.3 mm 0.00 in0.0 mm 0.02 in0.5 mm
01:46 AM 60.5°F15.8°C 58.8°F14.9°C 94% 6.1 mph S9.8 kmh S 11.0 mph17.7 kmh 29.81 in1009.5 mb 0.01 in0.3 mm 0.00 in0.0 mm 0.02 in0.5 mm
01:47 AM 60.5°F15.8°C 58.8°F14.9°C 94% 4.6 mph SSE7.4 kmh SSE 10.0 mph16.1 kmh 29.81 in1009.5 mb 0.01 in0.3 mm 0.00 in0.0 mm 0.02 in0.5 mm
01:48 AM 60.5°F15.8°C 58.8°F14.9°C 94% 6.4 mph SSE10.3 kmh SSE 10.0 mph16.1 kmh 29.81 in1009.5 mb 0.01 in0.3 mm 0.00 in0.0 mm 0.02 in0.5 mm
01:49 AM 60.5°F15.8°C 58.8°F14.9°C 94% 4.7 mph S7.6 kmh S 10.0 mph16.1 kmh 29.81 in1009.5 mb 0.01 in0.3 mm 0.00 in0.0 mm 0.02 in0.5 mm
01:50 AM 60.5°F15.8°C 58.8°F14.9°C 94% 5.2 mph SSE8.4 kmh SSE 7.0 mph11.3 kmh 29.81 in1009.5 mb 0.01 in0.3 mm 0.00 in0.0 mm 0.02 in0.5 mm
01:51 AM 60.5°F15.8°C 58.8°F14.9°C 94% 5.8 mph SSE9.3 kmh SSE 9.0 mph14.5 kmh 29.81 in1009.5 mb 0.01 in0.3 mm 0.00 in0.0 mm 0.02 in0.5 mm
01:52 AM 60.5°F15.8°C 58.8°F14.9°C 94% 6.1 mph SSE9.8 kmh SSE 9.0 mph14.5 kmh 29.80 in1009.1 mb 0.00 in0.0 mm 0.00 in0.0 mm 0.02 in0.5 mm
01:53 AM 60.5°F15.8°C 58.8°F14.9°C 94% 5.5 mph SSE8.9 kmh SSE 8.0 mph12.9 kmh 29.80 in1009.1 mb 0.00 in0.0 mm 0.00 in0.0 mm 0.02 in0.5 mm
01:54 AM 60.5°F15.8°C 58.8°F14.9°C 94% 5.4 mph S8.7 kmh S 8.0 mph12.9 kmh 29.81 in1009.5 mb 0.00 in0.0 mm 0.00 in0.0 mm 0.02 in0.5 mm
01:55 AM 60.6°F15.9°C 58.9°F14.9°C 94% 5.8 mph SSE9.3 kmh SSE 11.0 mph17.7 kmh 29.81 in1009.5 mb 0.00 in0.0 mm 0.00 in0.0 mm 0.02 in0.5 mm
01:56 AM 60.6°F15.9°C 58.9°F14.9°C 94% 6.1 mph SSE9.8 kmh SSE 11.0 mph17.7 kmh 29.81 in1009.5 mb 0.00 in0.0 mm 0.00 in0.0 mm 0.02 in0.5 mm
01:57 AM 60.5°F15.8°C 58.8°F14.9°C 94% 6.0 mph SSE9.7 kmh SSE 9.0 mph14.5 kmh 29.81 in1009.5 mb 0.00 in0.0 mm 0.00 in0.0 mm 0.02 in0.5 mm
01:58 AM 60.5°F15.8°C 58.8°F14.9°C 94% 5.0 mph SSE8.0 kmh SSE 8.0 mph12.9 kmh 29.81 in1009.5 mb 0.00 in0.0 mm 0.00 in0.0 mm 0.02 in0.5 mm
01:59 AM 60.6°F15.9°C 58.9°F14.9°C 94% 6.0 mph SSE9.7 kmh SSE 9.0 mph14.5 kmh 29.80 in1009.1 mb 0.00 in0.0 mm 0.00 in0.0 mm 0.02 in0.5 mm
02:00 AM 60.6°F15.9°C 58.9°F14.9°C 94% 4.8 mph S7.7 kmh S 7.0 mph11.3 kmh 29.80 in1009.1 mb 0.00 in0.0 mm 0.00 in0.0 mm 0.02 in0.5 mm
02:01 AM 60.6°F15.9°C 58.9°F14.9°C 94% 5.7 mph SSE9.2 kmh SSE 8.0 mph12.9 kmh 29.80 in1009.1 mb 0.00 in0.0 mm 0.00 in0.0 mm 0.02 in0.5 mm
02:02 AM 60.6°F15.9°C 58.9°F14.9°C 94% 5.2 mph S8.4 kmh S 8.0 mph12.9 kmh 29.80 in1009.1 mb 0.00 in0.0 mm 0.00 in0.0 mm 0.02 in0.5 mm
02:03 AM 60.6°F15.9°C 58.9°F14.9°C 94% 4.3 mph SSE6.9 kmh SSE 8.0 mph12.9 kmh 29.80 in1009.1 mb 0.00 in0.0 mm 0.00 in0.0 mm 0.02 in0.5 mm
02:04 AM 60.7°F15.9°C 59.0°F15.0°C 94% 5.0 mph S8.0 kmh S 8.0 mph12.9 kmh 29.80 in1009.1 mb 0.00 in0.0 mm 0.00 in0.0 mm 0.02 in0.5 mm
02:05 AM 60.6°F15.9°C 58.9°F14.9°C 94% 7.6 mph SSE12.2 kmh SSE 10.0 mph16.1 kmh 29.80 in1009.1 mb 0.00 in0.0 mm 0.00 in0.0 mm 0.02 in0.5 mm
02:06 AM 60.6°F15.9°C 58.9°F14.9°C 94% 5.0 mph SSE8.0 kmh SSE 8.0 mph12.9 kmh 29.80 in1009.1 mb 0.00 in0.0 mm 0.00 in0.0 mm 0.02 in0.5 mm
02:07 AM 60.6°F15.9°C 58.9°F14.9°C 94% 5.0 mph S8.0 kmh S 7.0 mph11.3 kmh 29.80 in1009.1 mb 0.00 in0.0 mm 0.00 in0.0 mm 0.02 in0.5 mm
02:08 AM 60.6°F15.9°C 58.9°F14.9°C 94% 6.0 mph SSE9.7 kmh SSE 9.0 mph14.5 kmh 29.80 in1009.1 mb 0.00 in0.0 mm 0.00 in0.0 mm 0.02 in0.5 mm
02:09 AM 60.7°F15.9°C 59.0°F15.0°C 94% 5.0 mph SSE8.0 kmh SSE 8.0 mph12.9 kmh 29.80 in1009.1 mb 0.00 in0.0 mm 0.00 in0.0 mm 0.02 in0.5 mm
02:10 AM 60.7°F15.9°C 59.0°F15.0°C 94% 7.4 mph SSE11.9 kmh SSE 12.0 mph19.3 kmh 29.80 in1009.1 mb 0.00 in0.0 mm 0.00 in0.0 mm 0.02 in0.5 mm
02:11 AM 60.6°F15.9°C 58.9°F14.9°C 94% 6.4 mph SSE10.3 kmh SSE 12.0 mph19.3 kmh 29.80 in1009.1 mb 0.00 in0.0 mm 0.00 in0.0 mm 0.02 in0.5 mm
02:12 AM 60.7°F15.9°C 59.0°F15.0°C 94% 3.9 mph S6.3 kmh S 9.0 mph14.5 kmh 29.80 in1009.1 mb 0.00 in0.0 mm 0.00 in0.0 mm 0.02 in0.5 mm
02:13 AM 60.7°F15.9°C 59.0°F15.0°C 94% 4.4 mph S7.1 kmh S 7.0 mph11.3 kmh 29.80 in1009.1 mb 0.00 in0.0 mm 0.00 in0.0 mm 0.02 in0.5 mm
02:14 AM 60.7°F15.9°C 59.0°F15.0°C 94% 6.1 mph SSE9.8 kmh SSE 9.0 mph14.5 kmh 29.80 in1009.1 mb 0.00 in0.0 mm 0.00 in0.0 mm 0.02 in0.5 mm
02:15 AM 60.7°F15.9°C 59.0°F15.0°C 94% 5.0 mph S8.0 kmh S 9.0 mph14.5 kmh 29.80 in1009.1 mb 0.00 in0.0 mm 0.00 in0.0 mm 0.02 in0.5 mm
02:16 AM 60.7°F15.9°C 59.0°F15.0°C 94% 5.0 mph S8.0 kmh S 6.0 mph9.7 kmh 29.80 in1009.1 mb 0.00 in0.0 mm 0.00 in0.0 mm 0.02 in0.5 mm
02:17 AM 60.7°F15.9°C 59.0°F15.0°C 94% 6.6 mph S10.6 kmh S 8.0 mph12.9 kmh 29.80 in1009.1 mb 0.00 in0.0 mm 0.00 in0.0 mm 0.02 in0.5 mm
02:18 AM 60.7°F15.9°C 59.3°F15.2°C 95% 7.4 mph S11.9 kmh S 9.0 mph14.5 kmh 29.80 in1009.1 mb 0.00 in0.0 mm 0.00 in0.0 mm 0.02 in0.5 mm
02:19 AM 60.7°F15.9°C 59.3°F15.2°C 95% 5.9 mph S9.5 kmh S 9.0 mph14.5 kmh 29.80 in1009.1 mb 0.00 in0.0 mm 0.00 in0.0 mm 0.02 in0.5 mm
02:20 AM 60.7°F15.9°C 59.3°F15.2°C 95% 4.7 mph S7.6 kmh S 9.0 mph14.5 kmh 29.80 in1009.1 mb 0.00 in0.0 mm 0.00 in0.0 mm 0.02 in0.5 mm
02:21 AM 60.7°F15.9°C 59.3°F15.2°C 95% 5.5 mph S8.9 kmh S 7.0 mph11.3 kmh 29.80 in1009.1 mb 0.00 in0.0 mm 0.00 in0.0 mm 0.02 in0.5 mm
02:22 AM 60.7°F15.9°C 59.3°F15.2°C 95% 5.5 mph SSE8.9 kmh SSE 8.0 mph12.9 kmh 29.80 in1009.1 mb 0.00 in0.0 mm 0.00 in0.0 mm 0.02 in0.5 mm
02:23 AM 60.7°F15.9°C 59.3°F15.2°C 95% 5.5 mph SSE8.9 kmh SSE 8.0 mph12.9 kmh 29.80 in1009.1 mb 0.00 in0.0 mm 0.00 in0.0 mm 0.02 in0.5 mm
02:24 AM 60.8°F16.0°C 59.4°F15.2°C 95% 4.6 mph S7.4 kmh S 7.0 mph11.3 kmh 29.80 in1009.1 mb 0.00 in0.0 mm 0.00 in0.0 mm 0.02 in0.5 mm
02:25 AM 60.7°F15.9°C 59.3°F15.2°C 95% 4.3 mph SSE6.9 kmh SSE 7.0 mph11.3 kmh 29.80 in1009.1 mb 0.00 in0.0 mm 0.00 in0.0 mm 0.02 in0.5 mm
02:26 AM 60.8°F16.0°C 59.4°F15.2°C 95% 6.5 mph SSE10.5 kmh SSE 10.0 mph16.1 kmh 29.80 in1009.1 mb 0.00 in0.0 mm 0.00 in0.0 mm 0.02 in0.5 mm
02:27 AM 60.7°F15.9°C 59.3°F15.2°C 95% 4.9 mph SSE7.9 kmh SSE 10.0 mph16.1 kmh 29.80 in1009.1 mb 0.00 in0.0 mm 0.00 in0.0 mm 0.02 in0.5 mm
02:28 AM 60.7°F15.9°C 59.3°F15.2°C 95% 5.0 mph SSE8.0 kmh SSE 7.0 mph11.3 kmh 29.80 in1009.1 mb 0.00 in0.0 mm 0.00 in0.0 mm 0.02 in0.5 mm
02:29 AM 60.7°F15.9°C 59.3°F15.2°C 95% 6.0 mph SSE9.7 kmh SSE 9.0 mph14.5 kmh 29.80 in1009.1 mb 0.00 in0.0 mm 0.00 in0.0 mm 0.02 in0.5 mm
02:30 AM 60.7°F15.9°C 59.3°F15.2°C 95% 7.0 mph SSE11.3 kmh SSE 9.0 mph14.5 kmh 29.80 in1009.1 mb 0.00 in0.0 mm 0.00 in0.0 mm 0.02 in0.5 mm
02:31 AM 60.7°F15.9°C 59.3°F15.2°C 95% 3.9 mph S6.3 kmh S 5.0 mph8.0 kmh 29.80 in1009.1 mb 0.00 in0.0 mm 0.00 in0.0 mm 0.02 in0.5 mm
02:32 AM 60.7°F15.9°C 59.3°F15.2°C 95% 5.3 mph SSE8.5 kmh SSE 7.0 mph11.3 kmh 29.80 in1009.1 mb 0.00 in0.0 mm 0.00 in0.0 mm 0.02 in0.5 mm
02:33 AM 60.7°F15.9°C 59.3°F15.2°C 95% 4.6 mph SSE7.4 kmh SSE 7.0 mph11.3 kmh 29.80 in1009.1 mb 0.00 in0.0 mm 0.00 in0.0 mm 0.02 in0.5 mm
02:34 AM 60.7°F15.9°C 59.3°F15.2°C 95% 4.4 mph S7.1 kmh S 7.0 mph11.3 kmh 29.79 in1008.8 mb 0.00 in0.0 mm 0.00 in0.0 mm 0.02 in0.5 mm
02:35 AM 60.7°F15.9°C 59.3°F15.2°C 95% 4.5 mph SSE7.2 kmh SSE 6.0 mph9.7 kmh 29.80 in1009.1 mb 0.00 in0.0 mm 0.00 in0.0 mm 0.02 in0.5 mm
02:36 AM 60.7°F15.9°C 59.3°F15.2°C 95% 3.3 mph S5.3 kmh S 6.0 mph9.7 kmh 29.79 in1008.8 mb 0.00 in0.0 mm 0.00 in0.0 mm 0.02 in0.5 mm
02:37 AM 60.7°F15.9°C 59.3°F15.2°C 95% 3.6 mph SSE5.8 kmh SSE 5.0 mph8.0 kmh 29.79 in1008.8 mb 0.00 in0.0 mm 0.00 in0.0 mm 0.02 in0.5 mm
02:38 AM 60.7°F15.9°C 59.3°F15.2°C 95% 3.8 mph S6.1 kmh S 5.0 mph8.0 kmh 29.79 in1008.8 mb 0.00 in0.0 mm 0.00 in0.0 mm 0.02 in0.5 mm
02:39 AM 60.6°F15.9°C 59.2°F15.1°C 95% 5.3 mph S8.5 kmh S 8.0 mph12.9 kmh 29.79 in1008.8 mb 0.00 in0.0 mm 0.00 in0.0 mm 0.02 in0.5 mm
02:40 AM 60.7°F15.9°C 59.3°F15.2°C 95% 4.9 mph SSE7.9 kmh SSE 8.0 mph12.9 kmh 29.79 in1008.8 mb 0.00 in0.0 mm 0.00 in0.0 mm 0.02 in0.5 mm
02:41 AM 60.7°F15.9°C 59.3°F15.2°C 95% 4.7 mph SSE7.6 kmh SSE 8.0 mph12.9 kmh 29.79 in1008.8 mb 0.00 in0.0 mm 0.00 in0.0 mm 0.02 in0.5 mm
02:42 AM 60.7°F15.9°C 59.3°F15.2°C 95% 5.3 mph S8.5 kmh S 7.0 mph11.3 kmh 29.79 in1008.8 mb 0.00 in0.0 mm 0.00 in0.0 mm 0.02 in0.5 mm
02:43 AM 60.7°F15.9°C 59.3°F15.2°C 95% 5.0 mph S8.0 kmh S 7.0 mph11.3 kmh 29.79 in1008.8 mb 0.00 in0.0 mm 0.00 in0.0 mm 0.02 in0.5 mm
02:44 AM 60.6°F15.9°C 59.2°F15.1°C 95% 5.1 mph S8.2 kmh S 8.0 mph12.9 kmh 29.79 in1008.8 mb 0.00 in0.0 mm 0.00 in0.0 mm 0.02 in0.5 mm
02:45 AM 60.7°F15.9°C 59.3°F15.2°C 95% 5.2 mph S8.4 kmh S 8.0 mph12.9 kmh 29.79 in1008.8 mb 0.00 in0.0 mm 0.00 in0.0 mm 0.02 in0.5 mm
02:46 AM 60.7°F15.9°C 59.3°F15.2°C 95% 6.5 mph SSE10.5 kmh SSE 9.0 mph14.5 kmh 29.79 in1008.8 mb 0.00 in0.0 mm 0.00 in0.0 mm 0.02 in0.5 mm
02:47 AM 60.7°F15.9°C 59.3°F15.2°C 95% 6.5 mph SSE10.5 kmh SSE 9.0 mph14.5 kmh 29.79 in1008.8 mb 0.00 in0.0 mm 0.00 in0.0 mm 0.02 in0.5 mm
02:48 AM 60.6°F15.9°C 59.2°F15.1°C 95% 5.8 mph SSE9.3 kmh SSE 9.0 mph14.5 kmh 29.79 in1008.8 mb 0.00 in0.0 mm 0.00 in0.0 mm 0.02 in0.5 mm
02:49 AM 60.7°F15.9°C 59.3°F15.2°C 95% 7.5 mph SSE12.1 kmh SSE 10.0 mph16.1 kmh 29.79 in1008.8 mb 0.00 in0.0 mm 0.00 in0.0 mm 0.02 in0.5 mm
02:50 AM 60.7°F15.9°C 59.3°F15.2°C 95% 4.3 mph SSE6.9 kmh SSE 10.0 mph16.1 kmh 29.79 in1008.8 mb 0.00 in0.0 mm 0.00 in0.0 mm 0.02 in0.5 mm
02:51 AM 60.7°F15.9°C 59.3°F15.2°C 95% 5.8 mph SSE9.3 kmh SSE 9.0 mph14.5 kmh 29.79 in1008.8 mb 0.00 in0.0 mm 0.00 in0.0 mm 0.02 in0.5 mm
02:52 AM 60.7°F15.9°C 59.3°F15.2°C 95% 5.5 mph SSE8.9 kmh SSE 10.0 mph16.1 kmh 29.79 in1008.8 mb 0.00 in0.0 mm 0.00 in0.0 mm 0.02 in0.5 mm
02:53 AM 60.7°F15.9°C 59.3°F15.2°C 95% 4.6 mph S7.4 kmh S 9.0 mph14.5 kmh 29.79 in1008.8 mb 0.00 in0.0 mm 0.00 in0.0 mm 0.02 in0.5 mm
02:54 AM 60.7°F15.9°C 59.3°F15.2°C 95% 6.2 mph SSE10.0 kmh SSE 9.0 mph14.5 kmh 29.79 in1008.8 mb 0.00 in0.0 mm 0.00 in0.0 mm 0.02 in0.5 mm
02:55 AM 60.7°F15.9°C 59.3°F15.2°C 95% 4.0 mph SSE6.4 kmh SSE 7.0 mph11.3 kmh 29.79 in1008.8 mb 0.00 in0.0 mm 0.00 in0.0 mm 0.02 in0.5 mm
02:56 AM 60.7°F15.9°C 59.3°F15.2°C 95% 6.0 mph SSE9.7 kmh SSE 8.0 mph12.9 kmh 29.79 in1008.8 mb 0.00 in0.0 mm 0.00 in0.0 mm 0.02 in0.5 mm
02:57 AM 60.7°F15.9°C 59.3°F15.2°C 95% 6.0 mph SSE9.7 kmh SSE 8.0 mph12.9 kmh 29.79 in1008.8 mb 0.00 in0.0 mm 0.00 in0.0 mm 0.02 in0.5 mm
02:58 AM 60.7°F15.9°C 59.3°F15.2°C 95% 4.9 mph SSE7.9 kmh SSE 8.0 mph12.9 kmh 29.79 in1008.8 mb 0.00 in0.0 mm 0.00 in0.0 mm 0.02 in0.5 mm
02:59 AM 60.7°F15.9°C 59.3°F15.2°C 95% 5.5 mph SSE8.9 kmh SSE 8.0 mph12.9 kmh 29.79 in1008.8 mb 0.00 in0.0 mm 0.00 in0.0 mm 0.02 in0.5 mm
03:00 AM 60.8°F16.0°C 59.4°F15.2°C 95% 4.9 mph SE7.9 kmh SE 8.0 mph12.9 kmh 29.79 in1008.8 mb 0.00 in0.0 mm 0.00 in0.0 mm 0.02 in0.5 mm
03:01 AM 60.8°F16.0°C 59.4°F15.2°C 95% 4.7 mph SSE7.6 kmh SSE 8.0 mph12.9 kmh 29.79 in1008.8 mb 0.00 in0.0 mm 0.00 in0.0 mm 0.02 in0.5 mm
03:02 AM 60.8°F16.0°C 59.4°F15.2°C 95% 5.7 mph SSE9.2 kmh SSE 9.0 mph14.5 kmh 29.79 in1008.8 mb 0.00 in0.0 mm 0.00 in0.0 mm 0.02 in0.5 mm
03:03 AM 60.8°F16.0°C 59.4°F15.2°C 95% 6.0 mph SSE9.7 kmh SSE 10.0 mph16.1 kmh 29.79 in1008.8 mb 0.00 in0.0 mm 0.00 in0.0 mm 0.02 in0.5 mm
03:04 AM 60.8°F16.0°C 59.4°F15.2°C 95% 6.0 mph SE9.7 kmh SE 10.0 mph16.1 kmh 29.79 in1008.8 mb 0.00 in0.0 mm 0.00 in0.0 mm 0.02 in0.5 mm
03:05 AM 60.8°F16.0°C 59.4°F15.2°C 95% 4.5 mph SSE7.2 kmh SSE 5.0 mph8.0 kmh 29.79 in1008.8 mb 0.00 in0.0 mm 0.00 in0.0 mm 0.02 in0.5 mm
03:06 AM 60.8°F16.0°C 59.4°F15.2°C 95% 5.1 mph SSE8.2 kmh SSE 7.0 mph11.3 kmh 29.79 in1008.8 mb 0.00 in0.0 mm 0.00 in0.0 mm 0.02 in0.5 mm
03:07 AM 60.8°F16.0°C 59.4°F15.2°C 95% 4.2 mph SSE6.8 kmh SSE 7.0 mph11.3 kmh 29.79 in1008.8 mb 0.00 in0.0 mm 0.00 in0.0 mm 0.02 in0.5 mm
03:08 AM 60.8°F16.0°C 59.4°F15.2°C 95% 5.9 mph SSE9.5 kmh SSE 9.0 mph14.5 kmh 29.79 in1008.8 mb 0.00 in0.0 mm 0.00 in0.0 mm 0.02 in0.5 mm
03:09 AM 60.8°F16.0°C 59.4°F15.2°C 95% 5.5 mph SSE8.9 kmh SSE 9.0 mph14.5 kmh 29.79 in1008.8 mb 0.00 in0.0 mm 0.00 in0.0 mm 0.02 in0.5 mm
03:10 AM 60.9°F16.1°C 59.5°F15.3°C 95% 4.9 mph SSE7.9 kmh SSE 8.0 mph12.9 kmh 29.79 in1008.8 mb 0.00 in0.0 mm 0.00 in0.0 mm 0.02 in0.5 mm
03:11 AM 60.9°F16.1°C 59.5°F15.3°C 95% 4.8 mph SSE7.7 kmh SSE 8.0 mph12.9 kmh 29.79 in1008.8 mb 0.00 in0.0 mm 0.00 in0.0 mm 0.02 in0.5 mm
03:12 AM 60.8°F16.0°C 59.4°F15.2°C 95% 6.6 mph SSE10.6 kmh SSE 10.0 mph16.1 kmh 29.79 in1008.8 mb 0.00 in0.0 mm 0.00 in0.0 mm 0.02 in0.5 mm
03:13 AM 60.9°F16.1°C 59.5°F15.3°C 95% 5.3 mph SSE8.5 kmh SSE 10.0 mph16.1 kmh 29.79 in1008.8 mb 0.00 in0.0 mm 0.00 in0.0 mm 0.02 in0.5 mm
03:14 AM 60.8°F16.0°C 59.4°F15.2°C 95% 4.4 mph S7.1 kmh S 7.0 mph11.3 kmh 29.79 in1008.8 mb 0.00 in0.0 mm 0.00 in0.0 mm 0.02 in0.5 mm
03:15 AM 60.9°F16.1°C 59.5°F15.3°C 95% 5.2 mph S8.4 kmh S 7.0 mph11.3 kmh 29.79 in1008.8 mb 0.00 in0.0 mm 0.00 in0.0 mm 0.02 in0.5 mm
03:16 AM 60.8°F16.0°C 59.4°F15.2°C 95% 5.3 mph S8.5 kmh S 8.0 mph12.9 kmh 29.79 in1008.8 mb 0.00 in0.0 mm 0.00 in0.0 mm 0.02 in0.5 mm
03:17 AM 60.8°F16.0°C 59.4°F15.2°C 95% 5.1 mph SSE8.2 kmh SSE 9.0 mph14.5 kmh 29.79 in1008.8 mb 0.00 in0.0 mm 0.00 in0.0 mm 0.02 in0.5 mm
03:18 AM 60.8°F16.0°C 59.4°F15.2°C 95% 8.7 mph SSE14.0 kmh SSE 10.0 mph16.1 kmh 29.79 in1008.8 mb 0.00 in0.0 mm 0.00 in0.0 mm 0.02 in0.5 mm
03:19 AM 60.9°F16.1°C 59.5°F15.3°C 95% 4.4 mph SSE7.1 kmh SSE 10.0 mph16.1 kmh 29.79 in1008.8 mb 0.00 in0.0 mm 0.00 in0.0 mm 0.02 in0.5 mm
03:20 AM 60.8°F16.0°C 59.4°F15.2°C 95% 4.8 mph SSE7.7 kmh SSE 9.0 mph14.5 kmh 29.78 in1008.5 mb 0.00 in0.0 mm 0.00 in0.0 mm 0.02 in0.5 mm
03:21 AM 60.9°F16.1°C 59.5°F15.3°C 95% 5.2 mph SSE8.4 kmh SSE 9.0 mph14.5 kmh 29.78 in1008.5 mb 0.00 in0.0 mm 0.00 in0.0 mm 0.02 in0.5 mm
03:22 AM 60.8°F16.0°C 59.4°F15.2°C 95% 6.4 mph S10.3 kmh S 9.0 mph14.5 kmh 29.79 in1008.8 mb 0.00 in0.0 mm 0.00 in0.0 mm 0.02 in0.5 mm
03:23 AM 60.8°F16.0°C 59.4°F15.2°C 95% 4.7 mph SSE7.6 kmh SSE 9.0 mph14.5 kmh 29.78 in1008.5 mb 0.00 in0.0 mm 0.00 in0.0 mm 0.02 in0.5 mm
03:24 AM 60.9°F16.1°C 59.5°F15.3°C 95% 4.7 mph SSE7.6 kmh SSE 7.0 mph11.3 kmh 29.78 in1008.5 mb 0.00 in0.0 mm 0.00 in0.0 mm 0.02 in0.5 mm
03:25 AM 60.9°F16.1°C 59.5°F15.3°C 95% 4.4 mph SSE7.1 kmh SSE 7.0 mph11.3 kmh 29.78 in1008.5 mb 0.00 in0.0 mm 0.00 in0.0 mm 0.02 in0.5 mm
03:26 AM 60.8°F16.0°C 59.4°F15.2°C 95% 4.4 mph SSE7.1 kmh SSE 7.0 mph11.3 kmh 29.78 in1008.5 mb 0.00 in0.0 mm 0.00 in0.0 mm 0.02 in0.5 mm
03:27 AM 60.8°F16.0°C 59.4°F15.2°C 95% 5.1 mph S8.2 kmh S 8.0 mph12.9 kmh 29.78 in1008.5 mb 0.00 in0.0 mm 0.00 in0.0 mm 0.02 in0.5 mm
03:28 AM 60.8°F16.0°C 59.4°F15.2°C 95% 5.9 mph SSE9.5 kmh SSE 8.0 mph12.9 kmh 29.78 in1008.5 mb 0.00 in0.0 mm 0.00 in0.0 mm 0.02 in0.5 mm
03:29 AM 60.8°F16.0°C 59.4°F15.2°C 95% 5.9 mph SSE9.5 kmh SSE 8.0 mph12.9 kmh 29.78 in1008.5 mb 0.00 in0.0 mm 0.00 in0.0 mm 0.02 in0.5 mm
03:30 AM 60.8°F16.0°C 59.4°F15.2°C 95% 5.1 mph SSE8.2 kmh SSE 8.0 mph12.9 kmh 29.78 in1008.5 mb 0.00 in0.0 mm 0.00 in0.0 mm 0.02 in0.5 mm
03:31 AM 60.8°F16.0°C 59.4°F15.2°C 95% 4.7 mph SSE7.6 kmh SSE 8.0 mph12.9 kmh 29.78 in1008.5 mb 0.00 in0.0 mm 0.00 in0.0 mm 0.02 in0.5 mm
03:32 AM 60.8°F16.0°C 59.4°F15.2°C 95% 5.2 mph SSE8.4 kmh SSE 7.0 mph11.3 kmh 29.78 in1008.5 mb 0.00 in0.0 mm 0.00 in0.0 mm 0.02 in0.5 mm
03:33 AM 60.8°F16.0°C 59.4°F15.2°C 95% 3.5 mph S5.6 kmh S 7.0 mph11.3 kmh 29.78 in1008.5 mb 0.00 in0.0 mm 0.00 in0.0 mm 0.02 in0.5 mm
03:34 AM 60.8°F16.0°C 59.4°F15.2°C 95% 4.7 mph SSE7.6 kmh SSE 6.0 mph9.7 kmh 29.78 in1008.5 mb 0.00 in0.0 mm 0.00 in0.0 mm 0.02 in0.5 mm
03:35 AM 60.8°F16.0°C 59.4°F15.2°C 95% 5.2 mph SSE8.4 kmh SSE 7.0 mph11.3 kmh 29.78 in1008.5 mb 0.00 in0.0 mm 0.00 in0.0 mm 0.02 in0.5 mm
03:36 AM 60.8°F16.0°C 59.4°F15.2°C 95% 4.0 mph SSE6.4 kmh SSE 7.0 mph11.3 kmh 29.78 in1008.5 mb 0.00 in0.0 mm 0.00 in0.0 mm 0.02 in0.5 mm
03:37 AM 60.8°F16.0°C 59.4°F15.2°C 95% 6.1 mph SSE9.8 kmh SSE 9.0 mph14.5 kmh 29.78 in1008.5 mb 0.00 in0.0 mm 0.00 in0.0 mm 0.02 in0.5 mm
03:38 AM 60.8°F16.0°C 59.4°F15.2°C 95% 4.9 mph SSE7.9 kmh SSE 9.0 mph14.5 kmh 29.78 in1008.5 mb 0.00 in0.0 mm 0.00 in0.0 mm 0.02 in0.5 mm
03:39 AM 60.8°F16.0°C 59.4°F15.2°C 95% 4.3 mph SSE6.9 kmh SSE 6.0 mph9.7 kmh 29.78 in1008.5 mb 0.00 in0.0 mm 0.00 in0.0 mm 0.02 in0.5 mm
03:40 AM 60.8°F16.0°C 59.4°F15.2°C 95% 5.9 mph SSE9.5 kmh SSE 8.0 mph12.9 kmh 29.78 in1008.5 mb 0.00 in0.0 mm 0.00 in0.0 mm 0.02 in0.5 mm
03:41 AM 60.8°F16.0°C 59.4°F15.2°C 95% 5.0 mph SSE8.0 kmh SSE 8.0 mph12.9 kmh 29.78 in1008.5 mb 0.00 in0.0 mm 0.00 in0.0 mm 0.02 in0.5 mm
03:42 AM 60.8°F16.0°C 59.4°F15.2°C 95% 5.6 mph SSE9.0 kmh SSE 9.0 mph14.5 kmh 29.78 in1008.5 mb 0.00 in0.0 mm 0.00 in0.0 mm 0.02 in0.5 mm
03:43 AM 60.8°F16.0°C 59.4°F15.2°C 95% 4.5 mph SE7.2 kmh SE 9.0 mph14.5 kmh 29.78 in1008.5 mb 0.00 in0.0 mm 0.00 in0.0 mm 0.02 in0.5 mm
03:44 AM 60.9°F16.1°C 59.5°F15.3°C 95% 3.7 mph SE6.0 kmh SE 6.0 mph9.7 kmh 29.78 in1008.5 mb 0.00 in0.0 mm 0.00 in0.0 mm 0.02 in0.5 mm
03:45 AM 60.8°F16.0°C 59.4°F15.2°C 95% 4.2 mph SSE6.8 kmh SSE 7.0 mph11.3 kmh 29.78 in1008.5 mb 0.00 in0.0 mm 0.00 in0.0 mm 0.02 in0.5 mm
03:46 AM 60.8°F16.0°C 59.4°F15.2°C 95% 4.6 mph SE7.4 kmh SE 7.0 mph11.3 kmh 29.78 in1008.5 mb 0.00 in0.0 mm 0.00 in0.0 mm 0.02 in0.5 mm
03:47 AM 60.9°F16.1°C 59.5°F15.3°C 95% 4.3 mph SSE6.9 kmh SSE 7.0 mph11.3 kmh 29.78 in1008.5 mb 0.00 in0.0 mm 0.00 in0.0 mm 0.02 in0.5 mm
03:48 AM 60.8°F16.0°C 59.4°F15.2°C 95% 5.0 mph SE8.0 kmh SE 8.0 mph12.9 kmh 29.78 in1008.5 mb 0.00 in0.0 mm 0.00 in0.0 mm 0.02 in0.5 mm
03:49 AM 60.8°F16.0°C 59.4°F15.2°C 95% 6.0 mph SSE9.7 kmh SSE 9.0 mph14.5 kmh 29.78 in1008.5 mb 0.00 in0.0 mm 0.00 in0.0 mm 0.02 in0.5 mm
03:50 AM 60.8°F16.0°C 59.4°F15.2°C 95% 5.6 mph SE9.0 kmh SE 8.0 mph12.9 kmh 29.78 in1008.5 mb 0.00 in0.0 mm 0.00 in0.0 mm 0.02 in0.5 mm
03:51 AM 60.8°F16.0°C 59.4°F15.2°C 95% 4.8 mph SSE7.7 kmh SSE 8.0 mph12.9 kmh 29.78 in1008.5 mb 0.00 in0.0 mm 0.00 in0.0 mm 0.02 in0.5 mm
03:52 AM 60.9°F16.1°C 59.5°F15.3°C 95% 4.2 mph SSE6.8 kmh SSE 8.0 mph12.9 kmh 29.77 in1008.1 mb 0.00 in0.0 mm 0.00 in0.0 mm 0.02 in0.5 mm
03:53 AM 60.9°F16.1°C 59.5°F15.3°C 95% 4.5 mph SSE7.2 kmh SSE 7.0 mph11.3 kmh 29.77 in1008.1 mb 0.00 in0.0 mm 0.00 in0.0 mm 0.02 in0.5 mm
03:54 AM 60.8°F16.0°C 59.4°F15.2°C 95% 3.6 mph SSE5.8 kmh SSE 6.0 mph9.7 kmh 29.77 in1008.1 mb 0.00 in0.0 mm 0.00 in0.0 mm 0.02 in0.5 mm
03:55 AM 60.8°F16.0°C 59.4°F15.2°C 95% 3.6 mph SSE5.8 kmh SSE 7.0 mph11.3 kmh 29.77 in1008.1 mb 0.00 in0.0 mm 0.00 in0.0 mm 0.02 in0.5 mm
03:56 AM 60.9°F16.1°C 59.5°F15.3°C 95% 4.5 mph S7.2 kmh S 7.0 mph11.3 kmh 29.77 in1008.1 mb 0.00 in0.0 mm 0.00 in0.0 mm 0.02 in0.5 mm
03:57 AM 60.9°F16.1°C 59.5°F15.3°C 95% 5.2 mph SE8.4 kmh SE 8.0 mph12.9 kmh 29.77 in1008.1 mb 0.00 in0.0 mm 0.00 in0.0 mm 0.02 in0.5 mm
03:58 AM 60.8°F16.0°C 59.4°F15.2°C 95% 5.6 mph SSE9.0 kmh SSE 10.0 mph16.1 kmh 29.77 in1008.1 mb 0.00 in0.0 mm 0.00 in0.0 mm 0.02 in0.5 mm
03:59 AM 60.8°F16.0°C 59.4°F15.2°C 95% 4.0 mph SE6.4 kmh SE 6.0 mph9.7 kmh 29.77 in1008.1 mb 0.00 in0.0 mm 0.00 in0.0 mm 0.02 in0.5 mm
04:00 AM 60.9°F16.1°C 59.5°F15.3°C 95% 4.0 mph SSE6.4 kmh SSE 5.0 mph8.0 kmh 29.77 in1008.1 mb 0.00 in0.0 mm 0.00 in0.0 mm 0.02 in0.5 mm
04:01 AM 60.9°F16.1°C 59.5°F15.3°C 95% 2.8 mph S4.5 kmh S 5.0 mph8.0 kmh 29.78 in1008.5 mb 0.00 in0.0 mm 0.00 in0.0 mm 0.02 in0.5 mm
04:02 AM 60.9°F16.1°C 59.5°F15.3°C 95% 5.7 mph SSE9.2 kmh SSE 10.0 mph16.1 kmh 29.78 in1008.5 mb 0.00 in0.0 mm 0.00 in0.0 mm 0.02 in0.5 mm
04:03 AM 60.9°F16.1°C 59.5°F15.3°C 95% 4.7 mph SSE7.6 kmh SSE 10.0 mph16.1 kmh 29.78 in1008.5 mb 0.00 in0.0 mm 0.00 in0.0 mm 0.02 in0.5 mm
04:04 AM 60.9°F16.1°C 59.5°F15.3°C 95% 5.1 mph SE8.2 kmh SE 9.0 mph14.5 kmh 29.77 in1008.1 mb 0.00 in0.0 mm 0.00 in0.0 mm 0.02 in0.5 mm
04:05 AM 60.9°F16.1°C 59.5°F15.3°C 95% 4.7 mph SE7.6 kmh SE 8.0 mph12.9 kmh 29.78 in1008.5 mb 0.00 in0.0 mm 0.00 in0.0 mm 0.02 in0.5 mm
04:06 AM 60.8°F16.0°C 59.4°F15.2°C 95% 5.4 mph SSE8.7 kmh SSE 7.0 mph11.3 kmh 29.77 in1008.1 mb 0.00 in0.0 mm 0.00 in0.0 mm 0.02 in0.5 mm
04:07 AM 60.9°F16.1°C 59.5°F15.3°C 95% 6.5 mph SE10.5 kmh SE 8.0 mph12.9 kmh 29.77 in1008.1 mb 0.00 in0.0 mm 0.00 in0.0 mm 0.02 in0.5 mm
04:08 AM 60.9°F16.1°C 59.5°F15.3°C 95% 4.5 mph S7.2 kmh S 8.0 mph12.9 kmh 29.78 in1008.5 mb 0.00 in0.0 mm 0.00 in0.0 mm 0.02 in0.5 mm
04:09 AM 60.9°F16.1°C 59.5°F15.3°C 95% 3.9 mph S6.3 kmh S 7.0 mph11.3 kmh 29.77 in1008.1 mb 0.00 in0.0 mm 0.00 in0.0 mm 0.02 in0.5 mm
04:10 AM 60.9°F16.1°C 59.5°F15.3°C 95% 3.9 mph SSW6.3 kmh SSW 6.0 mph9.7 kmh 29.78 in1008.5 mb 0.00 in0.0 mm 0.00 in0.0 mm 0.02 in0.5 mm
04:11 AM 60.9°F16.1°C 59.5°F15.3°C 95% 4.4 mph S7.1 kmh S 6.0 mph9.7 kmh 29.78 in1008.5 mb 0.00 in0.0 mm 0.00 in0.0 mm 0.02 in0.5 mm
04:12 AM 60.9°F16.1°C 59.5°F15.3°C 95% 4.7 mph S7.6 kmh S 7.0 mph11.3 kmh 29.78 in1008.5 mb 0.00 in0.0 mm 0.00 in0.0 mm 0.02 in0.5 mm
04:13 AM 60.9°F16.1°C 59.5°F15.3°C 95% 5.1 mph S8.2 kmh S 7.0 mph11.3 kmh 29.78 in1008.5 mb 0.00 in0.0 mm 0.00 in0.0 mm 0.02 in0.5 mm
04:14 AM 60.9°F16.1°C 59.5°F15.3°C 95% 5.6 mph S9.0 kmh S 7.0 mph11.3 kmh 29.78 in1008.5 mb 0.01 in0.3 mm 0.60 in15.2 mm 0.02 in0.5 mm
04:15 AM 60.9°F16.1°C 59.5°F15.3°C 95% 5.6 mph S9.0 kmh S 7.0 mph11.3 kmh 29.78 in1008.5 mb 0.01 in0.3 mm 0.00 in0.0 mm 0.02 in0.5 mm
04:16 AM 60.9°F16.1°C 59.5°F15.3°C 95% 4.3 mph S6.9 kmh S 7.0 mph11.3 kmh 29.77 in1008.1 mb 0.01 in0.3 mm 0.00 in0.0 mm 0.02 in0.5 mm
04:17 AM 60.9°F16.1°C 59.5°F15.3°C 95% 4.4 mph SSW7.1 kmh SSW 6.0 mph9.7 kmh 29.78 in1008.5 mb 0.01 in0.3 mm 0.00 in0.0 mm 0.02 in0.5 mm
04:18 AM 60.9°F16.1°C 59.5°F15.3°C 95% 4.0 mph SSW6.4 kmh SSW 6.0 mph9.7 kmh 29.78 in1008.5 mb 0.01 in0.3 mm 0.00 in0.0 mm 0.02 in0.5 mm
04:19 AM 60.9°F16.1°C 59.5°F15.3°C 95% 3.4 mph SSW5.5 kmh SSW 5.0 mph8.0 kmh 29.78 in1008.5 mb 0.01 in0.3 mm 0.00 in0.0 mm 0.02 in0.5 mm
04:20 AM 61.0°F16.1°C 59.6°F15.3°C 95% 3.7 mph S6.0 kmh S 5.0 mph8.0 kmh 29.78 in1008.5 mb 0.01 in0.3 mm 0.00 in0.0 mm 0.02 in0.5 mm
04:21 AM 61.0°F16.1°C 59.6°F15.3°C 95% 2.8 mph S4.5 kmh S 5.0 mph8.0 kmh 29.78 in1008.5 mb 0.01 in0.3 mm 0.00 in0.0 mm 0.02 in0.5 mm
04:22 AM 60.9°F16.1°C 59.5°F15.3°C 95% 3.3 mph S5.3 kmh S 5.0 mph8.0 kmh 29.77 in1008.1 mb 0.01 in0.3 mm 0.00 in0.0 mm 0.02 in0.5 mm
04:23 AM 60.9°F16.1°C 59.5°F15.3°C 95% 3.2 mph SSW5.1 kmh SSW 6.0 mph9.7 kmh 29.77 in1008.1 mb 0.01 in0.3 mm 0.00 in0.0 mm 0.02 in0.5 mm
04:24 AM 60.9°F16.1°C 59.5°F15.3°C 95% 2.9 mph SSW4.7 kmh SSW 6.0 mph9.7 kmh 29.77 in1008.1 mb 0.01 in0.3 mm 0.00 in0.0 mm 0.02 in0.5 mm
04:25 AM 61.0°F16.1°C 59.6°F15.3°C 95% 3.6 mph SSW5.8 kmh SSW 5.0 mph8.0 kmh 29.77 in1008.1 mb 0.01 in0.3 mm 0.00 in0.0 mm 0.02 in0.5 mm
04:26 AM 61.0°F16.1°C 59.6°F15.3°C 95% 3.4 mph SSW5.5 kmh SSW 5.0 mph8.0 kmh 29.77 in1008.1 mb 0.01 in0.3 mm 0.00 in0.0 mm 0.02 in0.5 mm
04:27 AM 61.0°F16.1°C 59.6°F15.3°C 95% 5.3 mph SSW8.5 kmh SSW 7.0 mph11.3 kmh 29.77 in1008.1 mb 0.01 in0.3 mm 0.00 in0.0 mm 0.02 in0.5 mm
04:28 AM 61.0°F16.1°C 59.6°F15.3°C 95% 4.0 mph SSW6.4 kmh SSW 6.0 mph9.7 kmh 29.77 in1008.1 mb 0.01 in0.3 mm 0.00 in0.0 mm 0.02 in0.5 mm
04:29 AM 60.9°F16.1°C 59.5°F15.3°C 95% 4.0 mph SSW6.4 kmh SSW 5.0 mph8.0 kmh 29.77 in1008.1 mb 0.01 in0.3 mm 0.00 in0.0 mm 0.02 in0.5 mm
04:30 AM 60.9°F16.1°C 59.8°F15.4°C 96% 4.2 mph SSW6.8 kmh SSW 5.0 mph8.0 kmh 29.77 in1008.1 mb 0.01 in0.3 mm 0.00 in0.0 mm 0.02 in0.5 mm
04:31 AM 60.9°F16.1°C 59.5°F15.3°C 95% 3.8 mph S6.1 kmh S 5.0 mph8.0 kmh 29.77 in1008.1 mb 0.01 in0.3 mm 0.00 in0.0 mm 0.02 in0.5 mm
04:32 AM 61.0°F16.1°C 59.6°F15.3°C 95% 3.0 mph S4.8 kmh S 5.0 mph8.0 kmh 29.77 in1008.1 mb 0.01 in0.3 mm 0.00 in0.0 mm 0.02 in0.5 mm
04:33 AM 61.0°F16.1°C 59.6°F15.3°C 95% 3.4 mph S5.5 kmh S 5.0 mph8.0 kmh 29.77 in1008.1 mb 0.01 in0.3 mm 0.00 in0.0 mm 0.02 in0.5 mm
04:34 AM 60.9°F16.1°C 59.8°F15.4°C 96% 3.2 mph S5.1 kmh S 6.0 mph9.7 kmh 29.77 in1008.1 mb 0.01 in0.3 mm 0.00 in0.0 mm 0.02 in0.5 mm
04:35 AM 60.9°F16.1°C 59.8°F15.4°C 96% 5.2 mph S8.4 kmh S 7.0 mph11.3 kmh 29.77 in1008.1 mb 0.01 in0.3 mm 0.00 in0.0 mm 0.02 in0.5 mm
04:36 AM 61.0°F16.1°C 59.8°F15.4°C 96% 4.6 mph S7.4 kmh S 7.0 mph11.3 kmh 29.77 in1008.1 mb 0.01 in0.3 mm 0.00 in0.0 mm 0.02 in0.5 mm
04:37 AM 61.0°F16.1°C 59.8°F15.4°C 96% 5.6 mph S9.0 kmh S 8.0 mph12.9 kmh 29.77 in1008.1 mb 0.01 in0.3 mm 0.00 in0.0 mm 0.02 in0.5 mm
04:38 AM 61.0°F16.1°C 59.8°F15.4°C 96% 6.2 mph S10.0 kmh S 8.0 mph12.9 kmh 29.77 in1008.1 mb 0.01 in0.3 mm 0.00 in0.0 mm 0.02 in0.5 mm
04:39 AM 61.0°F16.1°C 59.8°F15.4°C 96% 5.4 mph S8.7 kmh S 8.0 mph12.9 kmh 29.77 in1008.1 mb 0.01 in0.3 mm 0.00 in0.0 mm 0.02 in0.5 mm
04:40 AM 61.0°F16.1°C 59.6°F15.3°C 95% 4.0 mph SSE6.4 kmh SSE 8.0 mph12.9 kmh 29.77 in1008.1 mb 0.01 in0.3 mm 0.00 in0.0 mm 0.02 in0.5 mm
04:41 AM 61.0°F16.1°C 59.8°F15.4°C 96% 6.0 mph S9.7 kmh S 7.0 mph11.3 kmh 29.77 in1008.1 mb 0.01 in0.3 mm 0.00 in0.0 mm 0.02 in0.5 mm
04:42 AM 61.0°F16.1°C 59.8°F15.4°C 96% 5.0 mph SSE8.0 kmh SSE 7.0 mph11.3 kmh 29.77 in1008.1 mb 0.01 in0.3 mm 0.00 in0.0 mm 0.02 in0.5 mm
04:43 AM 61.0°F16.1°C 59.6°F15.3°C 95% 4.0 mph S6.4 kmh S 6.0 mph9.7 kmh 29.77 in1008.1 mb 0.01 in0.3 mm 0.00 in0.0 mm 0.02 in0.5 mm
04:44 AM 61.0°F16.1°C 59.8°F15.4°C 96% 5.2 mph SSE8.4 kmh SSE 7.0 mph11.3 kmh 29.77 in1008.1 mb 0.01 in0.3 mm 0.00 in0.0 mm 0.02 in0.5 mm
04:45 AM 61.0°F16.1°C 59.8°F15.4°C 96% 5.5 mph SSE8.9 kmh SSE 9.0 mph14.5 kmh 29.77 in1008.1 mb 0.01 in0.3 mm 0.00 in0.0 mm 0.02 in0.5 mm
04:46 AM 61.0°F16.1°C 59.8°F15.4°C 96% 5.8 mph SSE9.3 kmh SSE 9.0 mph14.5 kmh 29.77 in1008.1 mb 0.01 in0.3 mm 0.00 in0.0 mm 0.02 in0.5 mm
04:47 AM 61.0°F16.1°C 59.8°F15.4°C 96% 4.3 mph S6.9 kmh S 8.0 mph12.9 kmh 29.77 in1008.1 mb 0.01 in0.3 mm 0.00 in0.0 mm 0.02 in0.5 mm
04:48 AM 61.1°F16.2°C 59.9°F15.5°C 96% 4.5 mph S7.2 kmh S 8.0 mph12.9 kmh 29.77 in1008.1 mb 0.01 in0.3 mm 0.00 in0.0 mm 0.02 in0.5 mm
04:49 AM 61.0°F16.1°C 59.8°F15.4°C 96% 4.7 mph S7.6 kmh S 7.0 mph11.3 kmh 29.77 in1008.1 mb 0.01 in0.3 mm 0.00 in0.0 mm 0.02 in0.5 mm
04:50 AM 61.0°F16.1°C 59.8°F15.4°C 96% 5.3 mph S8.5 kmh S 9.0 mph14.5 kmh 29.77 in1008.1 mb 0.01 in0.3 mm 0.00 in0.0 mm 0.02 in0.5 mm
04:51 AM 61.0°F16.1°C 59.8°F15.4°C 96% 6.3 mph S10.1 kmh S 10.0 mph16.1 kmh 29.77 in1008.1 mb 0.01 in0.3 mm 0.00 in0.0 mm 0.02 in0.5 mm
04:52 AM 61.0°F16.1°C 59.8°F15.4°C 96% 5.6 mph S9.0 kmh S 10.0 mph16.1 kmh 29.76 in1007.8 mb 0.01 in0.3 mm 0.00 in0.0 mm 0.02 in0.5 mm
04:53 AM 61.0°F16.1°C 59.8°F15.4°C 96% 5.7 mph S9.2 kmh S 8.0 mph12.9 kmh 29.77 in1008.1 mb 0.01 in0.3 mm 0.00 in0.0 mm 0.02 in0.5 mm
04:54 AM 61.0°F16.1°C 59.8°F15.4°C 96% 5.8 mph S9.3 kmh S 8.0 mph12.9 kmh 29.77 in1008.1 mb 0.01 in0.3 mm 0.00 in0.0 mm 0.02 in0.5 mm
04:55 AM 61.0°F16.1°C 59.8°F15.4°C 96% 5.1 mph S8.2 kmh S 7.0 mph11.3 kmh 29.76 in1007.8 mb 0.01 in0.3 mm 0.00 in0.0 mm 0.02 in0.5 mm
04:56 AM 61.0°F16.1°C 59.8°F15.4°C 96% 4.9 mph S7.9 kmh S 8.0 mph12.9 kmh 29.76 in1007.8 mb 0.01 in0.3 mm 0.00 in0.0 mm 0.02 in0.5 mm
04:57 AM 61.1°F16.2°C 59.9°F15.5°C 96% 5.5 mph S8.9 kmh S 8.0 mph12.9 kmh 29.77 in1008.1 mb 0.01 in0.3 mm 0.00 in0.0 mm 0.02 in0.5 mm
04:58 AM 61.1°F16.2°C 59.9°F15.5°C 96% 4.5 mph S7.2 kmh S 7.0 mph11.3 kmh 29.77 in1008.1 mb 0.01 in0.3 mm 0.00 in0.0 mm 0.02 in0.5 mm
04:59 AM 61.1°F16.2°C 59.9°F15.5°C 96% 4.1 mph S6.6 kmh S 6.0 mph9.7 kmh 29.76 in1007.8 mb 0.01 in0.3 mm 0.00 in0.0 mm 0.02 in0.5 mm
05:00 AM 61.1°F16.2°C 59.9°F15.5°C 96% 4.0 mph S6.4 kmh S 6.0 mph9.7 kmh 29.76 in1007.8 mb 0.01 in0.3 mm 0.00 in0.0 mm 0.02 in0.5 mm
05:01 AM 61.1°F16.2°C 59.9°F15.5°C 96% 3.9 mph S6.3 kmh S 6.0 mph9.7 kmh 29.76 in1007.8 mb 0.01 in0.3 mm 0.00 in0.0 mm 0.02 in0.5 mm
05:02 AM 61.1°F16.2°C 59.9°F15.5°C 96% 4.3 mph S6.9 kmh S 6.0 mph9.7 kmh 29.76 in1007.8 mb 0.01 in0.3 mm 0.00 in0.0 mm 0.02 in0.5 mm
05:03 AM 61.0°F16.1°C 59.8°F15.4°C 96% 4.0 mph S6.4 kmh S 6.0 mph9.7 kmh 29.76 in1007.8 mb 0.01 in0.3 mm 0.00 in0.0 mm 0.02 in0.5 mm
05:04 AM 61.1°F16.2°C 59.9°F15.5°C 96% 6.0 mph S9.7 kmh S 8.0 mph12.9 kmh 29.76 in1007.8 mb 0.01 in0.3 mm 0.00 in0.0 mm 0.02 in0.5 mm
05:05 AM 61.1°F16.2°C 59.9°F15.5°C 96% 3.5 mph S5.6 kmh S 6.0 mph9.7 kmh 29.76 in1007.8 mb 0.01 in0.3 mm 0.00 in0.0 mm 0.02 in0.5 mm
05:06 AM 61.1°F16.2°C 59.9°F15.5°C 96% 5.9 mph S9.5 kmh S 8.0 mph12.9 kmh 29.76 in1007.8 mb 0.01 in0.3 mm 0.00 in0.0 mm 0.02 in0.5 mm
05:07 AM 61.1°F16.2°C 59.9°F15.5°C 96% 4.8 mph S7.7 kmh S 8.0 mph12.9 kmh 29.76 in1007.8 mb 0.01 in0.3 mm 0.00 in0.0 mm 0.02 in0.5 mm
05:08 AM 61.1°F16.2°C 59.9°F15.5°C 96% 4.1 mph S6.6 kmh S 7.0 mph11.3 kmh 29.76 in1007.8 mb 0.01 in0.3 mm 0.00 in0.0 mm 0.02 in0.5 mm
05:09 AM 61.1°F16.2°C 59.9°F15.5°C 96% 4.8 mph S7.7 kmh S 6.0 mph9.7 kmh 29.76 in1007.8 mb 0.01 in0.3 mm 0.00 in0.0 mm 0.02 in0.5 mm
05:10 AM 61.1°F16.2°C 59.9°F15.5°C 96% 3.4 mph S5.5 kmh S 6.0 mph9.7 kmh 29.76 in1007.8 mb 0.01 in0.3 mm 0.00 in0.0 mm 0.02 in0.5 mm
05:11 AM 61.1°F16.2°C 59.7°F15.4°C 95% 5.2 mph S8.4 kmh S 8.0 mph12.9 kmh 29.76 in1007.8 mb 0.01 in0.3 mm 0.00 in0.0 mm 0.02 in0.5 mm
05:12 AM 61.1°F16.2°C 59.9°F15.5°C 96% 4.5 mph S7.2 kmh S 8.0 mph12.9 kmh 29.76 in1007.8 mb 0.01 in0.3 mm 0.00 in0.0 mm 0.02 in0.5 mm
05:13 AM 61.1°F16.2°C 59.7°F15.4°C 95% 5.6 mph S9.0 kmh S 7.0 mph11.3 kmh 29.76 in1007.8 mb 0.01 in0.3 mm 0.00 in0.0 mm 0.02 in0.5 mm
05:14 AM 61.1°F16.2°C 59.7°F15.4°C 95% 6.0 mph S9.7 kmh S 8.0 mph12.9 kmh 29.75 in1007.5 mb 0.00 in0.0 mm 0.00 in0.0 mm 0.02 in0.5 mm
05:15 AM 61.1°F16.2°C 59.7°F15.4°C 95% 4.0 mph S6.4 kmh S 6.0 mph9.7 kmh 29.76 in1007.8 mb 0.00 in0.0 mm 0.00 in0.0 mm 0.02 in0.5 mm
05:16 AM 61.1°F16.2°C 59.7°F15.4°C 95% 5.5 mph S8.9 kmh S 7.0 mph11.3 kmh 29.76 in1007.8 mb 0.00 in0.0 mm 0.00 in0.0 mm 0.02 in0.5 mm
05:17 AM 61.0°F16.1°C 59.6°F15.3°C 95% 4.8 mph S7.7 kmh S 7.0 mph11.3 kmh 29.75 in1007.5 mb 0.00 in0.0 mm 0.00 in0.0 mm 0.02 in0.5 mm
05:18 AM 61.1°F16.2°C 59.7°F15.4°C 95% 3.7 mph S6.0 kmh S 6.0 mph9.7 kmh 29.75 in1007.5 mb 0.00 in0.0 mm 0.00 in0.0 mm 0.02 in0.5 mm
05:19 AM 61.1°F16.2°C 59.7°F15.4°C 95% 5.0 mph S8.0 kmh S 6.0 mph9.7 kmh 29.75 in1007.5 mb 0.00 in0.0 mm 0.00 in0.0 mm 0.02 in0.5 mm
05:20 AM 61.0°F16.1°C 59.6°F15.3°C 95% 4.2 mph SSW6.8 kmh SSW 6.0 mph9.7 kmh 29.75 in1007.5 mb 0.00 in0.0 mm 0.00 in0.0 mm 0.02 in0.5 mm
05:21 AM 61.0°F16.1°C 59.6°F15.3°C 95% 5.3 mph S8.5 kmh S 7.0 mph11.3 kmh 29.76 in1007.8 mb 0.00 in0.0 mm 0.00 in0.0 mm 0.02 in0.5 mm
05:22 AM 61.0°F16.1°C 59.6°F15.3°C 95% 4.3 mph S6.9 kmh S 7.0 mph11.3 kmh 29.76 in1007.8 mb 0.00 in0.0 mm 0.00 in0.0 mm 0.02 in0.5 mm
05:23 AM 61.0°F16.1°C 59.6°F15.3°C 95% 3.5 mph S5.6 kmh S 6.0 mph9.7 kmh 29.76 in1007.8 mb 0.00 in0.0 mm 0.00 in0.0 mm 0.02 in0.5 mm
05:24 AM 61.0°F16.1°C 59.6°F15.3°C 95% 3.8 mph S6.1 kmh S 5.0 mph8.0 kmh 29.76 in1007.8 mb 0.00 in0.0 mm 0.00 in0.0 mm 0.02 in0.5 mm
05:25 AM 61.0°F16.1°C 59.6°F15.3°C 95% 3.9 mph SSW6.3 kmh SSW 6.0 mph9.7 kmh 29.76 in1007.8 mb 0.00 in0.0 mm 0.00 in0.0 mm 0.02 in0.5 mm
05:26 AM 61.0°F16.1°C 59.6°F15.3°C 95% 5.0 mph S8.0 kmh S 6.0 mph9.7 kmh 29.76 in1007.8 mb 0.00 in0.0 mm 0.00 in0.0 mm 0.02 in0.5 mm
05:27 AM 61.0°F16.1°C 59.6°F15.3°C 95% 5.5 mph S8.9 kmh S 7.0 mph11.3 kmh 29.75 in1007.5 mb 0.00 in0.0 mm 0.00 in0.0 mm 0.02 in0.5 mm
05:28 AM 61.0°F16.1°C 59.8°F15.4°C 96% 5.3 mph S8.5 kmh S 7.0 mph11.3 kmh 29.76 in1007.8 mb 0.00 in0.0 mm 0.00 in0.0 mm 0.02 in0.5 mm
05:29 AM 61.0°F16.1°C 59.8°F15.4°C 96% 3.8 mph SSW6.1 kmh SSW 7.0 mph11.3 kmh 29.76 in1007.8 mb 0.00 in0.0 mm 0.00 in0.0 mm 0.02 in0.5 mm
05:30 AM 61.0°F16.1°C 59.8°F15.4°C 96% 3.7 mph SSW6.0 kmh SSW 5.0 mph8.0 kmh 29.75 in1007.5 mb 0.00 in0.0 mm 0.00 in0.0 mm 0.02 in0.5 mm
05:31 AM 61.0°F16.1°C 59.8°F15.4°C 96% 4.9 mph SSW7.9 kmh SSW 7.0 mph11.3 kmh 29.76 in1007.8 mb 0.00 in0.0 mm 0.00 in0.0 mm 0.02 in0.5 mm
05:32 AM 61.1°F16.2°C 59.9°F15.5°C 96% 4.7 mph SSW7.6 kmh SSW 7.0 mph11.3 kmh 29.76 in1007.8 mb 0.00 in0.0 mm 0.00 in0.0 mm 0.02 in0.5 mm
05:33 AM 61.1°F16.2°C 59.9°F15.5°C 96% 4.0 mph SSW6.4 kmh SSW 7.0 mph11.3 kmh 29.76 in1007.8 mb 0.00 in0.0 mm 0.00 in0.0 mm 0.02 in0.5 mm
05:34 AM 61.1°F16.2°C 59.9°F15.5°C 96% 4.7 mph SSW7.6 kmh SSW 6.0 mph9.7 kmh 29.76 in1007.8 mb 0.00 in0.0 mm 0.00 in0.0 mm 0.02 in0.5 mm
05:35 AM 61.1°F16.2°C 59.9°F15.5°C 96% 5.0 mph SSW8.0 kmh SSW 6.0 mph9.7 kmh 29.75 in1007.5 mb 0.00 in0.0 mm 0.00 in0.0 mm 0.02 in0.5 mm
05:36 AM 61.1°F16.2°C 59.9°F15.5°C 96% 3.7 mph SSW6.0 kmh SSW 6.0 mph9.7 kmh 29.76 in1007.8 mb 0.00 in0.0 mm 0.00 in0.0 mm 0.02 in0.5 mm
05:37 AM 61.2°F16.2°C 60.0°F15.6°C 96% 3.8 mph S6.1 kmh S 6.0 mph9.7 kmh 29.75 in1007.5 mb 0.00 in0.0 mm 0.00 in0.0 mm 0.02 in0.5 mm
05:38 AM 61.2°F16.2°C 59.8°F15.4°C 95% 4.5 mph SW7.2 kmh SW 6.0 mph9.7 kmh 29.76 in1007.8 mb 0.00 in0.0 mm 0.00 in0.0 mm 0.02 in0.5 mm
05:39 AM 61.2°F16.2°C 59.8°F15.4°C 95% 2.9 mph S4.7 kmh S 6.0 mph9.7 kmh 29.76 in1007.8 mb 0.00 in0.0 mm 0.00 in0.0 mm 0.02 in0.5 mm
05:40 AM 61.2°F16.2°C 59.8°F15.4°C 95% 3.5 mph S5.6 kmh S 5.0 mph8.0 kmh 29.76 in1007.8 mb 0.00 in0.0 mm 0.00 in0.0 mm 0.02 in0.5 mm
05:41 AM 61.2°F16.2°C 59.8°F15.4°C 95% 4.6 mph SSW7.4 kmh SSW 6.0 mph9.7 kmh 29.76 in1007.8 mb 0.00 in0.0 mm 0.00 in0.0 mm 0.02 in0.5 mm
05:42 AM 61.2°F16.2°C 59.8°F15.4°C 95% 4.6 mph S7.4 kmh S 6.0 mph9.7 kmh 29.76 in1007.8 mb 0.00 in0.0 mm 0.00 in0.0 mm 0.02 in0.5 mm
05:43 AM 61.2°F16.2°C 59.8°F15.4°C 95% 3.4 mph SSW5.5 kmh SSW 6.0 mph9.7 kmh 29.75 in1007.5 mb 0.00 in0.0 mm 0.00 in0.0 mm 0.02 in0.5 mm
05:44 AM 61.2°F16.2°C 59.8°F15.4°C 95% 3.7 mph SSW6.0 kmh SSW 5.0 mph8.0 kmh 29.75 in1007.5 mb 0.00 in0.0 mm 0.00 in0.0 mm 0.02 in0.5 mm
05:45 AM 61.2°F16.2°C 59.8°F15.4°C 95% 3.8 mph SSW6.1 kmh SSW 6.0 mph9.7 kmh 29.76 in1007.8 mb 0.00 in0.0 mm 0.00 in0.0 mm 0.02 in0.5 mm
05:46 AM 61.2°F16.2°C 59.8°F15.4°C 95% 4.5 mph SSW7.2 kmh SSW 6.0 mph9.7 kmh 29.76 in1007.8 mb 0.00 in0.0 mm 0.00 in0.0 mm 0.02 in0.5 mm
05:47 AM 61.2°F16.2°C 59.8°F15.4°C 95% 3.9 mph SSW6.3 kmh SSW 5.0 mph8.0 kmh 29.75 in1007.5 mb 0.00 in0.0 mm 0.00 in0.0 mm 0.02 in0.5 mm
05:48 AM 61.2°F16.2°C 59.8°F15.4°C 95% 4.2 mph SSW6.8 kmh SSW 6.0 mph9.7 kmh 29.75 in1007.5 mb 0.00 in0.0 mm 0.00 in0.0 mm 0.02 in0.5 mm
05:49 AM 61.2°F16.2°C 59.8°F15.4°C 95% 4.2 mph SSW6.8 kmh SSW 6.0 mph9.7 kmh 29.76 in1007.8 mb 0.00 in0.0 mm 0.00 in0.0 mm 0.02 in0.5 mm
05:50 AM 61.2°F16.2°C 59.8°F15.4°C 95% 3.9 mph SSW6.3 kmh SSW 5.0 mph8.0 kmh 29.76 in1007.8 mb 0.00 in0.0 mm 0.00 in0.0 mm 0.02 in0.5 mm
05:51 AM 61.2°F16.2°C 59.8°F15.4°C 95% 5.1 mph SSW8.2 kmh SSW 6.0 mph9.7 kmh 29.76 in1007.8 mb 0.00 in0.0 mm 0.00 in0.0 mm 0.02 in0.5 mm
05:52 AM 61.2°F16.2°C 59.8°F15.4°C 95% 4.2 mph SSW6.8 kmh SSW 6.0 mph9.7 kmh 29.75 in1007.5 mb 0.00 in0.0 mm 0.00 in0.0 mm 0.02 in0.5 mm
05:53 AM 61.2°F16.2°C 59.8°F15.4°C 95% 4.6 mph SSW7.4 kmh SSW 6.0 mph9.7 kmh 29.76 in1007.8 mb 0.00 in0.0 mm 0.00 in0.0 mm 0.02 in0.5 mm
05:54 AM 61.2°F16.2°C 59.8°F15.4°C 95% 3.9 mph S6.3 kmh S 6.0 mph9.7 kmh 29.75 in1007.5 mb 0.00 in0.0 mm 0.00 in0.0 mm 0.02 in0.5 mm
05:55 AM 61.2°F16.2°C 59.8°F15.4°C 95% 4.8 mph SSW7.7 kmh SSW 6.0 mph9.7 kmh 29.75 in1007.5 mb 0.00 in0.0 mm 0.00 in0.0 mm 0.02 in0.5 mm
05:56 AM 61.2°F16.2°C 59.8°F15.4°C 95% 3.7 mph SSW6.0 kmh SSW 6.0 mph9.7 kmh 29.75 in1007.5 mb 0.00 in0.0 mm 0.00 in0.0 mm 0.02 in0.5 mm
05:57 AM 61.1°F16.2°C 59.7°F15.4°C 95% 2.4 mph S3.9 kmh S 5.0 mph8.0 kmh 29.75 in1007.5 mb 0.00 in0.0 mm 0.00 in0.0 mm 0.02 in0.5 mm
05:58 AM 61.2°F16.2°C 59.8°F15.4°C 95% 2.1 mph S3.4 kmh S 3.0 mph4.8 kmh 29.75 in1007.5 mb 0.00 in0.0 mm 0.00 in0.0 mm 0.02 in0.5 mm
05:59 AM 61.1°F16.2°C 59.7°F15.4°C 95% 2.0 mph S3.2 kmh S 4.0 mph6.4 kmh 29.75 in1007.5 mb 0.00 in0.0 mm 0.00 in0.0 mm 0.02 in0.5 mm
06:00 AM 61.1°F16.2°C 59.7°F15.4°C 95% 3.0 mph S4.8 kmh S 4.0 mph6.4 kmh 29.75 in1007.5 mb 0.00 in0.0 mm 0.00 in0.0 mm 0.02 in0.5 mm
06:01 AM 61.1°F16.2°C 59.7°F15.4°C 95% 2.4 mph S3.9 kmh S 3.0 mph4.8 kmh 29.75 in1007.5 mb 0.00 in0.0 mm 0.00 in0.0 mm 0.02 in0.5 mm
06:02 AM 61.1°F16.2°C 59.7°F15.4°C 95% 3.1 mph S5.0 kmh S 4.0 mph6.4 kmh 29.75 in1007.5 mb 0.00 in0.0 mm 0.00 in0.0 mm 0.02 in0.5 mm
06:03 AM 61.1°F16.2°C 59.7°F15.4°C 95% 3.2 mph S5.1 kmh S 4.0 mph6.4 kmh 29.75 in1007.5 mb 0.00 in0.0 mm 0.00 in0.0 mm 0.02 in0.5 mm
06:04 AM 61.1°F16.2°C 59.7°F15.4°C 95% 3.3 mph S5.3 kmh S 4.0 mph6.4 kmh 29.75 in1007.5 mb 0.00 in0.0 mm 0.00 in0.0 mm 0.02 in0.5 mm
06:05 AM 61.1°F16.2°C 59.7°F15.4°C 95% 4.0 mph S6.4 kmh S 5.0 mph8.0 kmh 29.75 in1007.5 mb 0.00 in0.0 mm 0.00 in0.0 mm 0.02 in0.5 mm
06:06 AM 61.1°F16.2°C 59.7°F15.4°C 95% 4.1 mph S6.6 kmh S 6.0 mph9.7 kmh 29.75 in1007.5 mb 0.00 in0.0 mm 0.00 in0.0 mm 0.02 in0.5 mm
06:07 AM 61.1°F16.2°C 59.7°F15.4°C 95% 5.0 mph S8.0 kmh S 7.0 mph11.3 kmh 29.75 in1007.5 mb 0.00 in0.0 mm 0.00 in0.0 mm 0.02 in0.5 mm
06:08 AM 61.1°F16.2°C 59.7°F15.4°C 95% 3.5 mph SSE5.6 kmh SSE 7.0 mph11.3 kmh 29.75 in1007.5 mb 0.00 in0.0 mm 0.00 in0.0 mm 0.02 in0.5 mm
06:09 AM 61.1°F16.2°C 59.7°F15.4°C 95% 3.2 mph S5.1 kmh S 5.0 mph8.0 kmh 29.75 in1007.5 mb 0.00 in0.0 mm 0.00 in0.0 mm 0.02 in0.5 mm
06:10 AM 61.1°F16.2°C 59.7°F15.4°C 95% 2.5 mph S4.0 kmh S 5.0 mph8.0 kmh 29.75 in1007.5 mb 0.00 in0.0 mm 0.00 in0.0 mm 0.02 in0.5 mm
06:11 AM 61.1°F16.2°C 59.7°F15.4°C 95% 3.0 mph S4.8 kmh S 4.0 mph6.4 kmh 29.75 in1007.5 mb 0.00 in0.0 mm 0.00 in0.0 mm 0.02 in0.5 mm
06:12 AM 61.1°F16.2°C 59.7°F15.4°C 95% 2.7 mph S4.3 kmh S 4.0 mph6.4 kmh 29.75 in1007.5 mb 0.00 in0.0 mm 0.00 in0.0 mm 0.02 in0.5 mm
06:13 AM 61.1°F16.2°C 59.7°F15.4°C 95% 2.5 mph S4.0 kmh S 3.0 mph4.8 kmh 29.75 in1007.5 mb 0.00 in0.0 mm 0.00 in0.0 mm 0.02 in0.5 mm
06:14 AM 61.0°F16.1°C 59.6°F15.3°C 95% 2.9 mph S4.7 kmh S 5.0 mph8.0 kmh 29.75 in1007.5 mb 0.00 in0.0 mm 0.00 in0.0 mm 0.02 in0.5 mm
06:15 AM 61.1°F16.2°C 59.7°F15.4°C 95% 3.7 mph SSE6.0 kmh SSE 5.0 mph8.0 kmh 29.75 in1007.5 mb 0.00 in0.0 mm 0.00 in0.0 mm 0.02 in0.5 mm
06:16 AM 61.1°F16.2°C 59.7°F15.4°C 95% 3.8 mph SSE6.1 kmh SSE 5.0 mph8.0 kmh 29.75 in1007.5 mb 0.00 in0.0 mm 0.00 in0.0 mm 0.02 in0.5 mm
06:17 AM 61.1°F16.2°C 59.7°F15.4°C 95% 3.7 mph SSE6.0 kmh SSE 5.0 mph8.0 kmh 29.75 in1007.5 mb 0.00 in0.0 mm 0.00 in0.0 mm 0.02 in0.5 mm
06:18 AM 61.1°F16.2°C 59.7°F15.4°C 95% 3.0 mph SSE4.8 kmh SSE 5.0 mph8.0 kmh 29.75 in1007.5 mb 0.00 in0.0 mm 0.00 in0.0 mm 0.02 in0.5 mm
06:19 AM 61.2°F16.2°C 59.8°F15.4°C 95% 2.4 mph SSE3.9 kmh SSE 3.0 mph4.8 kmh 29.75 in1007.5 mb 0.00 in0.0 mm 0.00 in0.0 mm 0.02 in0.5 mm
06:20 AM 61.1°F16.2°C 59.7°F15.4°C 95% 2.1 mph SSE3.4 kmh SSE 4.0 mph6.4 kmh 29.75 in1007.5 mb 0.00 in0.0 mm 0.00 in0.0 mm 0.02 in0.5 mm
06:21 AM 61.2°F16.2°C 59.8°F15.4°C 95% 2.8 mph SE4.5 kmh SE 4.0 mph6.4 kmh 29.75 in1007.5 mb 0.00 in0.0 mm 0.00 in0.0 mm 0.02 in0.5 mm
06:22 AM 61.2°F16.2°C 60.0°F15.6°C 96% 3.5 mph SSE5.6 kmh SSE 5.0 mph8.0 kmh 29.75 in1007.5 mb 0.00 in0.0 mm 0.00 in0.0 mm 0.02 in0.5 mm
06:23 AM 61.2°F16.2°C 60.0°F15.6°C 96% 2.0 mph SSE3.2 kmh SSE 5.0 mph8.0 kmh 29.75 in1007.5 mb 0.00 in0.0 mm 0.00 in0.0 mm 0.02 in0.5 mm
06:24 AM 61.2°F16.2°C 60.0°F15.6°C 96% 2.6 mph SSE4.2 kmh SSE 4.0 mph6.4 kmh 29.75 in1007.5 mb 0.00 in0.0 mm 0.00 in0.0 mm 0.02 in0.5 mm
06:25 AM 61.2°F16.2°C 60.0°F15.6°C 96% 3.0 mph SSE4.8 kmh SSE 4.0 mph6.4 kmh 29.75 in1007.5 mb 0.00 in0.0 mm 0.00 in0.0 mm 0.02 in0.5 mm
06:26 AM 61.2°F16.2°C 60.0°F15.6°C 96% 2.3 mph SSE3.7 kmh SSE 4.0 mph6.4 kmh 29.75 in1007.5 mb 0.00 in0.0 mm 0.00 in0.0 mm 0.02 in0.5 mm
06:27 AM 61.2°F16.2°C 60.0°F15.6°C 96% 2.6 mph SSE4.2 kmh SSE 4.0 mph6.4 kmh 29.75 in1007.5 mb 0.00 in0.0 mm 0.00 in0.0 mm 0.02 in0.5 mm
06:28 AM 61.3°F16.3°C 60.1°F15.6°C 96% 2.0 mph SSE3.2 kmh SSE 3.0 mph4.8 kmh 29.75 in1007.5 mb 0.00 in0.0 mm 0.00 in0.0 mm 0.02 in0.5 mm
06:29 AM 61.3°F16.3°C 60.1°F15.6°C 96% 3.0 mph SE4.8 kmh SE 4.0 mph6.4 kmh 29.75 in1007.5 mb 0.00 in0.0 mm 0.00 in0.0 mm 0.02 in0.5 mm
06:30 AM 61.3°F16.3°C 60.1°F15.6°C 96% 2.6 mph SSE4.2 kmh SSE 4.0 mph6.4 kmh 29.75 in1007.5 mb 0.00 in0.0 mm 0.00 in0.0 mm 0.02 in0.5 mm
06:31 AM 61.4°F16.3°C 60.2°F15.7°C 96% 3.1 mph SE5.0 kmh SE 4.0 mph6.4 kmh 29.75 in1007.5 mb 0.00 in0.0 mm 0.00 in0.0 mm 0.02 in0.5 mm
06:32 AM 61.3°F16.3°C 60.1°F15.6°C 96% 2.8 mph SE4.5 kmh SE 4.0 mph6.4 kmh 29.75 in1007.5 mb 0.00 in0.0 mm 0.00 in0.0 mm 0.02 in0.5 mm
06:33 AM 61.3°F16.3°C 60.1°F15.6°C 96% 2.4 mph SE3.9 kmh SE 4.0 mph6.4 kmh 29.75 in1007.5 mb 0.00 in0.0 mm 0.00 in0.0 mm 0.02 in0.5 mm
06:34 AM 61.4°F16.3°C 60.2°F15.7°C 96% 3.1 mph SE5.0 kmh SE 4.0 mph6.4 kmh 29.75 in1007.5 mb 0.00 in0.0 mm 0.00 in0.0 mm 0.02 in0.5 mm
06:35 AM 61.4°F16.3°C 60.2°F15.7°C 96% 3.5 mph SE5.6 kmh SE 5.0 mph8.0 kmh 29.75 in1007.5 mb 0.00 in0.0 mm 0.00 in0.0 mm 0.02 in0.5 mm
06:36 AM 61.4°F16.3°C 60.0°F15.6°C 95% 3.4 mph SE5.5 kmh SE 5.0 mph8.0 kmh 29.75 in1007.5 mb 0.00 in0.0 mm 0.00 in0.0 mm 0.02 in0.5 mm
06:37 AM 61.3°F16.3°C 60.1°F15.6°C 96% 3.0 mph SE4.8 kmh SE 5.0 mph8.0 kmh 29.75 in1007.5 mb 0.00 in0.0 mm 0.00 in0.0 mm 0.02 in0.5 mm
06:38 AM 61.4°F16.3°C 60.2°F15.7°C 96% 3.0 mph SE4.8 kmh SE 4.0 mph6.4 kmh 29.75 in1007.5 mb 0.00 in0.0 mm 0.00 in0.0 mm 0.02 in0.5 mm
06:39 AM 61.4°F16.3°C 60.0°F15.6°C 95% 3.3 mph SE5.3 kmh SE 4.0 mph6.4 kmh 29.75 in1007.5 mb 0.00 in0.0 mm 0.00 in0.0 mm 0.02 in0.5 mm
06:40 AM 61.4°F16.3°C 60.0°F15.6°C 95% 4.3 mph SE6.9 kmh SE 7.0 mph11.3 kmh 29.75 in1007.5 mb 0.00 in0.0 mm 0.00 in0.0 mm 0.02 in0.5 mm
06:41 AM 61.4°F16.3°C 60.0°F15.6°C 95% 4.0 mph SE6.4 kmh SE 4.0 mph6.4 kmh 29.75 in1007.5 mb 0.00 in0.0 mm 0.00 in0.0 mm 0.02 in0.5 mm
06:42 AM 61.4°F16.3°C 60.0°F15.6°C 95% 3.0 mph SE4.8 kmh SE 4.0 mph6.4 kmh 29.75 in1007.5 mb 0.00 in0.0 mm 0.00 in0.0 mm 0.02 in0.5 mm
06:43 AM 61.4°F16.3°C 60.0°F15.6°C 95% 3.0 mph SSE4.8 kmh SSE 4.0 mph6.4 kmh 29.75 in1007.5 mb 0.00 in0.0 mm 0.00 in0.0 mm 0.02 in0.5 mm
06:44 AM 61.4°F16.3°C 60.0°F15.6°C 95% 2.8 mph SSE4.5 kmh SSE 4.0 mph6.4 kmh 29.75 in1007.5 mb 0.00 in0.0 mm 0.00 in0.0 mm 0.02 in0.5 mm
06:45 AM 61.4°F16.3°C 60.0°F15.6°C 95% 2.7 mph S4.3 kmh S 4.0 mph6.4 kmh 29.75 in1007.5 mb 0.00 in0.0 mm 0.00 in0.0 mm 0.02 in0.5 mm
06:46 AM 61.4°F16.3°C 60.2°F15.7°C 96% 2.2 mph S3.5 kmh S 4.0 mph6.4 kmh 29.75 in1007.5 mb 0.00 in0.0 mm 0.00 in0.0 mm 0.02 in0.5 mm
06:47 AM 61.4°F16.3°C 60.0°F15.6°C 95% 2.0 mph S3.2 kmh S 3.0 mph4.8 kmh 29.75 in1007.5 mb 0.00 in0.0 mm 0.00 in0.0 mm 0.02 in0.5 mm
06:48 AM 61.4°F16.3°C 60.0°F15.6°C 95% 1.3 mph S2.1 kmh S 3.0 mph4.8 kmh 29.75 in1007.5 mb 0.00 in0.0 mm 0.00 in0.0 mm 0.02 in0.5 mm
06:49 AM 61.4°F16.3°C 60.2°F15.7°C 96% 2.5 mph S4.0 kmh S 5.0 mph8.0 kmh 29.75 in1007.5 mb 0.00 in0.0 mm 0.00 in0.0 mm 0.02 in0.5 mm
06:50 AM 61.4°F16.3°C 60.2°F15.7°C 96% 2.3 mph SSE3.7 kmh SSE 5.0 mph8.0 kmh 29.75 in1007.5 mb 0.00 in0.0 mm 0.00 in0.0 mm 0.02 in0.5 mm
06:51 AM 61.4°F16.3°C 60.2°F15.7°C 96% 3.0 mph SSE4.8 kmh SSE 4.0 mph6.4 kmh 29.75 in1007.5 mb 0.00 in0.0 mm 0.00 in0.0 mm 0.02 in0.5 mm
06:52 AM 61.5°F16.4°C 60.3°F15.7°C 96% 1.6 mph SE2.6 kmh SE 4.0 mph6.4 kmh 29.75 in1007.5 mb 0.00 in0.0 mm 0.00 in0.0 mm 0.02 in0.5 mm
06:53 AM 61.5°F16.4°C 60.3°F15.7°C 96% 1.5 mph SE2.4 kmh SE 3.0 mph4.8 kmh 29.75 in1007.5 mb 0.00 in0.0 mm 0.00 in0.0 mm 0.02 in0.5 mm
06:54 AM 61.5°F16.4°C 60.3°F15.7°C 96% 2.9 mph SSE4.7 kmh SSE 4.0 mph6.4 kmh 29.75 in1007.5 mb 0.00 in0.0 mm 0.00 in0.0 mm 0.02 in0.5 mm
06:55 AM 61.5°F16.4°C 60.3°F15.7°C 96% 2.9 mph SSE4.7 kmh SSE 4.0 mph6.4 kmh 29.75 in1007.5 mb 0.00 in0.0 mm 0.00 in0.0 mm 0.02 in0.5 mm
06:56 AM 61.5°F16.4°C 60.3°F15.7°C 96% 3.0 mph SSE4.8 kmh SSE 5.0 mph8.0 kmh 29.75 in1007.5 mb 0.00 in0.0 mm 0.00 in0.0 mm 0.02 in0.5 mm
06:57 AM 61.6°F16.4°C 60.4°F15.8°C 96% 2.1 mph SE3.4 kmh SE 5.0 mph8.0 kmh 29.75 in1007.5 mb 0.00 in0.0 mm 0.00 in0.0 mm 0.02 in0.5 mm
06:58 AM 61.6°F16.4°C 60.4°F15.8°C 96% 2.1 mph SE3.4 kmh SE 3.0 mph4.8 kmh 29.75 in1007.5 mb 0.00 in0.0 mm 0.00 in0.0 mm 0.02 in0.5 mm
06:59 AM 61.6°F16.4°C 60.4°F15.8°C 96% 2.5 mph S4.0 kmh S 4.0 mph6.4 kmh 29.75 in1007.5 mb 0.00 in0.0 mm 0.00 in0.0 mm 0.02 in0.5 mm
07:00 AM 61.6°F16.4°C 60.4°F15.8°C 96% 1.7 mph SSE2.7 kmh SSE 4.0 mph6.4 kmh 29.75 in1007.5 mb 0.00 in0.0 mm 0.00 in0.0 mm 0.02 in0.5 mm
07:01 AM 61.6°F16.4°C 60.4°F15.8°C 96% 2.5 mph SSE4.0 kmh SSE 4.0 mph6.4 kmh 29.75 in1007.5 mb 0.00 in0.0 mm 0.00 in0.0 mm 0.02 in0.5 mm
07:02 AM 61.7°F16.5°C 60.5°F15.8°C 96% 3.2 mph SSE5.1 kmh SSE 5.0 mph8.0 kmh 29.75 in1007.5 mb 0.00 in0.0 mm 0.00 in0.0 mm 0.02 in0.5 mm
07:03 AM 61.7°F16.5°C 60.5°F15.8°C 96% 2.2 mph SE3.5 kmh SE 5.0 mph8.0 kmh 29.75 in1007.5 mb 0.00 in0.0 mm 0.00 in0.0 mm 0.02 in0.5 mm
07:04 AM 61.7°F16.5°C 60.5°F15.8°C 96% 2.7 mph SE4.3 kmh SE 4.0 mph6.4 kmh 29.75 in1007.5 mb 0.00 in0.0 mm 0.00 in0.0 mm 0.02 in0.5 mm
07:05 AM 61.7°F16.5°C 60.5°F15.8°C 96% 3.0 mph SE4.8 kmh SE 4.0 mph6.4 kmh 29.75 in1007.5 mb 0.00 in0.0 mm 0.00 in0.0 mm 0.02 in0.5 mm
07:06 AM 61.8°F16.6°C 60.6°F15.9°C 96% 3.0 mph ESE4.8 kmh ESE 3.0 mph4.8 kmh 29.75 in1007.5 mb 0.00 in0.0 mm 0.00 in0.0 mm 0.02 in0.5 mm
07:07 AM 61.8°F16.6°C 60.6°F15.9°C 96% 3.0 mph ESE4.8 kmh ESE 3.0 mph4.8 kmh 29.75 in1007.5 mb 0.00 in0.0 mm 0.00 in0.0 mm 0.02 in0.5 mm
07:08 AM 61.8°F16.6°C 60.6°F15.9°C 96% 3.1 mph SE5.0 kmh SE 4.0 mph6.4 kmh 29.75 in1007.5 mb 0.00 in0.0 mm 0.00 in0.0 mm 0.02 in0.5 mm
07:09 AM 61.8°F16.6°C 60.6°F15.9°C 96% 2.3 mph SSE3.7 kmh SSE 4.0 mph6.4 kmh 29.75 in1007.5 mb 0.00 in0.0 mm 0.00 in0.0 mm 0.02 in0.5 mm
07:10 AM 61.8°F16.6°C 60.6°F15.9°C 96% 1.6 mph SE2.6 kmh SE 4.0 mph6.4 kmh 29.75 in1007.5 mb 0.00 in0.0 mm 0.00 in0.0 mm 0.02 in0.5 mm
07:11 AM 61.8°F16.6°C 60.6°F15.9°C 96% 3.1 mph SE5.0 kmh SE 4.0 mph6.4 kmh 29.75 in1007.5 mb 0.00 in0.0 mm 0.00 in0.0 mm 0.02 in0.5 mm
07:12 AM 61.9°F16.6°C 60.7°F15.9°C 96% 3.8 mph SE6.1 kmh SE 4.0 mph6.4 kmh 29.75 in1007.5 mb 0.00 in0.0 mm 0.00 in0.0 mm 0.02 in0.5 mm
07:13 AM 61.9°F16.6°C 60.7°F15.9°C 96% 3.3 mph SE5.3 kmh SE 5.0 mph8.0 kmh 29.75 in1007.5 mb 0.00 in0.0 mm 0.00 in0.0 mm 0.02 in0.5 mm
07:14 AM 61.9°F16.6°C 60.7°F15.9°C 96% 4.3 mph SE6.9 kmh SE 6.0 mph9.7 kmh 29.75 in1007.5 mb 0.00 in0.0 mm 0.00 in0.0 mm 0.02 in0.5 mm
07:15 AM 61.9°F16.6°C 60.5°F15.8°C 95% 4.1 mph SE6.6 kmh SE 6.0 mph9.7 kmh 29.75 in1007.5 mb 0.00 in0.0 mm 0.00 in0.0 mm 0.02 in0.5 mm
07:16 AM 61.8°F16.6°C 60.4°F15.8°C 95% 3.3 mph SE5.3 kmh SE 5.0 mph8.0 kmh 29.75 in1007.5 mb 0.00 in0.0 mm 0.00 in0.0 mm 0.02 in0.5 mm
07:17 AM 61.8°F16.6°C 60.4°F15.8°C 95% 3.6 mph SSE5.8 kmh SSE 5.0 mph8.0 kmh 29.75 in1007.5 mb 0.00 in0.0 mm 0.00 in0.0 mm 0.02 in0.5 mm
07:18 AM 61.8°F16.6°C 60.4°F15.8°C 95% 3.0 mph S4.8 kmh S 5.0 mph8.0 kmh 29.75 in1007.5 mb 0.00 in0.0 mm 0.00 in0.0 mm 0.02 in0.5 mm
07:19 AM 61.8°F16.6°C 60.4°F15.8°C 95% 2.3 mph S3.7 kmh S 4.0 mph6.4 kmh 29.75 in1007.5 mb 0.00 in0.0 mm 0.00 in0.0 mm 0.02 in0.5 mm
07:20 AM 61.8°F16.6°C 60.4°F15.8°C 95% 1.1 mph S1.8 kmh S 3.0 mph4.8 kmh 29.75 in1007.5 mb 0.00 in0.0 mm 0.00 in0.0 mm 0.02 in0.5 mm
07:21 AM 61.8°F16.6°C 60.4°F15.8°C 95% 2.0 mph S3.2 kmh S 3.0 mph4.8 kmh 29.75 in1007.5 mb 0.00 in0.0 mm 0.00 in0.0 mm 0.02 in0.5 mm
07:22 AM 61.8°F16.6°C 60.4°F15.8°C 95% 2.1 mph S3.4 kmh S 3.0 mph4.8 kmh 29.75 in1007.5 mb 0.00 in0.0 mm 0.00 in0.0 mm 0.02 in0.5 mm
07:23 AM 61.8°F16.6°C 60.4°F15.8°C 95% 1.5 mph S2.4 kmh S 3.0 mph4.8 kmh 29.75 in1007.5 mb 0.00 in0.0 mm 0.00 in0.0 mm 0.02 in0.5 mm
07:24 AM 61.8°F16.6°C 60.4°F15.8°C 95% 2.0 mph S3.2 kmh S 4.0 mph6.4 kmh 29.75 in1007.5 mb 0.00 in0.0 mm 0.00 in0.0 mm 0.02 in0.5 mm
07:25 AM 61.8°F16.6°C 60.4°F15.8°C 95% 3.9 mph S6.3 kmh S 5.0 mph8.0 kmh 29.75 in1007.5 mb 0.00 in0.0 mm 0.00 in0.0 mm 0.02 in0.5 mm
07:26 AM 61.8°F16.6°C 60.4°F15.8°C 95% 2.3 mph S3.7 kmh S 5.0 mph8.0 kmh 29.75 in1007.5 mb 0.00 in0.0 mm 0.00 in0.0 mm 0.02 in0.5 mm
07:27 AM 61.8°F16.6°C 60.4°F15.8°C 95% 2.9 mph S4.7 kmh S 4.0 mph6.4 kmh 29.75 in1007.5 mb 0.00 in0.0 mm 0.00 in0.0 mm 0.02 in0.5 mm
07:28 AM 61.8°F16.6°C 60.4°F15.8°C 95% 3.0 mph S4.8 kmh S 5.0 mph8.0 kmh 29.75 in1007.5 mb 0.00 in0.0 mm 0.00 in0.0 mm 0.02 in0.5 mm
07:29 AM 61.8°F16.6°C 60.4°F15.8°C 95% 4.4 mph S7.1 kmh S 5.0 mph8.0 kmh 29.75 in1007.5 mb 0.00 in0.0 mm 0.00 in0.0 mm 0.02 in0.5 mm
07:30 AM 61.8°F16.6°C 60.4°F15.8°C 95% 3.8 mph SSE6.1 kmh SSE 5.0 mph8.0 kmh 29.75 in1007.5 mb 0.00 in0.0 mm 0.00 in0.0 mm 0.02 in0.5 mm
07:31 AM 61.8°F16.6°C 60.4°F15.8°C 95% 4.5 mph SSE7.2 kmh SSE 6.0 mph9.7 kmh 29.75 in1007.5 mb 0.00 in0.0 mm 0.00 in0.0 mm 0.02 in0.5 mm
07:32 AM 61.8°F16.6°C 60.4°F15.8°C 95% 4.7 mph S7.6 kmh S 6.0 mph9.7 kmh 29.75 in1007.5 mb 0.00 in0.0 mm 0.00 in0.0 mm 0.02 in0.5 mm
07:33 AM 61.8°F16.6°C 60.4°F15.8°C 95% 3.9 mph S6.3 kmh S 6.0 mph9.7 kmh 29.75 in1007.5 mb 0.00 in0.0 mm 0.00 in0.0 mm 0.02 in0.5 mm
07:34 AM 61.8°F16.6°C 60.4°F15.8°C 95% 3.6 mph SSE5.8 kmh SSE 5.0 mph8.0 kmh 29.75 in1007.5 mb 0.00 in0.0 mm 0.00 in0.0 mm 0.02 in0.5 mm
07:35 AM 61.8°F16.6°C 60.4°F15.8°C 95% 3.9 mph SSE6.3 kmh SSE 6.0 mph9.7 kmh 29.75 in1007.5 mb 0.00 in0.0 mm 0.00 in0.0 mm 0.02 in0.5 mm
07:36 AM 61.8°F16.6°C 60.4°F15.8°C 95% 3.3 mph S5.3 kmh S 6.0 mph9.7 kmh 29.75 in1007.5 mb 0.00 in0.0 mm 0.00 in0.0 mm 0.02 in0.5 mm
07:37 AM 61.8°F16.6°C 60.4°F15.8°C 95% 3.0 mph S4.8 kmh S 5.0 mph8.0 kmh 29.75 in1007.5 mb 0.00 in0.0 mm 0.00 in0.0 mm 0.02 in0.5 mm
07:38 AM 61.8°F16.6°C 60.4°F15.8°C 95% 3.1 mph S5.0 kmh S 5.0 mph8.0 kmh 29.75 in1007.5 mb 0.00 in0.0 mm 0.00 in0.0 mm 0.02 in0.5 mm
07:39 AM 61.8°F16.6°C 60.4°F15.8°C 95% 3.4 mph S5.5 kmh S 5.0 mph8.0 kmh 29.75 in1007.5 mb 0.00 in0.0 mm 0.00 in0.0 mm 0.02 in0.5 mm
07:40 AM 61.8°F16.6°C 60.4°F15.8°C 95% 3.4 mph S5.5 kmh S 4.0 mph6.4 kmh 29.75 in1007.5 mb 0.00 in0.0 mm 0.00 in0.0 mm 0.02 in0.5 mm
07:41 AM 61.8°F16.6°C 60.4°F15.8°C 95% 2.8 mph S4.5 kmh S 4.0 mph6.4 kmh 29.75 in1007.5 mb 0.00 in0.0 mm 0.00 in0.0 mm 0.02 in0.5 mm
07:42 AM 61.8°F16.6°C 60.4°F15.8°C 95% 2.7 mph S4.3 kmh S 4.0 mph6.4 kmh 29.75 in1007.5 mb 0.00 in0.0 mm 0.00 in0.0 mm 0.02 in0.5 mm
07:43 AM 61.8°F16.6°C 60.4°F15.8°C 95% 3.4 mph S5.5 kmh S 5.0 mph8.0 kmh 29.75 in1007.5 mb 0.00 in0.0 mm 0.00 in0.0 mm 0.02 in0.5 mm
07:44 AM 61.8°F16.6°C 60.4°F15.8°C 95% 4.5 mph S7.2 kmh S 6.0 mph9.7 kmh 29.75 in1007.5 mb 0.00 in0.0 mm 0.00 in0.0 mm 0.02 in0.5 mm
07:45 AM 61.8°F16.6°C 60.4°F15.8°C 95% 3.4 mph S5.5 kmh S 6.0 mph9.7 kmh 29.75 in1007.5 mb 0.00 in0.0 mm 0.00 in0.0 mm 0.02 in0.5 mm
07:46 AM 61.8°F16.6°C 60.4°F15.8°C 95% 2.7 mph S4.3 kmh S 5.0 mph8.0 kmh 29.75 in1007.5 mb 0.00 in0.0 mm 0.00 in0.0 mm 0.02 in0.5 mm
07:47 AM 61.8°F16.6°C 60.4°F15.8°C 95% 2.0 mph S3.2 kmh S 5.0 mph8.0 kmh 29.75 in1007.5 mb 0.00 in0.0 mm 0.00 in0.0 mm 0.02 in0.5 mm
07:48 AM 61.8°F16.6°C 60.4°F15.8°C 95% 3.0 mph S4.8 kmh S 5.0 mph8.0 kmh 29.75 in1007.5 mb 0.00 in0.0 mm 0.00 in0.0 mm 0.02 in0.5 mm
07:49 AM 61.9°F16.6°C 60.5°F15.8°C 95% 2.7 mph S4.3 kmh S 5.0 mph8.0 kmh 29.75 in1007.5 mb 0.00 in0.0 mm 0.00 in0.0 mm 0.02 in0.5 mm
07:50 AM 61.8°F16.6°C 60.4°F15.8°C 95% 4.1 mph S6.6 kmh S 5.0 mph8.0 kmh 29.75 in1007.5 mb 0.00 in0.0 mm 0.00 in0.0 mm 0.02 in0.5 mm
07:51 AM 61.8°F16.6°C 60.4°F15.8°C 95% 3.5 mph S5.6 kmh S 6.0 mph9.7 kmh 29.75 in1007.5 mb 0.00 in0.0 mm 0.00 in0.0 mm 0.02 in0.5 mm
07:52 AM 61.8°F16.6°C 60.4°F15.8°C 95% 2.7 mph S4.3 kmh S 6.0 mph9.7 kmh 29.75 in1007.5 mb 0.00 in0.0 mm 0.00 in0.0 mm 0.02 in0.5 mm
07:53 AM 61.9°F16.6°C 60.5°F15.8°C 95% 1.8 mph S2.9 kmh S 3.0 mph4.8 kmh 29.75 in1007.5 mb 0.00 in0.0 mm 0.00 in0.0 mm 0.02 in0.5 mm
07:54 AM 61.9°F16.6°C 60.5°F15.8°C 95% 2.5 mph SSW4.0 kmh SSW 4.0 mph6.4 kmh 29.75 in1007.5 mb 0.00 in0.0 mm 0.00 in0.0 mm 0.02 in0.5 mm
07:55 AM 61.9°F16.6°C 60.5°F15.8°C 95% 2.0 mph SSW3.2 kmh SSW 4.0 mph6.4 kmh 29.74 in1007.1 mb 0.00 in0.0 mm 0.00 in0.0 mm 0.02 in0.5 mm
07:56 AM 62.0°F16.7°C 60.5°F15.8°C 95% 1.6 mph SSW2.6 kmh SSW 3.0 mph4.8 kmh 29.74 in1007.1 mb 0.00 in0.0 mm 0.00 in0.0 mm 0.02 in0.5 mm
07:57 AM 62.0°F16.7°C 60.5°F15.8°C 95% 1.0 mph SSW1.6 kmh SSW 2.0 mph3.2 kmh 29.74 in1007.1 mb 0.00 in0.0 mm 0.00 in0.0 mm 0.02 in0.5 mm
07:58 AM 62.0°F16.7°C 60.5°F15.8°C 95% 3.0 mph SSW4.8 kmh SSW 5.0 mph8.0 kmh 29.74 in1007.1 mb 0.00 in0.0 mm 0.00 in0.0 mm 0.02 in0.5 mm
07:59 AM 62.0°F16.7°C 60.5°F15.8°C 95% 3.6 mph S5.8 kmh S 4.0 mph6.4 kmh 29.74 in1007.1 mb 0.00 in0.0 mm 0.00 in0.0 mm 0.02 in0.5 mm
08:00 AM 62.1°F16.7°C 60.6°F15.9°C 95% 4.2 mph S6.8 kmh S 6.0 mph9.7 kmh 29.74 in1007.1 mb 0.00 in0.0 mm 0.00 in0.0 mm 0.02 in0.5 mm
08:01 AM 62.1°F16.7°C 60.6°F15.9°C 95% 3.7 mph S6.0 kmh S 6.0 mph9.7 kmh 29.74 in1007.1 mb 0.00 in0.0 mm 0.00 in0.0 mm 0.02 in0.5 mm
08:02 AM 62.1°F16.7°C 60.6°F15.9°C 95% 2.2 mph S3.5 kmh S 5.0 mph8.0 kmh 29.74 in1007.1 mb 0.00 in0.0 mm 0.00 in0.0 mm 0.02 in0.5 mm
08:03 AM 62.0°F16.7°C 60.5°F15.8°C 95% 2.7 mph S4.3 kmh S 4.0 mph6.4 kmh 29.74 in1007.1 mb 0.00 in0.0 mm 0.00 in0.0 mm 0.02 in0.5 mm
08:04 AM 62.1°F16.7°C 60.6°F15.9°C 95% 2.8 mph SSE4.5 kmh SSE 5.0 mph8.0 kmh 29.74 in1007.1 mb 0.00 in0.0 mm 0.00 in0.0 mm 0.02 in0.5 mm
08:05 AM 62.1°F16.7°C 60.6°F15.9°C 95% 3.9 mph S6.3 kmh S 5.0 mph8.0 kmh 29.74 in1007.1 mb 0.00 in0.0 mm 0.00 in0.0 mm 0.02 in0.5 mm
08:06 AM 62.1°F16.7°C 60.6°F15.9°C 95% 3.0 mph S4.8 kmh S 4.0 mph6.4 kmh 29.74 in1007.1 mb 0.00 in0.0 mm 0.00 in0.0 mm 0.02 in0.5 mm
08:07 AM 62.1°F16.7°C 60.6°F15.9°C 95% 2.0 mph S3.2 kmh S 4.0 mph6.4 kmh 29.74 in1007.1 mb 0.00 in0.0 mm 0.00 in0.0 mm 0.02 in0.5 mm
08:08 AM 62.1°F16.7°C 60.6°F15.9°C 95% 5.5 mph S8.9 kmh S 7.0 mph11.3 kmh 29.74 in1007.1 mb 0.00 in0.0 mm 0.00 in0.0 mm 0.02 in0.5 mm
08:09 AM 62.2°F16.8°C 60.7°F15.9°C 95% 4.5 mph S7.2 kmh S 7.0 mph11.3 kmh 29.74 in1007.1 mb 0.00 in0.0 mm 0.00 in0.0 mm 0.02 in0.5 mm
08:10 AM 62.2°F16.8°C 60.7°F15.9°C 95% 3.2 mph S5.1 kmh S 6.0 mph9.7 kmh 29.74 in1007.1 mb 0.00 in0.0 mm 0.00 in0.0 mm 0.02 in0.5 mm
08:11 AM 62.2°F16.8°C 60.7°F15.9°C 95% 3.3 mph S5.3 kmh S 5.0 mph8.0 kmh 29.74 in1007.1 mb 0.00 in0.0 mm 0.00 in0.0 mm 0.02 in0.5 mm
08:12 AM 62.2°F16.8°C 60.7°F15.9°C 95% 3.2 mph S5.1 kmh S 4.0 mph6.4 kmh 29.74 in1007.1 mb 0.00 in0.0 mm 0.00 in0.0 mm 0.02 in0.5 mm
08:13 AM 62.2°F16.8°C 60.7°F15.9°C 95% 3.4 mph S5.5 kmh S 4.0 mph6.4 kmh 29.74 in1007.1 mb 0.00 in0.0 mm 0.00 in0.0 mm 0.02 in0.5 mm
08:14 AM 62.3°F16.8°C 60.8°F16.0°C 95% 2.4 mph S3.9 kmh S 5.0 mph8.0 kmh 29.74 in1007.1 mb 0.00 in0.0 mm 0.00 in0.0 mm 0.02 in0.5 mm
08:15 AM 62.3°F16.8°C 60.8°F16.0°C 95% 4.1 mph S6.6 kmh S 5.0 mph8.0 kmh 29.74 in1007.1 mb 0.00 in0.0 mm 0.00 in0.0 mm 0.02 in0.5 mm
08:16 AM 62.3°F16.8°C 60.8°F16.0°C 95% 5.1 mph S8.2 kmh S 7.0 mph11.3 kmh 29.74 in1007.1 mb 0.00 in0.0 mm 0.00 in0.0 mm 0.02 in0.5 mm
08:17 AM 62.3°F16.8°C 60.8°F16.0°C 95% 4.4 mph S7.1 kmh S 7.0 mph11.3 kmh 29.74 in1007.1 mb 0.00 in0.0 mm 0.00 in0.0 mm 0.02 in0.5 mm
08:18 AM 62.3°F16.8°C 60.8°F16.0°C 95% 2.6 mph S4.2 kmh S 6.0 mph9.7 kmh 29.74 in1007.1 mb 0.00 in0.0 mm 0.00 in0.0 mm 0.02 in0.5 mm
08:19 AM 62.4°F16.9°C 60.9°F16.1°C 95% 4.4 mph S7.1 kmh S 6.0 mph9.7 kmh 29.74 in1007.1 mb 0.00 in0.0 mm 0.00 in0.0 mm 0.02 in0.5 mm
08:20 AM 62.3°F16.8°C 60.8°F16.0°C 95% 4.4 mph S7.1 kmh S 7.0 mph11.3 kmh 29.74 in1007.1 mb 0.00 in0.0 mm 0.00 in0.0 mm 0.02 in0.5 mm
08:21 AM 62.4°F16.9°C 60.6°F15.9°C 94% 4.1 mph S6.6 kmh S 7.0 mph11.3 kmh 29.74 in1007.1 mb 0.00 in0.0 mm 0.00 in0.0 mm 0.02 in0.5 mm
08:22 AM 62.4°F16.9°C 60.9°F16.1°C 95% 4.8 mph S7.7 kmh S 6.0 mph9.7 kmh 29.74 in1007.1 mb 0.00 in0.0 mm 0.00 in0.0 mm 0.02 in0.5 mm
08:23 AM 62.4°F16.9°C 60.6°F15.9°C 94% 4.6 mph S7.4 kmh S 6.0 mph9.7 kmh 29.74 in1007.1 mb 0.00 in0.0 mm 0.00 in0.0 mm 0.02 in0.5 mm
08:24 AM 62.5°F16.9°C 60.7°F15.9°C 94% 4.0 mph S6.4 kmh S 6.0 mph9.7 kmh 29.74 in1007.1 mb 0.00 in0.0 mm 0.00 in0.0 mm 0.02 in0.5 mm
08:25 AM 62.5°F16.9°C 60.7°F15.9°C 94% 3.7 mph S6.0 kmh S 6.0 mph9.7 kmh 29.74 in1007.1 mb 0.00 in0.0 mm 0.00 in0.0 mm 0.02 in0.5 mm
08:26 AM 62.5°F16.9°C 60.7°F15.9°C 94% 4.1 mph SSW6.6 kmh SSW 7.0 mph11.3 kmh 29.74 in1007.1 mb 0.00 in0.0 mm 0.00 in0.0 mm 0.02 in0.5 mm
08:27 AM 62.5°F16.9°C 60.7°F15.9°C 94% 6.0 mph SSW9.7 kmh SSW 8.0 mph12.9 kmh 29.74 in1007.1 mb 0.00 in0.0 mm 0.00 in0.0 mm 0.02 in0.5 mm
08:28 AM 62.5°F16.9°C 60.7°F15.9°C 94% 5.0 mph SSW8.0 kmh SSW 8.0 mph12.9 kmh 29.74 in1007.1 mb 0.00 in0.0 mm 0.00 in0.0 mm 0.02 in0.5 mm
08:29 AM 62.6°F17.0°C 60.8°F16.0°C 94% 5.0 mph SSW8.0 kmh SSW 6.0 mph9.7 kmh 29.74 in1007.1 mb 0.00 in0.0 mm 0.00 in0.0 mm 0.02 in0.5 mm
08:30 AM 62.6°F17.0°C 60.8°F16.0°C 94% 4.8 mph SSW7.7 kmh SSW 6.0 mph9.7 kmh 29.73 in1006.8 mb 0.00 in0.0 mm 0.00 in0.0 mm 0.02 in0.5 mm
08:31 AM 62.7°F17.1°C 60.9°F16.1°C 94% 4.0 mph SSW6.4 kmh SSW 6.0 mph9.7 kmh 29.73 in1006.8 mb 0.00 in0.0 mm 0.00 in0.0 mm 0.02 in0.5 mm
08:32 AM 62.7°F17.1°C 60.9°F16.1°C 94% 4.2 mph SSW6.8 kmh SSW 5.0 mph8.0 kmh 29.73 in1006.8 mb 0.00 in0.0 mm 0.00 in0.0 mm 0.02 in0.5 mm
08:33 AM 62.7°F17.1°C 60.9°F16.1°C 94% 3.8 mph SW6.1 kmh SW 5.0 mph8.0 kmh 29.73 in1006.8 mb 0.00 in0.0 mm 0.00 in0.0 mm 0.02 in0.5 mm
08:34 AM 62.7°F17.1°C 60.9°F16.1°C 94% 3.6 mph SW5.8 kmh SW 4.0 mph6.4 kmh 29.73 in1006.8 mb 0.00 in0.0 mm 0.00 in0.0 mm 0.02 in0.5 mm
08:35 AM 62.7°F17.1°C 60.6°F15.9°C 93% 3.2 mph SW5.1 kmh SW 4.0 mph6.4 kmh 29.74 in1007.1 mb 0.00 in0.0 mm 0.00 in0.0 mm 0.02 in0.5 mm
08:36 AM 62.8°F17.1°C 61.0°F16.1°C 94% 3.3 mph SW5.3 kmh SW 5.0 mph8.0 kmh 29.73 in1006.8 mb 0.00 in0.0 mm 0.00 in0.0 mm 0.02 in0.5 mm
08:37 AM 62.8°F17.1°C 61.0°F16.1°C 94% 3.9 mph SW6.3 kmh SW 5.0 mph8.0 kmh 29.73 in1006.8 mb 0.00 in0.0 mm 0.00 in0.0 mm 0.02 in0.5 mm
08:38 AM 62.8°F17.1°C 60.7°F15.9°C 93% 5.4 mph SW8.7 kmh SW 7.0 mph11.3 kmh 29.73 in1006.8 mb 0.00 in0.0 mm 0.00 in0.0 mm 0.02 in0.5 mm
08:39 AM 62.7°F17.1°C 60.6°F15.9°C 93% 5.4 mph SW8.7 kmh SW 7.0 mph11.3 kmh 29.73 in1006.8 mb 0.00 in0.0 mm 0.00 in0.0 mm 0.02 in0.5 mm
08:40 AM 62.8°F17.1°C 60.7°F15.9°C 93% 5.7 mph SW9.2 kmh SW 7.0 mph11.3 kmh 29.73 in1006.8 mb 0.00 in0.0 mm 0.00 in0.0 mm 0.02 in0.5 mm
08:41 AM 62.8°F17.1°C 60.7°F15.9°C 93% 6.1 mph SW9.8 kmh SW 7.0 mph11.3 kmh 29.73 in1006.8 mb 0.00 in0.0 mm 0.00 in0.0 mm 0.02 in0.5 mm
08:42 AM 62.8°F17.1°C 60.7°F15.9°C 93% 4.9 mph SW7.9 kmh SW 7.0 mph11.3 kmh 29.73 in1006.8 mb 0.00 in0.0 mm 0.00 in0.0 mm 0.02 in0.5 mm
08:43 AM 62.8°F17.1°C 60.7°F15.9°C 93% 5.5 mph SW8.9 kmh SW 7.0 mph11.3 kmh 29.73 in1006.8 mb 0.00 in0.0 mm 0.00 in0.0 mm 0.02 in0.5 mm
08:44 AM 62.8°F17.1°C 60.7°F15.9°C 93% 5.8 mph SW9.3 kmh SW 7.0 mph11.3 kmh 29.73 in1006.8 mb 0.00 in0.0 mm 0.00 in0.0 mm 0.02 in0.5 mm
08:45 AM 62.8°F17.1°C 60.7°F15.9°C 93% 5.9 mph SW9.5 kmh SW 8.0 mph12.9 kmh 29.73 in1006.8 mb 0.00 in0.0 mm 0.00 in0.0 mm 0.02 in0.5 mm
08:46 AM 62.8°F17.1°C 60.7°F15.9°C 93% 6.0 mph WSW9.7 kmh WSW 8.0 mph12.9 kmh 29.73 in1006.8 mb 0.00 in0.0 mm 0.00 in0.0 mm 0.02 in0.5 mm
08:47 AM 62.8°F17.1°C 60.7°F15.9°C 93% 6.0 mph SW9.7 kmh SW 8.0 mph12.9 kmh 29.73 in1006.8 mb 0.00 in0.0 mm 0.00 in0.0 mm 0.02 in0.5 mm
08:48 AM 62.9°F17.2°C 60.8°F16.0°C 93% 8.8 mph SW14.2 kmh SW 9.0 mph14.5 kmh 29.73 in1006.8 mb 0.00 in0.0 mm 0.00 in0.0 mm 0.02 in0.5 mm
08:49 AM 62.8°F17.1°C 60.7°F15.9°C 93% 7.6 mph SW12.2 kmh SW 9.0 mph14.5 kmh 29.73 in1006.8 mb 0.00 in0.0 mm 0.00 in0.0 mm 0.02 in0.5 mm
08:50 AM 62.8°F17.1°C 60.4°F15.8°C 92% 7.1 mph SW11.4 kmh SW 9.0 mph14.5 kmh 29.73 in1006.8 mb 0.00 in0.0 mm 0.00 in0.0 mm 0.02 in0.5 mm
08:51 AM 62.8°F17.1°C 60.4°F15.8°C 92% 7.0 mph SW11.3 kmh SW 8.0 mph12.9 kmh 29.73 in1006.8 mb 0.00 in0.0 mm 0.00 in0.0 mm 0.02 in0.5 mm
08:52 AM 62.7°F17.1°C 60.3°F15.7°C 92% 6.4 mph SW10.3 kmh SW 8.0 mph12.9 kmh 29.73 in1006.8 mb 0.00 in0.0 mm 0.00 in0.0 mm 0.02 in0.5 mm
08:53 AM 62.8°F17.1°C 60.7°F15.9°C 93% 6.0 mph SW9.7 kmh SW 8.0 mph12.9 kmh 29.73 in1006.8 mb 0.00 in0.0 mm 0.00 in0.0 mm 0.02 in0.5 mm
08:54 AM 62.8°F17.1°C 60.7°F15.9°C 93% 5.6 mph SW9.0 kmh SW 7.0 mph11.3 kmh 29.73 in1006.8 mb 0.00 in0.0 mm 0.00 in0.0 mm 0.02 in0.5 mm
08:55 AM 62.8°F17.1°C 60.7°F15.9°C 93% 6.5 mph SW10.5 kmh SW 7.0 mph11.3 kmh 29.73 in1006.8 mb 0.00 in0.0 mm 0.00 in0.0 mm 0.02 in0.5 mm
08:56 AM 62.9°F17.2°C 60.5°F15.8°C 92% 5.7 mph SW9.2 kmh SW 7.0 mph11.3 kmh 29.73 in1006.8 mb 0.00 in0.0 mm 0.00 in0.0 mm 0.02 in0.5 mm
08:57 AM 62.9°F17.2°C 60.5°F15.8°C 92% 6.0 mph SW9.7 kmh SW 7.0 mph11.3 kmh 29.73 in1006.8 mb 0.00 in0.0 mm 0.00 in0.0 mm 0.02 in0.5 mm
08:58 AM 63.0°F17.2°C 60.6°F15.9°C 92% 6.4 mph SSW10.3 kmh SSW 8.0 mph12.9 kmh 29.73 in1006.8 mb 0.00 in0.0 mm 0.00 in0.0 mm 0.02 in0.5 mm
08:59 AM 63.0°F17.2°C 60.6°F15.9°C 92% 6.1 mph SW9.8 kmh SW 8.0 mph12.9 kmh 29.73 in1006.8 mb 0.00 in0.0 mm 0.00 in0.0 mm 0.02 in0.5 mm
09:00 AM 63.1°F17.3°C 60.7°F15.9°C 92% 5.6 mph SW9.0 kmh SW 8.0 mph12.9 kmh 29.73 in1006.8 mb 0.00 in0.0 mm 0.00 in0.0 mm 0.02 in0.5 mm
09:01 AM 63.1°F17.3°C 60.7°F15.9°C 92% 5.5 mph SW8.9 kmh SW 9.0 mph14.5 kmh 29.73 in1006.8 mb 0.00 in0.0 mm 0.00 in0.0 mm 0.02 in0.5 mm
09:02 AM 63.1°F17.3°C 60.7°F15.9°C 92% 5.7 mph WSW9.2 kmh WSW 9.0 mph14.5 kmh 29.73 in1006.8 mb 0.00 in0.0 mm 0.00 in0.0 mm 0.02 in0.5 mm
09:03 AM 63.2°F17.3°C 61.1°F16.2°C 93% 6.8 mph WSW10.9 kmh WSW 9.0 mph14.5 kmh 29.73 in1006.8 mb 0.00 in0.0 mm 0.00 in0.0 mm 0.02 in0.5 mm
09:04 AM 63.2°F17.3°C 60.8°F16.0°C 92% 6.7 mph SW10.8 kmh SW 9.0 mph14.5 kmh 29.73 in1006.8 mb 0.00 in0.0 mm 0.00 in0.0 mm 0.02 in0.5 mm
09:05 AM 63.2°F17.3°C 60.8°F16.0°C 92% 7.5 mph SW12.1 kmh SW 9.0 mph14.5 kmh 29.73 in1006.8 mb 0.00 in0.0 mm 0.00 in0.0 mm 0.02 in0.5 mm
09:06 AM 63.2°F17.3°C 60.8°F16.0°C 92% 7.2 mph SW11.6 kmh SW 9.0 mph14.5 kmh 29.73 in1006.8 mb 0.00 in0.0 mm 0.00 in0.0 mm 0.02 in0.5 mm
09:07 AM 63.2°F17.3°C 60.5°F15.8°C 91% 7.2 mph SW11.6 kmh SW 9.0 mph14.5 kmh 29.73 in1006.8 mb 0.00 in0.0 mm 0.00 in0.0 mm 0.02 in0.5 mm
09:08 AM 63.3°F17.4°C 60.9°F16.1°C 92% 6.3 mph SW10.1 kmh SW 9.0 mph14.5 kmh 29.73 in1006.8 mb 0.00 in0.0 mm 0.00 in0.0 mm 0.02 in0.5 mm
09:09 AM 63.2°F17.3°C 60.5°F15.8°C 91% 6.3 mph SW10.1 kmh SW 9.0 mph14.5 kmh 29.73 in1006.8 mb 0.00 in0.0 mm 0.00 in0.0 mm 0.02 in0.5 mm
09:10 AM 63.2°F17.3°C 60.5°F15.8°C 91% 6.8 mph SW10.9 kmh SW 8.0 mph12.9 kmh 29.73 in1006.8 mb 0.00 in0.0 mm 0.00 in0.0 mm 0.02 in0.5 mm
09:11 AM 63.3°F17.4°C 60.6°F15.9°C 91% 5.5 mph SW8.9 kmh SW 8.0 mph12.9 kmh 29.73 in1006.8 mb 0.00 in0.0 mm 0.00 in0.0 mm 0.02 in0.5 mm
09:12 AM 63.2°F17.3°C 60.5°F15.8°C 91% 5.3 mph SW8.5 kmh SW 7.0 mph11.3 kmh 29.73 in1006.8 mb 0.00 in0.0 mm 0.00 in0.0 mm 0.02 in0.5 mm
09:13 AM 63.3°F17.4°C 60.6°F15.9°C 91% 3.9 mph SW6.3 kmh SW 7.0 mph11.3 kmh 29.73 in1006.8 mb 0.00 in0.0 mm 0.00 in0.0 mm 0.02 in0.5 mm
09:14 AM 63.3°F17.4°C 60.6°F15.9°C 91% 4.9 mph SW7.9 kmh SW 6.0 mph9.7 kmh 29.73 in1006.8 mb 0.00 in0.0 mm 0.00 in0.0 mm 0.02 in0.5 mm
09:15 AM 63.3°F17.4°C 60.6°F15.9°C 91% 5.2 mph SW8.4 kmh SW 7.0 mph11.3 kmh 29.73 in1006.8 mb 0.00 in0.0 mm 0.00 in0.0 mm 0.02 in0.5 mm
09:16 AM 63.4°F17.4°C 60.7°F15.9°C 91% 5.6 mph SW9.0 kmh SW 7.0 mph11.3 kmh 29.73 in1006.8 mb 0.00 in0.0 mm 0.00 in0.0 mm 0.02 in0.5 mm
09:17 AM 63.3°F17.4°C 60.3°F15.7°C 90% 5.0 mph SW8.0 kmh SW 7.0 mph11.3 kmh 29.73 in1006.8 mb 0.00 in0.0 mm 0.00 in0.0 mm 0.02 in0.5 mm
09:18 AM 63.4°F17.4°C 60.7°F15.9°C 91% 5.0 mph SW8.0 kmh SW 7.0 mph11.3 kmh 29.73 in1006.8 mb 0.00 in0.0 mm 0.00 in0.0 mm 0.02 in0.5 mm
09:19 AM 63.4°F17.4°C 60.4°F15.8°C 90% 5.2 mph SW8.4 kmh SW 6.0 mph9.7 kmh 29.73 in1006.8 mb 0.00 in0.0 mm 0.00 in0.0 mm 0.02 in0.5 mm
09:20 AM 63.6°F17.6°C 60.6°F15.9°C 90% 4.4 mph SW7.1 kmh SW 6.0 mph9.7 kmh 29.73 in1006.8 mb 0.00 in0.0 mm 0.00 in0.0 mm 0.02 in0.5 mm
09:21 AM 63.6°F17.6°C 60.3°F15.7°C 89% 5.3 mph SW8.5 kmh SW 7.0 mph11.3 kmh 29.73 in1006.8 mb 0.00 in0.0 mm 0.00 in0.0 mm 0.02 in0.5 mm
09:22 AM 63.6°F17.6°C 60.3°F15.7°C 89% 4.9 mph SW7.9 kmh SW 7.0 mph11.3 kmh 29.73 in1006.8 mb 0.00 in0.0 mm 0.00 in0.0 mm 0.02 in0.5 mm
09:23 AM 63.7°F17.6°C 60.7°F15.9°C 90% 4.6 mph SW7.4 kmh SW 6.0 mph9.7 kmh 29.73 in1006.8 mb 0.00 in0.0 mm 0.00 in0.0 mm 0.02 in0.5 mm
09:24 AM 63.8°F17.7°C 60.8°F16.0°C 90% 4.3 mph WSW6.9 kmh WSW 7.0 mph11.3 kmh 29.73 in1006.8 mb 0.00 in0.0 mm 0.00 in0.0 mm 0.02 in0.5 mm
09:25 AM 63.9°F17.7°C 60.9°F16.1°C 90% 4.0 mph WSW6.4 kmh WSW 7.0 mph11.3 kmh 29.73 in1006.8 mb 0.00 in0.0 mm 0.00 in0.0 mm 0.02 in0.5 mm
09:26 AM 64.0°F17.8°C 61.0°F16.1°C 90% 3.6 mph WSW5.8 kmh WSW 5.0 mph8.0 kmh 29.73 in1006.8 mb 0.00 in0.0 mm 0.00 in0.0 mm 0.02 in0.5 mm
09:27 AM 64.0°F17.8°C 61.0°F16.1°C 90% 3.4 mph SW5.5 kmh SW 8.0 mph12.9 kmh 29.73 in1006.8 mb 0.00 in0.0 mm 0.00 in0.0 mm 0.02 in0.5 mm
09:28 AM 64.0°F17.8°C 61.0°F16.1°C 90% 4.8 mph SW7.7 kmh SW 8.0 mph12.9 kmh 29.73 in1006.8 mb 0.00 in0.0 mm 0.00 in0.0 mm 0.02 in0.5 mm
09:29 AM 64.1°F17.8°C 60.8°F16.0°C 89% 4.0 mph SSW6.4 kmh SSW 7.0 mph11.3 kmh 29.73 in1006.8 mb 0.00 in0.0 mm 0.00 in0.0 mm 0.02 in0.5 mm
09:30 AM 64.0°F17.8°C 60.7°F15.9°C 89% 3.4 mph SSW5.5 kmh SSW 5.0 mph8.0 kmh 29.73 in1006.8 mb 0.00 in0.0 mm 0.00 in0.0 mm 0.02 in0.5 mm
09:31 AM 64.0°F17.8°C 60.7°F15.9°C 89% 3.6 mph SSW5.8 kmh SSW 5.0 mph8.0 kmh 29.72 in1006.4 mb 0.00 in0.0 mm 0.00 in0.0 mm 0.02 in0.5 mm
09:32 AM 64.1°F17.8°C 61.1°F16.2°C 90% 3.1 mph SW5.0 kmh SW 5.0 mph8.0 kmh 29.73 in1006.8 mb 0.00 in0.0 mm 0.00 in0.0 mm 0.02 in0.5 mm
09:33 AM 64.1°F17.8°C 61.1°F16.2°C 90% 3.4 mph WSW5.5 kmh WSW 4.0 mph6.4 kmh 29.73 in1006.8 mb 0.00 in0.0 mm 0.00 in0.0 mm 0.02 in0.5 mm
09:34 AM 64.0°F17.8°C 60.7°F15.9°C 89% 4.0 mph WSW6.4 kmh WSW 6.0 mph9.7 kmh 29.72 in1006.4 mb 0.00 in0.0 mm 0.00 in0.0 mm 0.02 in0.5 mm
09:35 AM 64.0°F17.8°C 60.7°F15.9°C 89% 4.0 mph WSW6.4 kmh WSW 5.0 mph8.0 kmh 29.73 in1006.8 mb 0.00 in0.0 mm 0.00 in0.0 mm 0.02 in0.5 mm
09:36 AM 64.0°F17.8°C 60.4°F15.8°C 88% 3.0 mph WSW4.8 kmh WSW 3.0 mph4.8 kmh 29.72 in1006.4 mb 0.00 in0.0 mm 0.00 in0.0 mm 0.02 in0.5 mm
09:37 AM 63.9°F17.7°C 60.3°F15.7°C 88% 2.6 mph WSW4.2 kmh WSW 4.0 mph6.4 kmh 29.72 in1006.4 mb 0.00 in0.0 mm 0.00 in0.0 mm 0.02 in0.5 mm
09:38 AM 63.9°F17.7°C 60.6°F15.9°C 89% 1.9 mph WSW3.1 kmh WSW 4.0 mph6.4 kmh 29.72 in1006.4 mb 0.00 in0.0 mm 0.00 in0.0 mm 0.02 in0.5 mm
09:39 AM 63.9°F17.7°C 60.6°F15.9°C 89% 2.4 mph WSW3.9 kmh WSW 4.0 mph6.4 kmh 29.72 in1006.4 mb 0.00 in0.0 mm 0.00 in0.0 mm 0.02 in0.5 mm
09:40 AM 63.9°F17.7°C 60.6°F15.9°C 89% 3.1 mph WSW5.0 kmh WSW 4.0 mph6.4 kmh 29.72 in1006.4 mb 0.00 in0.0 mm 0.00 in0.0 mm 0.02 in0.5 mm
09:41 AM 63.9°F17.7°C 60.6°F15.9°C 89% 2.9 mph WSW4.7 kmh WSW 4.0 mph6.4 kmh 29.72 in1006.4 mb 0.00 in0.0 mm 0.00 in0.0 mm 0.02 in0.5 mm
09:42 AM 63.9°F17.7°C 60.6°F15.9°C 89% 3.4 mph WSW5.5 kmh WSW 4.0 mph6.4 kmh 29.72 in1006.4 mb 0.00 in0.0 mm 0.00 in0.0 mm 0.02 in0.5 mm
09:43 AM 63.8°F17.7°C 60.5°F15.8°C 89% 4.1 mph WSW6.6 kmh WSW 5.0 mph8.0 kmh 29.72 in1006.4 mb 0.00 in0.0 mm 0.00 in0.0 mm 0.02 in0.5 mm
09:44 AM 63.9°F17.7°C 60.6°F15.9°C 89% 3.6 mph WSW5.8 kmh WSW 5.0 mph8.0 kmh 29.72 in1006.4 mb 0.00 in0.0 mm 0.00 in0.0 mm 0.02 in0.5 mm
09:45 AM 63.9°F17.7°C 60.6°F15.9°C 89% 2.8 mph WSW4.5 kmh WSW 5.0 mph8.0 kmh 29.72 in1006.4 mb 0.00 in0.0 mm 0.00 in0.0 mm 0.02 in0.5 mm
09:46 AM 63.9°F17.7°C 60.6°F15.9°C 89% 2.5 mph WSW4.0 kmh WSW 4.0 mph6.4 kmh 29.72 in1006.4 mb 0.00 in0.0 mm 0.00 in0.0 mm 0.02 in0.5 mm
09:47 AM 63.9°F17.7°C 60.6°F15.9°C 89% 3.3 mph WSW5.3 kmh WSW 4.0 mph6.4 kmh 29.72 in1006.4 mb 0.00 in0.0 mm 0.00 in0.0 mm 0.02 in0.5 mm
09:48 AM 63.9°F17.7°C 60.6°F15.9°C 89% 3.0 mph WSW4.8 kmh WSW 4.0 mph6.4 kmh 29.72 in1006.4 mb 0.00 in0.0 mm 0.00 in0.0 mm 0.02 in0.5 mm
09:49 AM 63.9°F17.7°C 60.6°F15.9°C 89% 2.7 mph WSW4.3 kmh WSW 4.0 mph6.4 kmh 29.72 in1006.4 mb 0.00 in0.0 mm 0.00 in0.0 mm 0.02 in0.5 mm
09:50 AM 63.9°F17.7°C 60.6°F15.9°C 89% 2.0 mph WSW3.2 kmh WSW 3.0 mph4.8 kmh 29.72 in1006.4 mb 0.00 in0.0 mm 0.00 in0.0 mm 0.02 in0.5 mm
09:51 AM 64.0°F17.8°C 60.7°F15.9°C 89% 2.0 mph WSW3.2 kmh WSW 3.0 mph4.8 kmh 29.72 in1006.4 mb 0.00 in0.0 mm 0.00 in0.0 mm 0.02 in0.5 mm
09:52 AM 64.0°F17.8°C 60.7°F15.9°C 89% 2.0 mph WSW3.2 kmh WSW 3.0 mph4.8 kmh 29.72 in1006.4 mb 0.00 in0.0 mm 0.00 in0.0 mm 0.02 in0.5 mm
09:53 AM 64.0°F17.8°C 60.7°F15.9°C 89% 2.5 mph WSW4.0 kmh WSW 3.0 mph4.8 kmh 29.72 in1006.4 mb 0.00 in0.0 mm 0.00 in0.0 mm 0.02 in0.5 mm
09:54 AM 64.0°F17.8°C 60.7°F15.9°C 89% 2.7 mph WSW4.3 kmh WSW 4.0 mph6.4 kmh 29.72 in1006.4 mb 0.00 in0.0 mm 0.00 in0.0 mm 0.02 in0.5 mm
09:55 AM 63.9°F17.7°C 60.6°F15.9°C 89% 3.2 mph WSW5.1 kmh WSW 4.0 mph6.4 kmh 29.72 in1006.4 mb 0.00 in0.0 mm 0.00 in0.0 mm 0.02 in0.5 mm
09:56 AM 63.9°F17.7°C 60.6°F15.9°C 89% 2.2 mph WSW3.5 kmh WSW 4.0 mph6.4 kmh 29.72 in1006.4 mb 0.00 in0.0 mm 0.00 in0.0 mm 0.02 in0.5 mm
09:57 AM 63.9°F17.7°C 60.6°F15.9°C 89% 2.9 mph WSW4.7 kmh WSW 4.0 mph6.4 kmh 29.72 in1006.4 mb 0.00 in0.0 mm 0.00 in0.0 mm 0.02 in0.5 mm
09:58 AM 64.0°F17.8°C 60.7°F15.9°C 89% 3.8 mph WSW6.1 kmh WSW 4.0 mph6.4 kmh 29.72 in1006.4 mb 0.00 in0.0 mm 0.00 in0.0 mm 0.02 in0.5 mm
09:59 AM 64.0°F17.8°C 60.7°F15.9°C 89% 3.6 mph WSW5.8 kmh WSW 4.0 mph6.4 kmh 29.72 in1006.4 mb 0.00 in0.0 mm 0.00 in0.0 mm 0.02 in0.5 mm
10:00 AM 64.1°F17.8°C 60.8°F16.0°C 89% 3.3 mph WSW5.3 kmh WSW 4.0 mph6.4 kmh 29.72 in1006.4 mb 0.00 in0.0 mm 0.00 in0.0 mm 0.02 in0.5 mm
10:01 AM 64.1°F17.8°C 60.8°F16.0°C 89% 3.0 mph WSW4.8 kmh WSW 4.0 mph6.4 kmh 29.72 in1006.4 mb 0.00 in0.0 mm 0.00 in0.0 mm 0.02 in0.5 mm
10:02 AM 64.2°F17.9°C 60.9°F16.1°C 89% 3.2 mph WSW5.1 kmh WSW 4.0 mph6.4 kmh 29.72 in1006.4 mb 0.00 in0.0 mm 0.00 in0.0 mm 0.02 in0.5 mm
10:03 AM 64.1°F17.8°C 60.8°F16.0°C 89% 3.0 mph WSW4.8 kmh WSW 4.0 mph6.4 kmh 29.72 in1006.4 mb 0.00 in0.0 mm 0.00 in0.0 mm 0.02 in0.5 mm
10:04 AM 64.2°F17.9°C 60.9°F16.1°C 89% 3.7 mph WSW6.0 kmh WSW 4.0 mph6.4 kmh 29.72 in1006.4 mb 0.00 in0.0 mm 0.00 in0.0 mm 0.02 in0.5 mm
10:05 AM 64.2°F17.9°C 60.6°F15.9°C 88% 3.5 mph WSW5.6 kmh WSW 4.0 mph6.4 kmh 29.72 in1006.4 mb 0.00 in0.0 mm 0.00 in0.0 mm 0.02 in0.5 mm
10:06 AM 64.3°F17.9°C 61.0°F16.1°C 89% 3.3 mph WSW5.3 kmh WSW 4.0 mph6.4 kmh 29.72 in1006.4 mb 0.00 in0.0 mm 0.00 in0.0 mm 0.02 in0.5 mm
10:07 AM 64.2°F17.9°C 60.9°F16.1°C 89% 2.7 mph W4.3 kmh W 4.0 mph6.4 kmh 29.72 in1006.4 mb 0.00 in0.0 mm 0.00 in0.0 mm 0.02 in0.5 mm
10:08 AM 64.2°F17.9°C 60.6°F15.9°C 88% 2.9 mph W4.7 kmh W 4.0 mph6.4 kmh 29.72 in1006.4 mb 0.00 in0.0 mm 0.00 in0.0 mm 0.02 in0.5 mm
10:09 AM 64.1°F17.8°C 60.5°F15.8°C 88% 2.7 mph W4.3 kmh W 3.0 mph4.8 kmh 29.72 in1006.4 mb 0.00 in0.0 mm 0.00 in0.0 mm 0.02 in0.5 mm
10:10 AM 64.2°F17.9°C 60.6°F15.9°C 88% 2.4 mph W3.9 kmh W 3.0 mph4.8 kmh 29.72 in1006.4 mb 0.00 in0.0 mm 0.00 in0.0 mm 0.02 in0.5 mm
10:11 AM 64.1°F17.8°C 60.5°F15.8°C 88% 2.5 mph W4.0 kmh W 3.0 mph4.8 kmh 29.72 in1006.4 mb 0.00 in0.0 mm 0.00 in0.0 mm 0.02 in0.5 mm
10:12 AM 64.2°F17.9°C 60.9°F16.1°C 89% 2.0 mph W3.2 kmh W 3.0 mph4.8 kmh 29.72 in1006.4 mb 0.00 in0.0 mm 0.00 in0.0 mm 0.02 in0.5 mm
10:13 AM 64.2°F17.9°C 60.9°F16.1°C 89% 1.0 mph W1.6 kmh W 2.0 mph3.2 kmh 29.72 in1006.4 mb 0.00 in0.0 mm 0.00 in0.0 mm 0.02 in0.5 mm
10:14 AM 64.2°F17.9°C 60.9°F16.1°C 89% 1.0 mph W1.6 kmh W 2.0 mph3.2 kmh 29.72 in1006.4 mb 0.00 in0.0 mm 0.00 in0.0 mm 0.02 in0.5 mm
10:15 AM 64.2°F17.9°C 60.6°F15.9°C 88% 1.5 mph W2.4 kmh W 2.0 mph3.2 kmh 29.72 in1006.4 mb 0.00 in0.0 mm 0.00 in0.0 mm 0.02 in0.5 mm
10:16 AM 64.3°F17.9°C 61.0°F16.1°C 89% 1.6 mph W2.6 kmh W 2.0 mph3.2 kmh 29.72 in1006.4 mb 0.00 in0.0 mm 0.00 in0.0 mm 0.02 in0.5 mm
10:17 AM 64.3°F17.9°C 60.7°F15.9°C 88% 2.0 mph W3.2 kmh W 2.0 mph3.2 kmh 29.72 in1006.4 mb 0.00 in0.0 mm 0.00 in0.0 mm 0.02 in0.5 mm
10:18 AM 64.3°F17.9°C 61.0°F16.1°C 89% 1.0 mph W1.6 kmh W 2.0 mph3.2 kmh 29.72 in1006.4 mb 0.00 in0.0 mm 0.00 in0.0 mm 0.02 in0.5 mm
10:19 AM 64.3°F17.9°C 60.7°F15.9°C 88% 1.8 mph W2.9 kmh W 2.0 mph3.2 kmh 29.72 in1006.4 mb 0.00 in0.0 mm 0.00 in0.0 mm 0.02 in0.5 mm
10:20 AM 64.3°F17.9°C 60.7°F15.9°C 88% 1.8 mph W2.9 kmh W 3.0 mph4.8 kmh 29.72 in1006.4 mb 0.00 in0.0 mm 0.00 in0.0 mm 0.02 in0.5 mm
10:21 AM 64.3°F17.9°C 61.0°F16.1°C 89% 1.0 mph W1.6 kmh W 2.0 mph3.2 kmh 29.72 in1006.4 mb 0.00 in0.0 mm 0.00 in0.0 mm 0.02 in0.5 mm
10:22 AM 64.4°F18.0°C 61.1°F16.2°C 89% 2.0 mph W3.2 kmh W 3.0 mph4.8 kmh 29.72 in1006.4 mb 0.00 in0.0 mm 0.00 in0.0 mm 0.02 in0.5 mm
10:23 AM 64.4°F18.0°C 61.4°F16.3°C 90% 2.0 mph W3.2 kmh W 2.0 mph3.2 kmh 29.72 in1006.4 mb 0.00 in0.0 mm 0.00 in0.0 mm 0.02 in0.5 mm
10:24 AM 64.4°F18.0°C 61.1°F16.2°C 89% 2.0 mph W3.2 kmh W 2.0 mph3.2 kmh 29.72 in1006.4 mb 0.00 in0.0 mm 0.00 in0.0 mm 0.02 in0.5 mm
10:25 AM 64.4°F18.0°C 61.1°F16.2°C 89% 1.7 mph W2.7 kmh W 3.0 mph4.8 kmh 29.71 in1006.1 mb 0.00 in0.0 mm 0.00 in0.0 mm 0.02 in0.5 mm
10:26 AM 64.4°F18.0°C 61.4°F16.3°C 90% 1.7 mph W2.7 kmh W 3.0 mph4.8 kmh 29.71 in1006.1 mb 0.00 in0.0 mm 0.00 in0.0 mm 0.02 in0.5 mm
10:27 AM 64.3°F17.9°C 61.0°F16.1°C 89% 2.0 mph W3.2 kmh W 2.0 mph3.2 kmh 29.71 in1006.1 mb 0.00 in0.0 mm 0.00 in0.0 mm 0.02 in0.5 mm
10:28 AM 64.3°F17.9°C 61.0°F16.1°C 89% 2.3 mph W3.7 kmh W 3.0 mph4.8 kmh 29.71 in1006.1 mb 0.00 in0.0 mm 0.00 in0.0 mm 0.02 in0.5 mm
10:29 AM 64.2°F17.9°C 60.9°F16.1°C 89% 4.0 mph W6.4 kmh W 4.0 mph6.4 kmh 29.72 in1006.4 mb 0.00 in0.0 mm 0.00 in0.0 mm 0.02 in0.5 mm
10:30 AM 64.2°F17.9°C 60.9°F16.1°C 89% 5.0 mph W8.0 kmh W 6.0 mph9.7 kmh 29.72 in1006.4 mb 0.00 in0.0 mm 0.00 in0.0 mm 0.02 in0.5 mm
10:31 AM 64.1°F17.8°C 60.8°F16.0°C 89% 6.0 mph W9.7 kmh W 9.0 mph14.5 kmh 29.71 in1006.1 mb 0.00 in0.0 mm 0.00 in0.0 mm 0.02 in0.5 mm
10:32 AM 64.0°F17.8°C 60.7°F15.9°C 89% 9.1 mph WSW14.6 kmh WSW 10.0 mph16.1 kmh 29.71 in1006.1 mb 0.00 in0.0 mm 0.00 in0.0 mm 0.02 in0.5 mm
10:33 AM 63.9°F17.7°C 60.9°F16.1°C 90% 7.5 mph WSW12.1 kmh WSW 10.0 mph16.1 kmh 29.71 in1006.1 mb 0.00 in0.0 mm 0.00 in0.0 mm 0.02 in0.5 mm
10:34 AM 63.9°F17.7°C 60.9°F16.1°C 90% 9.2 mph WSW14.8 kmh WSW 10.0 mph16.1 kmh 29.71 in1006.1 mb 0.00 in0.0 mm 0.00 in0.0 mm 0.02 in0.5 mm
10:35 AM 63.8°F17.7°C 60.8°F16.0°C 90% 8.4 mph W13.5 kmh W 11.0 mph17.7 kmh 29.71 in1006.1 mb 0.00 in0.0 mm 0.00 in0.0 mm 0.02 in0.5 mm
10:36 AM 63.6°F17.6°C 60.6°F15.9°C 90% 8.6 mph W13.8 kmh W 11.0 mph17.7 kmh 29.71 in1006.1 mb 0.00 in0.0 mm 0.00 in0.0 mm 0.02 in0.5 mm
10:37 AM 63.5°F17.5°C 60.5°F15.8°C 90% 9.3 mph WNW15.0 kmh WNW 11.0 mph17.7 kmh 29.71 in1006.1 mb 0.00 in0.0 mm 0.00 in0.0 mm 0.02 in0.5 mm
10:38 AM 63.4°F17.4°C 60.4°F15.8°C 90% 7.6 mph W12.2 kmh W 11.0 mph17.7 kmh 29.71 in1006.1 mb 0.00 in0.0 mm 0.00 in0.0 mm 0.02 in0.5 mm
10:39 AM 63.3°F17.4°C 60.3°F15.7°C 90% 7.0 mph WNW11.3 kmh WNW 9.0 mph14.5 kmh 29.71 in1006.1 mb 0.00 in0.0 mm 0.00 in0.0 mm 0.02 in0.5 mm
10:40 AM 63.2°F17.3°C 60.2°F15.7°C 90% 6.7 mph NW10.8 kmh NW 8.0 mph12.9 kmh 29.71 in1006.1 mb 0.00 in0.0 mm 0.00 in0.0 mm 0.02 in0.5 mm
10:41 AM 63.1°F17.3°C 60.4°F15.8°C 91% 5.5 mph WNW8.9 kmh WNW 8.0 mph12.9 kmh 29.71 in1006.1 mb 0.00 in0.0 mm 0.00 in0.0 mm 0.02 in0.5 mm
10:42 AM 63.1°F17.3°C 60.4°F15.8°C 91% 4.4 mph WNW7.1 kmh WNW 8.0 mph12.9 kmh 29.71 in1006.1 mb 0.00 in0.0 mm 0.00 in0.0 mm 0.02 in0.5 mm
10:43 AM 63.0°F17.2°C 60.3°F15.7°C 91% 4.8 mph NW7.7 kmh NW 7.0 mph11.3 kmh 29.71 in1006.1 mb 0.00 in0.0 mm 0.00 in0.0 mm 0.02 in0.5 mm
10:44 AM 63.0°F17.2°C 60.6°F15.9°C 92% 3.3 mph WNW5.3 kmh WNW 7.0 mph11.3 kmh 29.71 in1006.1 mb 0.00 in0.0 mm 0.00 in0.0 mm 0.02 in0.5 mm
10:45 AM 63.0°F17.2°C 60.6°F15.9°C 92% 4.0 mph WNW6.4 kmh WNW 5.0 mph8.0 kmh 29.71 in1006.1 mb 0.00 in0.0 mm 0.00 in0.0 mm 0.02 in0.5 mm
10:46 AM 62.9°F17.2°C 60.5°F15.8°C 92% 5.0 mph NW8.0 kmh NW 5.0 mph8.0 kmh 29.71 in1006.1 mb 0.00 in0.0 mm 0.00 in0.0 mm 0.02 in0.5 mm
10:47 AM 62.9°F17.2°C 60.2°F15.7°C 91% 5.0 mph NW8.0 kmh NW 5.0 mph8.0 kmh 29.71 in1006.1 mb 0.00 in0.0 mm 0.00 in0.0 mm 0.02 in0.5 mm
10:48 AM 62.8°F17.1°C 60.1°F15.6°C 91% 4.0 mph NW6.4 kmh NW 5.0 mph8.0 kmh 29.71 in1006.1 mb 0.00 in0.0 mm 0.00 in0.0 mm 0.02 in0.5 mm
10:49 AM 62.8°F17.1°C 60.1°F15.6°C 91% 3.3 mph NW5.3 kmh NW 5.0 mph8.0 kmh 29.71 in1006.1 mb 0.00 in0.0 mm 0.00 in0.0 mm 0.02 in0.5 mm
10:50 AM 62.8°F17.1°C 60.1°F15.6°C 91% 3.2 mph NW5.1 kmh NW 4.0 mph6.4 kmh 29.71 in1006.1 mb 0.00 in0.0 mm 0.00 in0.0 mm 0.02 in0.5 mm
10:51 AM 62.8°F17.1°C 60.1°F15.6°C 91% 3.4 mph NW5.5 kmh NW 4.0 mph6.4 kmh 29.71 in1006.1 mb 0.00 in0.0 mm 0.00 in0.0 mm 0.02 in0.5 mm
10:52 AM 62.8°F17.1°C 60.4°F15.8°C 92% 3.7 mph NW6.0 kmh NW 4.0 mph6.4 kmh 29.71 in1006.1 mb 0.00 in0.0 mm 0.00 in0.0 mm 0.02 in0.5 mm
10:53 AM 62.8°F17.1°C 60.1°F15.6°C 91% 3.0 mph NW4.8 kmh NW 4.0 mph6.4 kmh 29.71 in1006.1 mb 0.00 in0.0 mm 0.00 in0.0 mm 0.02 in0.5 mm
10:54 AM 62.8°F17.1°C 60.1°F15.6°C 91% 2.7 mph NW4.3 kmh NW 4.0 mph6.4 kmh 29.71 in1006.1 mb 0.00 in0.0 mm 0.00 in0.0 mm 0.02 in0.5 mm
10:55 AM 62.8°F17.1°C 60.1°F15.6°C 91% 2.3 mph NW3.7 kmh NW 3.0 mph4.8 kmh 29.71 in1006.1 mb 0.00 in0.0 mm 0.00 in0.0 mm 0.02 in0.5 mm
10:56 AM 62.7°F17.1°C 60.0°F15.6°C 91% 2.0 mph NW3.2 kmh NW 3.0 mph4.8 kmh 29.71 in1006.1 mb 0.00 in0.0 mm 0.00 in0.0 mm 0.02 in0.5 mm
10:57 AM 62.7°F17.1°C 59.7°F15.4°C 90% 2.0 mph NW3.2 kmh NW 3.0 mph4.8 kmh 29.71 in1006.1 mb 0.00 in0.0 mm 0.00 in0.0 mm 0.02 in0.5 mm
10:58 AM 62.7°F17.1°C 60.0°F15.6°C 91% 2.0 mph NW3.2 kmh NW 2.0 mph3.2 kmh 29.71 in1006.1 mb 0.00 in0.0 mm 0.00 in0.0 mm 0.02 in0.5 mm
10:59 AM 62.8°F17.1°C 60.1°F15.6°C 91% 1.9 mph NW3.1 kmh NW 2.0 mph3.2 kmh 29.71 in1006.1 mb 0.00 in0.0 mm 0.00 in0.0 mm 0.02 in0.5 mm
11:00 AM 62.8°F17.1°C 60.1°F15.6°C 91% 2.7 mph NW4.3 kmh NW 3.0 mph4.8 kmh 29.71 in1006.1 mb 0.00 in0.0 mm 0.00 in0.0 mm 0.02 in0.5 mm
11:01 AM 62.8°F17.1°C 60.1°F15.6°C 91% 2.0 mph NW3.2 kmh NW 3.0 mph4.8 kmh 29.71 in1006.1 mb 0.00 in0.0 mm 0.00 in0.0 mm 0.02 in0.5 mm
11:02 AM 62.8°F17.1°C 60.4°F15.8°C 92% 2.5 mph NW4.0 kmh NW 3.0 mph4.8 kmh 29.71 in1006.1 mb 0.00 in0.0 mm 0.00 in0.0 mm 0.02 in0.5 mm
11:03 AM 62.8°F17.1°C 60.4°F15.8°C 92% 2.4 mph NW3.9 kmh NW 3.0 mph4.8 kmh 29.71 in1006.1 mb 0.00 in0.0 mm 0.00 in0.0 mm 0.02 in0.5 mm
11:04 AM 62.9°F17.2°C 60.5°F15.8°C 92% 2.0 mph NW3.2 kmh NW 3.0 mph4.8 kmh 29.71 in1006.1 mb 0.00 in0.0 mm 0.00 in0.0 mm 0.02 in0.5 mm
11:05 AM 62.9°F17.2°C 60.5°F15.8°C 92% 1.7 mph NW2.7 kmh NW 2.0 mph3.2 kmh 29.70 in1005.8 mb 0.00 in0.0 mm 0.00 in0.0 mm 0.02 in0.5 mm
11:06 AM 63.0°F17.2°C 60.6°F15.9°C 92% 2.0 mph NW3.2 kmh NW 3.0 mph4.8 kmh 29.71 in1006.1 mb 0.00 in0.0 mm 0.00 in0.0 mm 0.02 in0.5 mm
11:07 AM 63.0°F17.2°C 60.6°F15.9°C 92% 2.0 mph NW3.2 kmh NW 3.0 mph4.8 kmh 29.71 in1006.1 mb 0.00 in0.0 mm 0.00 in0.0 mm 0.02 in0.5 mm
11:08 AM 63.0°F17.2°C 60.6°F15.9°C 92% 3.2 mph NW5.1 kmh NW 4.0 mph6.4 kmh 29.70 in1005.8 mb 0.00 in0.0 mm 0.00 in0.0 mm 0.02 in0.5 mm
11:09 AM 63.0°F17.2°C 60.6°F15.9°C 92% 3.4 mph NW5.5 kmh NW 5.0 mph8.0 kmh 29.71 in1006.1 mb 0.00 in0.0 mm 0.00 in0.0 mm 0.02 in0.5 mm
11:10 AM 63.0°F17.2°C 60.3°F15.7°C 91% 4.1 mph NW6.6 kmh NW 5.0 mph8.0 kmh 29.70 in1005.8 mb 0.00 in0.0 mm 0.00 in0.0 mm 0.02 in0.5 mm
11:11 AM 63.0°F17.2°C 60.0°F15.6°C 90% 4.0 mph WNW6.4 kmh WNW 5.0 mph8.0 kmh 29.70 in1005.8 mb 0.00 in0.0 mm 0.00 in0.0 mm 0.02 in0.5 mm
11:12 AM 63.0°F17.2°C 60.0°F15.6°C 90% 4.0 mph WNW6.4 kmh WNW 5.0 mph8.0 kmh 29.70 in1005.8 mb 0.00 in0.0 mm 0.00 in0.0 mm 0.02 in0.5 mm
11:13 AM 63.0°F17.2°C 60.0°F15.6°C 90% 4.0 mph WNW6.4 kmh WNW 5.0 mph8.0 kmh 29.70 in1005.8 mb 0.00 in0.0 mm 0.00 in0.0 mm 0.02 in0.5 mm
11:14 AM 63.0°F17.2°C 60.0°F15.6°C 90% 4.2 mph NW6.8 kmh NW 5.0 mph8.0 kmh 29.70 in1005.8 mb 0.00 in0.0 mm 0.00 in0.0 mm 0.02 in0.5 mm
11:15 AM 63.1°F17.3°C 60.1°F15.6°C 90% 4.0 mph WNW6.4 kmh WNW 5.0 mph8.0 kmh 29.70 in1005.8 mb 0.00 in0.0 mm 0.00 in0.0 mm 0.02 in0.5 mm
11:16 AM 63.1°F17.3°C 60.1°F15.6°C 90% 4.9 mph WNW7.9 kmh WNW 7.0 mph11.3 kmh 29.70 in1005.8 mb 0.00 in0.0 mm 0.00 in0.0 mm 0.02 in0.5 mm
11:17 AM 63.1°F17.3°C 59.8°F15.4°C 89% 5.1 mph WNW8.2 kmh WNW 7.0 mph11.3 kmh 29.70 in1005.8 mb 0.00 in0.0 mm 0.00 in0.0 mm 0.02 in0.5 mm
11:18 AM 63.2°F17.3°C 60.2°F15.7°C 90% 5.1 mph WNW8.2 kmh WNW 7.0 mph11.3 kmh 29.70 in1005.8 mb 0.00 in0.0 mm 0.00 in0.0 mm 0.02 in0.5 mm
11:19 AM 63.2°F17.3°C 59.9°F15.5°C 89% 4.8 mph WNW7.7 kmh WNW 7.0 mph11.3 kmh 29.70 in1005.8 mb 0.00 in0.0 mm 0.00 in0.0 mm 0.02 in0.5 mm
11:20 AM 63.3°F17.4°C 60.0°F15.6°C 89% 4.5 mph WNW7.2 kmh WNW 5.0 mph8.0 kmh 29.70 in1005.8 mb 0.00 in0.0 mm 0.00 in0.0 mm 0.02 in0.5 mm
11:21 AM 63.3°F17.4°C 60.3°F15.7°C 90% 4.3 mph NW6.9 kmh NW 5.0 mph8.0 kmh 29.70 in1005.8 mb 0.00 in0.0 mm 0.00 in0.0 mm 0.02 in0.5 mm
11:22 AM 63.4°F17.4°C 60.4°F15.8°C 90% 5.2 mph NW8.4 kmh NW 6.0 mph9.7 kmh 29.70 in1005.8 mb 0.00 in0.0 mm 0.00 in0.0 mm 0.02 in0.5 mm
11:23 AM 63.4°F17.4°C 60.1°F15.6°C 89% 6.1 mph NW9.8 kmh NW 8.0 mph12.9 kmh 29.70 in1005.8 mb 0.00 in0.0 mm 0.00 in0.0 mm 0.02 in0.5 mm
11:24 AM 63.4°F17.4°C 60.4°F15.8°C 90% 6.1 mph NW9.8 kmh NW 8.0 mph12.9 kmh 29.70 in1005.8 mb 0.00 in0.0 mm 0.00 in0.0 mm 0.02 in0.5 mm
11:25 AM 63.4°F17.4°C 60.1°F15.6°C 89% 5.9 mph NW9.5 kmh NW 8.0 mph12.9 kmh 29.70 in1005.8 mb 0.00 in0.0 mm 0.00 in0.0 mm 0.02 in0.5 mm
11:26 AM 63.5°F17.5°C 60.5°F15.8°C 90% 6.0 mph NW9.7 kmh NW 8.0 mph12.9 kmh 29.70 in1005.8 mb 0.00 in0.0 mm 0.00 in0.0 mm 0.02 in0.5 mm
11:27 AM 63.5°F17.5°C 60.2°F15.7°C 89% 6.5 mph NW10.5 kmh NW 8.0 mph12.9 kmh 29.70 in1005.8 mb 0.00 in0.0 mm 0.00 in0.0 mm 0.02 in0.5 mm
11:28 AM 63.5°F17.5°C 60.2°F15.7°C 89% 6.4 mph NW10.3 kmh NW 8.0 mph12.9 kmh 29.70 in1005.8 mb 0.00 in0.0 mm 0.00 in0.0 mm 0.02 in0.5 mm
11:29 AM 63.6°F17.6°C 60.6°F15.9°C 90% 6.2 mph NW10.0 kmh NW 8.0 mph12.9 kmh 29.70 in1005.8 mb 0.00 in0.0 mm 0.00 in0.0 mm 0.02 in0.5 mm
11:30 AM 63.6°F17.6°C 60.3°F15.7°C 89% 6.2 mph NW10.0 kmh NW 8.0 mph12.9 kmh 29.70 in1005.8 mb 0.00 in0.0 mm 0.00 in0.0 mm 0.02 in0.5 mm
11:31 AM 63.6°F17.6°C 60.3°F15.7°C 89% 6.8 mph NW10.9 kmh NW 8.0 mph12.9 kmh 29.70 in1005.8 mb 0.00 in0.0 mm 0.00 in0.0 mm 0.02 in0.5 mm
11:32 AM 63.7°F17.6°C 60.4°F15.8°C 89% 6.0 mph NW9.7 kmh NW 8.0 mph12.9 kmh 29.70 in1005.8 mb 0.00 in0.0 mm 0.00 in0.0 mm 0.02 in0.5 mm
11:33 AM 63.7°F17.6°C 60.4°F15.8°C 89% 8.3 mph NW13.4 kmh NW 9.0 mph14.5 kmh 29.70 in1005.8 mb 0.00 in0.0 mm 0.00 in0.0 mm 0.02 in0.5 mm
11:34 AM 63.7°F17.6°C 60.7°F15.9°C 90% 7.6 mph NW12.2 kmh NW 9.0 mph14.5 kmh 29.70 in1005.8 mb 0.00 in0.0 mm 0.00 in0.0 mm 0.02 in0.5 mm
11:35 AM 63.8°F17.7°C 60.5°F15.8°C 89% 6.2 mph NW10.0 kmh NW 9.0 mph14.5 kmh 29.70 in1005.8 mb 0.00 in0.0 mm 0.00 in0.0 mm 0.02 in0.5 mm
11:36 AM 63.8°F17.7°C 60.8°F16.0°C 90% 6.8 mph NNW10.9 kmh NNW 9.0 mph14.5 kmh 29.70 in1005.8 mb 0.00 in0.0 mm 0.00 in0.0 mm 0.02 in0.5 mm
11:37 AM 63.8°F17.7°C 60.8°F16.0°C 90% 7.5 mph NNW12.1 kmh NNW 9.0 mph14.5 kmh 29.70 in1005.8 mb 0.00 in0.0 mm 0.00 in0.0 mm 0.02 in0.5 mm
11:38 AM 63.8°F17.7°C 60.5°F15.8°C 89% 7.2 mph N11.6 kmh N 9.0 mph14.5 kmh 29.70 in1005.8 mb 0.00 in0.0 mm 0.00 in0.0 mm 0.02 in0.5 mm
11:39 AM 63.8°F17.7°C 60.5°F15.8°C 89% 7.2 mph NNW11.6 kmh NNW 9.0 mph14.5 kmh 29.70 in1005.8 mb 0.00 in0.0 mm 0.00 in0.0 mm 0.02 in0.5 mm
11:40 AM 63.8°F17.7°C 60.5°F15.8°C 89% 7.5 mph NNW12.1 kmh NNW 9.0 mph14.5 kmh 29.70 in1005.8 mb 0.00 in0.0 mm 0.00 in0.0 mm 0.02 in0.5 mm
11:41 AM 63.8°F17.7°C 60.5°F15.8°C 89% 6.8 mph N10.9 kmh N 9.0 mph14.5 kmh 29.70 in1005.8 mb 0.00 in0.0 mm 0.00 in0.0 mm 0.02 in0.5 mm
11:42 AM 63.7°F17.6°C 60.4°F15.8°C 89% 7.1 mph N11.4 kmh N 8.0 mph12.9 kmh 29.70 in1005.8 mb 0.00 in0.0 mm 0.00 in0.0 mm 0.02 in0.5 mm
11:43 AM 63.7°F17.6°C 60.4°F15.8°C 89% 8.8 mph NNW14.2 kmh NNW 10.0 mph16.1 kmh 29.70 in1005.8 mb 0.00 in0.0 mm 0.00 in0.0 mm 0.02 in0.5 mm
11:44 AM 63.7°F17.6°C 60.4°F15.8°C 89% 7.4 mph N11.9 kmh N 10.0 mph16.1 kmh 29.70 in1005.8 mb 0.00 in0.0 mm 0.00 in0.0 mm 0.02 in0.5 mm
11:45 AM 63.7°F17.6°C 60.7°F15.9°C 90% 6.5 mph N10.5 kmh N 9.0 mph14.5 kmh 29.70 in1005.8 mb 0.00 in0.0 mm 0.00 in0.0 mm 0.02 in0.5 mm
11:46 AM 63.7°F17.6°C 60.4°F15.8°C 89% 7.0 mph NNW11.3 kmh NNW 9.0 mph14.5 kmh 29.70 in1005.8 mb 0.00 in0.0 mm 0.00 in0.0 mm 0.02 in0.5 mm
11:47 AM 63.6°F17.6°C 60.3°F15.7°C 89% 7.0 mph NNW11.3 kmh NNW 9.0 mph14.5 kmh 29.70 in1005.8 mb 0.00 in0.0 mm 0.00 in0.0 mm 0.02 in0.5 mm
11:48 AM 63.6°F17.6°C 60.3°F15.7°C 89% 8.0 mph NNW12.9 kmh NNW 9.0 mph14.5 kmh 29.70 in1005.8 mb 0.00 in0.0 mm 0.00 in0.0 mm 0.02 in0.5 mm
11:49 AM 63.7°F17.6°C 60.4°F15.8°C 89% 8.4 mph N13.5 kmh N 10.0 mph16.1 kmh 29.70 in1005.8 mb 0.00 in0.0 mm 0.00 in0.0 mm 0.02 in0.5 mm
11:50 AM 63.6°F17.6°C 60.6°F15.9°C 90% 6.9 mph NNW11.1 kmh NNW 10.0 mph16.1 kmh 29.70 in1005.8 mb 0.00 in0.0 mm 0.00 in0.0 mm 0.02 in0.5 mm
11:51 AM 63.6°F17.6°C 60.6°F15.9°C 90% 7.5 mph N12.1 kmh N 10.0 mph16.1 kmh 29.70 in1005.8 mb 0.00 in0.0 mm 0.00 in0.0 mm 0.02 in0.5 mm
11:52 AM 63.6°F17.6°C 60.3°F15.7°C 89% 6.5 mph N10.5 kmh N 10.0 mph16.1 kmh 29.70 in1005.8 mb 0.00 in0.0 mm 0.00 in0.0 mm 0.02 in0.5 mm
11:53 AM 63.6°F17.6°C 60.3°F15.7°C 89% 8.1 mph N13.0 kmh N 10.0 mph16.1 kmh 29.70 in1005.8 mb 0.00 in0.0 mm 0.00 in0.0 mm 0.02 in0.5 mm
11:54 AM 63.6°F17.6°C 60.3°F15.7°C 89% 7.6 mph N12.2 kmh N 10.0 mph16.1 kmh 29.69 in1005.4 mb 0.00 in0.0 mm 0.00 in0.0 mm 0.02 in0.5 mm
11:55 AM 63.6°F17.6°C 60.3°F15.7°C 89% 7.8 mph N12.6 kmh N 9.0 mph14.5 kmh 29.70 in1005.8 mb 0.00 in0.0 mm 0.00 in0.0 mm 0.02 in0.5 mm
11:56 AM 63.6°F17.6°C 60.3°F15.7°C 89% 9.0 mph NNW14.5 kmh NNW 10.0 mph16.1 kmh 29.70 in1005.8 mb 0.00 in0.0 mm 0.00 in0.0 mm 0.02 in0.5 mm
11:57 AM 63.6°F17.6°C 60.3°F15.7°C 89% 7.0 mph NNW11.3 kmh NNW 9.0 mph14.5 kmh 29.69 in1005.4 mb 0.00 in0.0 mm 0.00 in0.0 mm 0.02 in0.5 mm
11:58 AM 63.7°F17.6°C 60.4°F15.8°C 89% 6.8 mph NNW10.9 kmh NNW 9.0 mph14.5 kmh 29.70 in1005.8 mb 0.00 in0.0 mm 0.00 in0.0 mm 0.02 in0.5 mm
11:59 AM 63.6°F17.6°C 60.6°F15.9°C 90% 5.2 mph N8.4 kmh N 9.0 mph14.5 kmh 29.70 in1005.8 mb 0.00 in0.0 mm 0.00 in0.0 mm 0.02 in0.5 mm
12:00 PM 63.7°F17.6°C 60.4°F15.8°C 89% 7.3 mph N11.7 kmh N 10.0 mph16.1 kmh 29.69 in1005.4 mb 0.00 in0.0 mm 0.00 in0.0 mm 0.02 in0.5 mm
12:01 PM 63.8°F17.7°C 60.5°F15.8°C 89% 7.5 mph N12.1 kmh N 10.0 mph16.1 kmh 29.69 in1005.4 mb 0.00 in0.0 mm 0.00 in0.0 mm 0.02 in0.5 mm
12:02 PM 63.8°F17.7°C 60.5°F15.8°C 89% 7.9 mph N12.7 kmh N 10.0 mph16.1 kmh 29.69 in1005.4 mb 0.00 in0.0 mm 0.00 in0.0 mm 0.02 in0.5 mm
12:03 PM 63.8°F17.7°C 60.5°F15.8°C 89% 9.2 mph N14.8 kmh N 11.0 mph17.7 kmh 29.69 in1005.4 mb 0.00 in0.0 mm 0.00 in0.0 mm 0.02 in0.5 mm
12:04 PM 63.8°F17.7°C 60.5°F15.8°C 89% 10.0 mph N16.1 kmh N 11.0 mph17.7 kmh 29.69 in1005.4 mb 0.00 in0.0 mm 0.00 in0.0 mm 0.02 in0.5 mm
12:05 PM 63.8°F17.7°C 60.5°F15.8°C 89% 9.1 mph N14.6 kmh N 11.0 mph17.7 kmh 29.69 in1005.4 mb 0.00 in0.0 mm 0.00 in0.0 mm 0.02 in0.5 mm
12:06 PM 63.8°F17.7°C 60.5°F15.8°C 89% 11.1 mph N17.9 kmh N 12.0 mph19.3 kmh 29.69 in1005.4 mb 0.00 in0.0 mm 0.00 in0.0 mm 0.02 in0.5 mm
12:07 PM 63.8°F17.7°C 60.5°F15.8°C 89% 12.0 mph N19.3 kmh N 13.0 mph20.9 kmh 29.69 in1005.4 mb 0.00 in0.0 mm 0.00 in0.0 mm 0.02 in0.5 mm
12:08 PM 63.7°F17.6°C 60.4°F15.8°C 89% 10.5 mph NNW16.9 kmh NNW 13.0 mph20.9 kmh 29.69 in1005.4 mb 0.00 in0.0 mm 0.00 in0.0 mm 0.02 in0.5 mm
12:09 PM 63.7°F17.6°C 60.4°F15.8°C 89% 12.9 mph NNW20.8 kmh NNW 14.0 mph22.5 kmh 29.69 in1005.4 mb 0.00 in0.0 mm 0.00 in0.0 mm 0.02 in0.5 mm
12:10 PM 63.6°F17.6°C 60.6°F15.9°C 90% 14.4 mph NNW23.2 kmh NNW 15.0 mph24.1 kmh 29.69 in1005.4 mb 0.00 in0.0 mm 0.00 in0.0 mm 0.02 in0.5 mm
12:11 PM 63.4°F17.4°C 60.4°F15.8°C 90% 14.3 mph NNW23.0 kmh NNW 16.0 mph25.7 kmh 29.69 in1005.4 mb 0.00 in0.0 mm 0.00 in0.0 mm 0.02 in0.5 mm
12:12 PM 63.3°F17.4°C 60.3°F15.7°C 90% 14.7 mph NNW23.7 kmh NNW 16.0 mph25.7 kmh 29.69 in1005.4 mb 0.00 in0.0 mm 0.00 in0.0 mm 0.02 in0.5 mm
12:13 PM 63.2°F17.3°C 60.2°F15.7°C 90% 14.8 mph NNW23.8 kmh NNW 16.0 mph25.7 kmh 29.69 in1005.4 mb 0.00 in0.0 mm 0.00 in0.0 mm 0.02 in0.5 mm
12:14 PM 63.1°F17.3°C 60.1°F15.6°C 90% 13.8 mph NNW22.2 kmh NNW 16.0 mph25.7 kmh 29.69 in1005.4 mb 0.00 in0.0 mm 0.00 in0.0 mm 0.02 in0.5 mm
12:15 PM 63.0°F17.2°C 60.0°F15.6°C 90% 13.7 mph NNW22.0 kmh NNW 15.0 mph24.1 kmh 29.69 in1005.4 mb 0.00 in0.0 mm 0.00 in0.0 mm 0.02 in0.5 mm
12:16 PM 63.0°F17.2°C 60.3°F15.7°C 91% 13.5 mph NNW21.7 kmh NNW 16.0 mph25.7 kmh 29.69 in1005.4 mb 0.00 in0.0 mm 0.00 in0.0 mm 0.02 in0.5 mm
12:17 PM 62.9°F17.2°C 60.2°F15.7°C 91% 15.2 mph NNW24.5 kmh NNW 17.0 mph27.4 kmh 29.69 in1005.4 mb 0.00 in0.0 mm 0.00 in0.0 mm 0.02 in0.5 mm
12:18 PM 62.8°F17.1°C 60.1°F15.6°C 91% 15.8 mph NNW25.4 kmh NNW 18.0 mph29.0 kmh 29.69 in1005.4 mb 0.00 in0.0 mm 0.00 in0.0 mm 0.02 in0.5 mm
12:19 PM 62.8°F17.1°C 60.1°F15.6°C 91% 16.1 mph NNW25.9 kmh NNW 18.0 mph29.0 kmh 29.69 in1005.4 mb 0.00 in0.0 mm 0.00 in0.0 mm 0.02 in0.5 mm
12:20 PM 62.7°F17.1°C 59.7°F15.4°C 90% 14.7 mph NNW23.7 kmh NNW 17.0 mph27.4 kmh 29.69 in1005.4 mb 0.00 in0.0 mm 0.00 in0.0 mm 0.02 in0.5 mm
12:21 PM 62.7°F17.1°C 60.0°F15.6°C 91% 14.9 mph NNW24.0 kmh NNW 17.0 mph27.4 kmh 29.69 in1005.4 mb 0.00 in0.0 mm 0.00 in0.0 mm 0.02 in0.5 mm
12:22 PM 62.6°F17.0°C 59.9°F15.5°C 91% 15.8 mph NNW25.4 kmh NNW 17.0 mph27.4 kmh 29.69 in1005.4 mb 0.00 in0.0 mm 0.00 in0.0 mm 0.02 in0.5 mm
12:23 PM 62.6°F17.0°C 59.9°F15.5°C 91% 14.7 mph NNW23.7 kmh NNW 17.0 mph27.4 kmh 29.69 in1005.4 mb 0.00 in0.0 mm 0.00 in0.0 mm 0.02 in0.5 mm
12:24 PM 62.5°F16.9°C 59.8°F15.4°C 91% 14.4 mph NNW23.2 kmh NNW 17.0 mph27.4 kmh 29.69 in1005.4 mb 0.00 in0.0 mm 0.00 in0.0 mm 0.02 in0.5 mm
12:25 PM 62.6°F17.0°C 59.9°F15.5°C 91% 14.7 mph NNW23.7 kmh NNW 16.0 mph25.7 kmh 29.69 in1005.4 mb 0.00 in0.0 mm 0.00 in0.0 mm 0.02 in0.5 mm
12:26 PM 62.6°F17.0°C 59.9°F15.5°C 91% 14.5 mph NNW23.3 kmh NNW 16.0 mph25.7 kmh 29.69 in1005.4 mb 0.00 in0.0 mm 0.00 in0.0 mm 0.02 in0.5 mm
12:27 PM 62.5°F16.9°C 59.8°F15.4°C 91% 14.0 mph NNW22.5 kmh NNW 16.0 mph25.7 kmh 29.69 in1005.4 mb 0.00 in0.0 mm 0.00 in0.0 mm 0.02 in0.5 mm
12:28 PM 62.5°F16.9°C 59.8°F15.4°C 91% 15.0 mph NNW24.1 kmh NNW 17.0 mph27.4 kmh 29.69 in1005.4 mb 0.00 in0.0 mm 0.00 in0.0 mm 0.02 in0.5 mm
12:29 PM 62.4°F16.9°C 59.7°F15.4°C 91% 15.2 mph NNW24.5 kmh NNW 16.0 mph25.7 kmh 29.69 in1005.4 mb 0.00 in0.0 mm 0.00 in0.0 mm 0.02 in0.5 mm
12:30 PM 62.4°F16.9°C 59.7°F15.4°C 91% 16.1 mph NNW25.9 kmh NNW 17.0 mph27.4 kmh 29.69 in1005.4 mb 0.00 in0.0 mm 0.00 in0.0 mm 0.02 in0.5 mm
12:31 PM 62.4°F16.9°C 59.7°F15.4°C 91% 13.9 mph NNW22.4 kmh NNW 17.0 mph27.4 kmh 29.69 in1005.4 mb 0.00 in0.0 mm 0.00 in0.0 mm 0.02 in0.5 mm
12:32 PM 62.4°F16.9°C 60.0°F15.6°C 92% 14.6 mph NNW23.5 kmh NNW 17.0 mph27.4 kmh 29.69 in1005.4 mb 0.00 in0.0 mm 0.00 in0.0 mm 0.02 in0.5 mm
12:33 PM 62.3°F16.8°C 59.6°F15.3°C 91% 16.6 mph NNW26.7 kmh NNW 18.0 mph29.0 kmh 29.69 in1005.4 mb 0.00 in0.0 mm 0.00 in0.0 mm 0.02 in0.5 mm
12:34 PM 62.3°F16.8°C 59.6°F15.3°C 91% 16.4 mph NNW26.4 kmh NNW 18.0 mph29.0 kmh 29.69 in1005.4 mb 0.00 in0.0 mm 0.00 in0.0 mm 0.02 in0.5 mm
12:35 PM 62.3°F16.8°C 59.6°F15.3°C 91% 16.3 mph NNW26.2 kmh NNW 17.0 mph27.4 kmh 29.69 in1005.4 mb 0.00 in0.0 mm 0.00 in0.0 mm 0.02 in0.5 mm
12:36 PM 62.2°F16.8°C 59.5°F15.3°C 91% 16.2 mph NNW26.1 kmh NNW 18.0 mph29.0 kmh 29.69 in1005.4 mb 0.00 in0.0 mm 0.00 in0.0 mm 0.02 in0.5 mm
12:37 PM 62.2°F16.8°C 59.5°F15.3°C 91% 16.6 mph NNW26.7 kmh NNW 18.0 mph29.0 kmh 29.69 in1005.4 mb 0.00 in0.0 mm 0.00 in0.0 mm 0.02 in0.5 mm
12:38 PM 62.2°F16.8°C 59.5°F15.3°C 91% 16.8 mph NNW27.0 kmh NNW 18.0 mph29.0 kmh 29.69 in1005.4 mb 0.00 in0.0 mm 0.00 in0.0 mm 0.02 in0.5 mm
12:39 PM 62.2°F16.8°C 59.8°F15.4°C 92% 14.6 mph NNW23.5 kmh NNW 18.0 mph29.0 kmh 29.69 in1005.4 mb 0.00 in0.0 mm 0.00 in0.0 mm 0.02 in0.5 mm
12:40 PM 62.2°F16.8°C 59.8°F15.4°C 92% 16.5 mph NNW26.6 kmh NNW 18.0 mph29.0 kmh 29.69 in1005.4 mb 0.00 in0.0 mm 0.00 in0.0 mm 0.02 in0.5 mm
12:41 PM 62.1°F16.7°C 59.7°F15.4°C 92% 15.6 mph NNW25.1 kmh NNW 18.0 mph29.0 kmh 29.69 in1005.4 mb 0.00 in0.0 mm 0.00 in0.0 mm 0.02 in0.5 mm
12:42 PM 62.1°F16.7°C 59.7°F15.4°C 92% 15.5 mph NNW24.9 kmh NNW 18.0 mph29.0 kmh 29.69 in1005.4 mb 0.00 in0.0 mm 0.00 in0.0 mm 0.02 in0.5 mm
12:43 PM 62.1°F16.7°C 59.7°F15.4°C 92% 16.1 mph NNW25.9 kmh NNW 18.0 mph29.0 kmh 29.69 in1005.4 mb 0.00 in0.0 mm 0.00 in0.0 mm 0.02 in0.5 mm
12:44 PM 62.1°F16.7°C 59.4°F15.2°C 91% 16.4 mph NNW26.4 kmh NNW 18.0 mph29.0 kmh 29.69 in1005.4 mb 0.00 in0.0 mm 0.00 in0.0 mm 0.02 in0.5 mm
12:45 PM 62.0°F16.7°C 59.3°F15.2°C 91% 16.5 mph NNW26.6 kmh NNW 18.0 mph29.0 kmh 29.69 in1005.4 mb 0.00 in0.0 mm 0.00 in0.0 mm 0.02 in0.5 mm
12:46 PM 62.0°F16.7°C 59.3°F15.2°C 91% 16.2 mph NNW26.1 kmh NNW 18.0 mph29.0 kmh 29.69 in1005.4 mb 0.00 in0.0 mm 0.00 in0.0 mm 0.02 in0.5 mm
12:47 PM 62.0°F16.7°C 59.3°F15.2°C 91% 16.1 mph NNW25.9 kmh NNW 19.0 mph30.6 kmh 29.69 in1005.4 mb 0.00 in0.0 mm 0.00 in0.0 mm 0.02 in0.5 mm
12:48 PM 62.0°F16.7°C 59.3°F15.2°C 91% 16.6 mph NNW26.7 kmh NNW 19.0 mph30.6 kmh 29.69 in1005.4 mb 0.00 in0.0 mm 0.00 in0.0 mm 0.02 in0.5 mm
12:49 PM 61.9°F16.6°C 59.2°F15.1°C 91% 17.5 mph NNW28.2 kmh NNW 19.0 mph30.6 kmh 29.69 in1005.4 mb 0.00 in0.0 mm 0.00 in0.0 mm 0.02 in0.5 mm
12:50 PM 61.8°F16.6°C 59.1°F15.1°C 91% 17.0 mph NNW27.4 kmh NNW 20.0 mph32.2 kmh 29.69 in1005.4 mb 0.00 in0.0 mm 0.00 in0.0 mm 0.02 in0.5 mm
12:51 PM 61.8°F16.6°C 59.1°F15.1°C 91% 17.8 mph NNW28.6 kmh NNW 20.0 mph32.2 kmh 29.69 in1005.4 mb 0.00 in0.0 mm 0.00 in0.0 mm 0.02 in0.5 mm
12:52 PM 61.9°F16.6°C 59.2°F15.1°C 91% 17.7 mph NNW28.5 kmh NNW 19.0 mph30.6 kmh 29.69 in1005.4 mb 0.00 in0.0 mm 0.00 in0.0 mm 0.02 in0.5 mm
12:53 PM 61.9°F16.6°C 59.2°F15.1°C 91% 16.5 mph NNW26.6 kmh NNW 19.0 mph30.6 kmh 29.69 in1005.4 mb 0.00 in0.0 mm 0.00 in0.0 mm 0.02 in0.5 mm
12:54 PM 62.0°F16.7°C 59.6°F15.3°C 92% 15.6 mph NNW25.1 kmh NNW 18.0 mph29.0 kmh 29.69 in1005.4 mb 0.00 in0.0 mm 0.00 in0.0 mm 0.02 in0.5 mm
12:55 PM 61.9°F16.6°C 59.2°F15.1°C 91% 17.0 mph NNW27.4 kmh NNW 18.0 mph29.0 kmh 29.69 in1005.4 mb 0.00 in0.0 mm 0.00 in0.0 mm 0.02 in0.5 mm
12:56 PM 61.9°F16.6°C 59.2°F15.1°C 91% 18.5 mph NNW29.8 kmh NNW 20.0 mph32.2 kmh 29.69 in1005.4 mb 0.00 in0.0 mm 0.00 in0.0 mm 0.02 in0.5 mm
12:57 PM 61.9°F16.6°C 59.2°F15.1°C 91% 18.7 mph NNW30.1 kmh NNW 20.0 mph32.2 kmh 29.69 in1005.4 mb 0.00 in0.0 mm 0.00 in0.0 mm 0.02 in0.5 mm
12:58 PM 61.8°F16.6°C 59.1°F15.1°C 91% 18.4 mph NNW29.6 kmh NNW 21.0 mph33.8 kmh 29.69 in1005.4 mb 0.00 in0.0 mm 0.00 in0.0 mm 0.02 in0.5 mm
12:59 PM 61.8°F16.6°C 59.1°F15.1°C 91% 16.7 mph NNW26.9 kmh NNW 21.0 mph33.8 kmh 29.69 in1005.4 mb 0.00 in0.0 mm 0.00 in0.0 mm 0.02 in0.5 mm
01:00 PM 61.8°F16.6°C 59.1°F15.1°C 91% 17.7 mph NNW28.5 kmh NNW 19.0 mph30.6 kmh 29.69 in1005.4 mb 0.00 in0.0 mm 0.00 in0.0 mm 0.02 in0.5 mm
01:01 PM 61.8°F16.6°C 59.1°F15.1°C 91% 17.8 mph NNW28.6 kmh NNW 20.0 mph32.2 kmh 29.69 in1005.4 mb 0.00 in0.0 mm 0.00 in0.0 mm 0.02 in0.5 mm
01:02 PM 61.8°F16.6°C 59.1°F15.1°C 91% 17.5 mph NNW28.2 kmh NNW 20.0 mph32.2 kmh 29.69 in1005.4 mb 0.00 in0.0 mm 0.00 in0.0 mm 0.02 in0.5 mm
01:03 PM 61.8°F16.6°C 59.1°F15.1°C 91% 15.4 mph NNW24.8 kmh NNW 20.0 mph32.2 kmh 29.69 in1005.4 mb 0.00 in0.0 mm 0.00 in0.0 mm 0.02 in0.5 mm
01:04 PM 61.8°F16.6°C 59.1°F15.1°C 91% 17.5 mph NNW28.2 kmh NNW 20.0 mph32.2 kmh 29.69 in1005.4 mb 0.00 in0.0 mm 0.00 in0.0 mm 0.02 in0.5 mm
01:05 PM 61.8°F16.6°C 59.1°F15.1°C 91% 17.4 mph NNW28.0 kmh NNW 20.0 mph32.2 kmh 29.69 in1005.4 mb 0.00 in0.0 mm 0.00 in0.0 mm 0.02 in0.5 mm
01:06 PM 61.8°F16.6°C 58.8°F14.9°C 90% 16.5 mph NNW26.6 kmh NNW 19.0 mph30.6 kmh 29.69 in1005.4 mb 0.00 in0.0 mm 0.00 in0.0 mm 0.02 in0.5 mm
01:07 PM 61.8°F16.6°C 58.8°F14.9°C 90% 17.8 mph NNW28.6 kmh NNW 19.0 mph30.6 kmh 29.69 in1005.4 mb 0.00 in0.0 mm 0.00 in0.0 mm 0.02 in0.5 mm
01:08 PM 61.7°F16.5°C 58.7°F14.8°C 90% 17.0 mph NNW27.4 kmh NNW 19.0 mph30.6 kmh 29.69 in1005.4 mb 0.00 in0.0 mm 0.00 in0.0 mm 0.02 in0.5 mm
01:09 PM 61.8°F16.6°C 58.8°F14.9°C 90% 18.0 mph NNW29.0 kmh NNW 19.0 mph30.6 kmh 29.69 in1005.4 mb 0.00 in0.0 mm 0.00 in0.0 mm 0.02 in0.5 mm
01:10 PM 61.7°F16.5°C 58.4°F14.7°C 89% 17.8 mph NNW28.6 kmh NNW 18.0 mph29.0 kmh 29.69 in1005.4 mb 0.00 in0.0 mm 0.00 in0.0 mm 0.02 in0.5 mm
01:11 PM 61.7°F16.5°C 58.4°F14.7°C 89% 18.6 mph NNW29.9 kmh NNW 20.0 mph32.2 kmh 29.69 in1005.4 mb 0.00 in0.0 mm 0.00 in0.0 mm 0.02 in0.5 mm
01:12 PM 61.6°F16.4°C 58.3°F14.6°C 89% 17.8 mph NNW28.6 kmh NNW 20.0 mph32.2 kmh 29.69 in1005.4 mb 0.00 in0.0 mm 0.00 in0.0 mm 0.02 in0.5 mm
01:13 PM 61.7°F16.5°C 58.4°F14.7°C 89% 16.6 mph NNW26.7 kmh NNW 19.0 mph30.6 kmh 29.69 in1005.4 mb 0.00 in0.0 mm 0.00 in0.0 mm 0.02 in0.5 mm
01:14 PM 61.7°F16.5°C 58.4°F14.7°C 89% 17.3 mph NNW27.8 kmh NNW 19.0 mph30.6 kmh 29.69 in1005.4 mb 0.00 in0.0 mm 0.00 in0.0 mm 0.02 in0.5 mm
01:15 PM 61.6°F16.4°C 58.3°F14.6°C 89% 19.2 mph NNW30.9 kmh NNW 21.0 mph33.8 kmh 29.69 in1005.4 mb 0.00 in0.0 mm 0.00 in0.0 mm 0.02 in0.5 mm
01:16 PM 61.7°F16.5°C 58.7°F14.8°C 90% 16.8 mph NNW27.0 kmh NNW 21.0 mph33.8 kmh 29.69 in1005.4 mb 0.00 in0.0 mm 0.00 in0.0 mm 0.02 in0.5 mm
01:17 PM 61.7°F16.5°C 58.7°F14.8°C 90% 17.0 mph NNW27.4 kmh NNW 19.0 mph30.6 kmh 29.69 in1005.4 mb 0.00 in0.0 mm 0.00 in0.0 mm 0.02 in0.5 mm
01:18 PM 61.7°F16.5°C 58.7°F14.8°C 90% 17.5 mph NNW28.2 kmh NNW 19.0 mph30.6 kmh 29.69 in1005.4 mb 0.00 in0.0 mm 0.00 in0.0 mm 0.02 in0.5 mm
01:19 PM 61.7°F16.5°C 58.7°F14.8°C 90% 17.6 mph NNW28.3 kmh NNW 19.0 mph30.6 kmh 29.69 in1005.4 mb 0.00 in0.0 mm 0.00 in0.0 mm 0.02 in0.5 mm
01:20 PM 61.8°F16.6°C 58.8°F14.9°C 90% 18.1 mph NNW29.1 kmh NNW 20.0 mph32.2 kmh 29.69 in1005.4 mb 0.00 in0.0 mm 0.00 in0.0 mm 0.02 in0.5 mm
01:21 PM 61.7°F16.5°C 58.7°F14.8°C 90% 16.9 mph NNW27.2 kmh NNW 20.0 mph32.2 kmh 29.69 in1005.4 mb 0.00 in0.0 mm 0.00 in0.0 mm 0.02 in0.5 mm
01:22 PM 61.8°F16.6°C 58.8°F14.9°C 90% 15.6 mph NNW25.1 kmh NNW 18.0 mph29.0 kmh 29.69 in1005.4 mb 0.00 in0.0 mm 0.00 in0.0 mm 0.02 in0.5 mm
01:23 PM 61.8°F16.6°C 58.8°F14.9°C 90% 17.0 mph NNW27.4 kmh NNW 18.0 mph29.0 kmh 29.69 in1005.4 mb 0.00 in0.0 mm 0.00 in0.0 mm 0.02 in0.5 mm
01:24 PM 61.8°F16.6°C 58.5°F14.7°C 89% 18.5 mph NNW29.8 kmh NNW 20.0 mph32.2 kmh 29.69 in1005.4 mb 0.00 in0.0 mm 0.00 in0.0 mm 0.02 in0.5 mm
01:25 PM 61.7°F16.5°C 58.4°F14.7°C 89% 18.1 mph NNW29.1 kmh NNW 20.0 mph32.2 kmh 29.69 in1005.4 mb 0.00 in0.0 mm 0.00 in0.0 mm 0.02 in0.5 mm
01:26 PM 61.7°F16.5°C 58.4°F14.7°C 89% 16.6 mph NW26.7 kmh NW 19.0 mph30.6 kmh 29.69 in1005.4 mb 0.00 in0.0 mm 0.00 in0.0 mm 0.02 in0.5 mm
01:27 PM 61.7°F16.5°C 58.4°F14.7°C 89% 17.5 mph NW28.2 kmh NW 20.0 mph32.2 kmh 29.69 in1005.4 mb 0.00 in0.0 mm 0.00 in0.0 mm 0.02 in0.5 mm
01:28 PM 61.6°F16.4°C 58.3°F14.6°C 89% 18.9 mph NNW30.4 kmh NNW 20.0 mph32.2 kmh 29.69 in1005.4 mb 0.00 in0.0 mm 0.00 in0.0 mm 0.02 in0.5 mm
01:29 PM 61.6°F16.4°C 58.3°F14.6°C 89% 17.5 mph NW28.2 kmh NW 20.0 mph32.2 kmh 29.69 in1005.4 mb 0.00 in0.0 mm 0.00 in0.0 mm 0.02 in0.5 mm
01:30 PM 61.6°F16.4°C 58.3°F14.6°C 89% 18.9 mph NW30.4 kmh NW 20.0 mph32.2 kmh 29.69 in1005.4 mb 0.00 in0.0 mm 0.00 in0.0 mm 0.02 in0.5 mm
01:31 PM 61.6°F16.4°C 58.3°F14.6°C 89% 17.6 mph NW28.3 kmh NW 20.0 mph32.2 kmh 29.69 in1005.4 mb 0.00 in0.0 mm 0.00 in0.0 mm 0.02 in0.5 mm
01:32 PM 61.7°F16.5°C 58.4°F14.7°C 89% 18.5 mph NNW29.8 kmh NNW 21.0 mph33.8 kmh 29.69 in1005.4 mb 0.00 in0.0 mm 0.00 in0.0 mm 0.02 in0.5 mm
01:33 PM 61.7°F16.5°C 58.4°F14.7°C 89% 18.0 mph NNW29.0 kmh NNW 21.0 mph33.8 kmh 29.69 in1005.4 mb 0.00 in0.0 mm 0.00 in0.0 mm 0.02 in0.5 mm
01:34 PM 61.7°F16.5°C 58.1°F14.5°C 88% 18.6 mph NNW29.9 kmh NNW 20.0 mph32.2 kmh 29.69 in1005.4 mb 0.00 in0.0 mm 0.00 in0.0 mm 0.02 in0.5 mm
01:35 PM 61.8°F16.6°C 58.5°F14.7°C 89% 16.2 mph NNW26.1 kmh NNW 19.0 mph30.6 kmh 29.69 in1005.4 mb 0.00 in0.0 mm 0.00 in0.0 mm 0.02 in0.5 mm
01:36 PM 61.8°F16.6°C 58.2°F14.6°C 88% 18.0 mph NNW29.0 kmh NNW 20.0 mph32.2 kmh 29.69 in1005.4 mb 0.00 in0.0 mm 0.00 in0.0 mm 0.02 in0.5 mm
01:37 PM 61.8°F16.6°C 58.5°F14.7°C 89% 17.7 mph NNW28.5 kmh NNW 20.0 mph32.2 kmh 29.69 in1005.4 mb 0.00 in0.0 mm 0.00 in0.0 mm 0.02 in0.5 mm
01:38 PM 61.9°F16.6°C 58.6°F14.8°C 89% 17.5 mph NNW28.2 kmh NNW 19.0 mph30.6 kmh 29.69 in1005.4 mb 0.00 in0.0 mm 0.00 in0.0 mm 0.02 in0.5 mm
01:39 PM 61.9°F16.6°C 58.3°F14.6°C 88% 16.7 mph NNW26.9 kmh NNW 19.0 mph30.6 kmh 29.68 in1005.1 mb 0.00 in0.0 mm 0.00 in0.0 mm 0.02 in0.5 mm
01:40 PM 61.9°F16.6°C 58.3°F14.6°C 88% 17.1 mph NNW27.5 kmh NNW 19.0 mph30.6 kmh 29.68 in1005.1 mb 0.00 in0.0 mm 0.00 in0.0 mm 0.02 in0.5 mm
01:41 PM 62.0°F16.7°C 58.7°F14.8°C 89% 16.5 mph NNW26.6 kmh NNW 19.0 mph30.6 kmh 29.68 in1005.1 mb 0.00 in0.0 mm 0.00 in0.0 mm 0.02 in0.5 mm
01:42 PM 62.0°F16.7°C 58.7°F14.8°C 89% 17.0 mph NNW27.4 kmh NNW 19.0 mph30.6 kmh 29.68 in1005.1 mb 0.00 in0.0 mm 0.00 in0.0 mm 0.02 in0.5 mm
01:43 PM 62.0°F16.7°C 58.7°F14.8°C 89% 17.5 mph NNW28.2 kmh NNW 19.0 mph30.6 kmh 29.68 in1005.1 mb 0.00 in0.0 mm 0.00 in0.0 mm 0.02 in0.5 mm
01:44 PM 62.1°F16.7°C 58.5°F14.7°C 88% 17.0 mph NNW27.4 kmh NNW 19.0 mph30.6 kmh 29.68 in1005.1 mb 0.00 in0.0 mm 0.00 in0.0 mm 0.02 in0.5 mm
01:45 PM 62.1°F16.7°C 58.8°F14.9°C 89% 16.8 mph NNW27.0 kmh NNW 20.0 mph32.2 kmh 29.68 in1005.1 mb 0.00 in0.0 mm 0.00 in0.0 mm 0.02 in0.5 mm
01:46 PM 62.0°F16.7°C 58.4°F14.7°C 88% 17.5 mph NNW28.2 kmh NNW 20.0 mph32.2 kmh 29.68 in1005.1 mb 0.00 in0.0 mm 0.00 in0.0 mm 0.02 in0.5 mm
01:47 PM 62.1°F16.7°C 58.8°F14.9°C 89% 17.5 mph NNW28.2 kmh NNW 20.0 mph32.2 kmh 29.68 in1005.1 mb 0.00 in0.0 mm 0.00 in0.0 mm 0.02 in0.5 mm
01:48 PM 62.0°F16.7°C 58.4°F14.7°C 88% 18.5 mph NNW29.8 kmh NNW 21.0 mph33.8 kmh 29.68 in1005.1 mb 0.00 in0.0 mm 0.00 in0.0 mm 0.02 in0.5 mm
01:49 PM 62.0°F16.7°C 58.4°F14.7°C 88% 19.1 mph NNW30.7 kmh NNW 21.0 mph33.8 kmh 29.68 in1005.1 mb 0.00 in0.0 mm 0.00 in0.0 mm 0.02 in0.5 mm
01:50 PM 61.9°F16.6°C 58.0°F14.4°C 87% 18.6 mph NNW29.9 kmh NNW 21.0 mph33.8 kmh 29.68 in1005.1 mb 0.00 in0.0 mm 0.00 in0.0 mm 0.02 in0.5 mm
01:51 PM 61.9°F16.6°C 58.6°F14.8°C 89% 17.6 mph NNW28.3 kmh NNW 19.0 mph30.6 kmh 29.68 in1005.1 mb 0.00 in0.0 mm 0.00 in0.0 mm 0.02 in0.5 mm
01:52 PM 61.9°F16.6°C 58.3°F14.6°C 88% 18.9 mph NW30.4 kmh NW 20.0 mph32.2 kmh 29.68 in1005.1 mb 0.00 in0.0 mm 0.00 in0.0 mm 0.02 in0.5 mm
01:53 PM 61.9°F16.6°C 58.3°F14.6°C 88% 17.1 mph NW27.5 kmh NW 20.0 mph32.2 kmh 29.68 in1005.1 mb 0.00 in0.0 mm 0.00 in0.0 mm 0.02 in0.5 mm
01:54 PM 61.9°F16.6°C 58.3°F14.6°C 88% 17.4 mph NNW28.0 kmh NNW 20.0 mph32.2 kmh 29.68 in1005.1 mb 0.00 in0.0 mm 0.00 in0.0 mm 0.02 in0.5 mm
01:55 PM 61.9°F16.6°C 58.3°F14.6°C 88% 17.6 mph NW28.3 kmh NW 20.0 mph32.2 kmh 29.68 in1005.1 mb 0.00 in0.0 mm 0.00 in0.0 mm 0.02 in0.5 mm
01:56 PM 61.8°F16.6°C 58.2°F14.6°C 88% 17.2 mph NW27.7 kmh NW 20.0 mph32.2 kmh 29.68 in1005.1 mb 0.00 in0.0 mm 0.00 in0.0 mm 0.02 in0.5 mm
01:57 PM 61.8°F16.6°C 58.2°F14.6°C 88% 17.2 mph NW27.7 kmh NW 19.0 mph30.6 kmh 29.68 in1005.1 mb 0.00 in0.0 mm 0.00 in0.0 mm 0.02 in0.5 mm
01:58 PM 61.8°F16.6°C 58.2°F14.6°C 88% 17.6 mph NW28.3 kmh NW 20.0 mph32.2 kmh 29.68 in1005.1 mb 0.00 in0.0 mm 0.00 in0.0 mm 0.02 in0.5 mm
01:59 PM 61.9°F16.6°C 58.3°F14.6°C 88% 16.7 mph NNW26.9 kmh NNW 20.0 mph32.2 kmh 29.68 in1005.1 mb 0.00 in0.0 mm 0.00 in0.0 mm 0.02 in0.5 mm
02:00 PM 61.8°F16.6°C 58.2°F14.6°C 88% 18.1 mph NNW29.1 kmh NNW 20.0 mph32.2 kmh 29.68 in1005.1 mb 0.00 in0.0 mm 0.00 in0.0 mm 0.02 in0.5 mm
02:01 PM 61.9°F16.6°C 58.3°F14.6°C 88% 17.5 mph NNW28.2 kmh NNW 20.0 mph32.2 kmh 29.68 in1005.1 mb 0.00 in0.0 mm 0.00 in0.0 mm 0.02 in0.5 mm
02:02 PM 62.0°F16.7°C 58.4°F14.7°C 88% 16.9 mph NNW27.2 kmh NNW 19.0 mph30.6 kmh 29.68 in1005.1 mb 0.00 in0.0 mm 0.00 in0.0 mm 0.02 in0.5 mm
02:03 PM 62.0°F16.7°C 58.4°F14.7°C 88% 18.1 mph NNW29.1 kmh NNW 20.0 mph32.2 kmh 29.68 in1005.1 mb 0.00 in0.0 mm 0.00 in0.0 mm 0.02 in0.5 mm
02:04 PM 62.0°F16.7°C 58.1°F14.5°C 87% 18.0 mph NNW29.0 kmh NNW 20.0 mph32.2 kmh 29.68 in1005.1 mb 0.00 in0.0 mm 0.00 in0.0 mm 0.02 in0.5 mm
02:05 PM 62.0°F16.7°C 58.1°F14.5°C 87% 17.5 mph NNW28.2 kmh NNW 19.0 mph30.6 kmh 29.68 in1005.1 mb 0.00 in0.0 mm 0.00 in0.0 mm 0.02 in0.5 mm
02:06 PM 62.0°F16.7°C 58.4°F14.7°C 88% 17.7 mph NNW28.5 kmh NNW 19.0 mph30.6 kmh 29.68 in1005.1 mb 0.00 in0.0 mm 0.00 in0.0 mm 0.02 in0.5 mm
02:07 PM 62.0°F16.7°C 58.4°F14.7°C 88% 17.3 mph NNW27.8 kmh NNW 19.0 mph30.6 kmh 29.68 in1005.1 mb 0.00 in0.0 mm 0.00 in0.0 mm 0.02 in0.5 mm
02:08 PM 62.1°F16.7°C 58.2°F14.6°C 87% 18.4 mph NNW29.6 kmh NNW 20.0 mph32.2 kmh 29.68 in1005.1 mb 0.00 in0.0 mm 0.00 in0.0 mm 0.02 in0.5 mm
02:09 PM 62.1°F16.7°C 58.2°F14.6°C 87% 19.1 mph NNW30.7 kmh NNW 20.0 mph32.2 kmh 29.68 in1005.1 mb 0.00 in0.0 mm 0.00 in0.0 mm 0.02 in0.5 mm
02:10 PM 62.2°F16.8°C 58.3°F14.6°C 87% 18.5 mph NNW29.8 kmh NNW 20.0 mph32.2 kmh 29.68 in1005.1 mb 0.00 in0.0 mm 0.00 in0.0 mm 0.02 in0.5 mm
02:11 PM 62.2°F16.8°C 58.3°F14.6°C 87% 18.9 mph NNW30.4 kmh NNW 20.0 mph32.2 kmh 29.68 in1005.1 mb 0.00 in0.0 mm 0.00 in0.0 mm 0.02 in0.5 mm
02:12 PM 62.2°F16.8°C 58.3°F14.6°C 87% 15.5 mph NNW24.9 kmh NNW 20.0 mph32.2 kmh 29.68 in1005.1 mb 0.00 in0.0 mm 0.00 in0.0 mm 0.02 in0.5 mm
02:13 PM 62.2°F16.8°C 58.3°F14.6°C 87% 18.4 mph NNW29.6 kmh NNW 20.0 mph32.2 kmh 29.68 in1005.1 mb 0.00 in0.0 mm 0.00 in0.0 mm 0.02 in0.5 mm
02:14 PM 62.2°F16.8°C 58.6°F14.8°C 88% 16.4 mph NNW26.4 kmh NNW 20.0 mph32.2 kmh 29.68 in1005.1 mb 0.00 in0.0 mm 0.00 in0.0 mm 0.02 in0.5 mm
02:15 PM 62.2°F16.8°C 58.6°F14.8°C 88% 16.2 mph NNW26.1 kmh NNW 18.0 mph29.0 kmh 29.68 in1005.1 mb 0.00 in0.0 mm 0.00 in0.0 mm 0.02 in0.5 mm
02:16 PM 62.2°F16.8°C 58.6°F14.8°C 88% 17.9 mph NNW28.8 kmh NNW 20.0 mph32.2 kmh 29.68 in1005.1 mb 0.00 in0.0 mm 0.00 in0.0 mm 0.02 in0.5 mm
02:17 PM 62.2°F16.8°C 58.3°F14.6°C 87% 18.4 mph NNW29.6 kmh NNW 20.0 mph32.2 kmh 29.68 in1005.1 mb 0.00 in0.0 mm 0.00 in0.0 mm 0.02 in0.5 mm
02:18 PM 62.1°F16.7°C 58.2°F14.6°C 87% 18.1 mph NNW29.1 kmh NNW 20.0 mph32.2 kmh 29.68 in1005.1 mb 0.00 in0.0 mm 0.00 in0.0 mm 0.02 in0.5 mm
02:19 PM 62.1°F16.7°C 58.5°F14.7°C 88% 17.2 mph NNW27.7 kmh NNW 19.0 mph30.6 kmh 29.68 in1005.1 mb 0.00 in0.0 mm 0.00 in0.0 mm 0.02 in0.5 mm
02:20 PM 62.1°F16.7°C 58.2°F14.6°C 87% 17.5 mph NNW28.2 kmh NNW 19.0 mph30.6 kmh 29.68 in1005.1 mb 0.00 in0.0 mm 0.00 in0.0 mm 0.02 in0.5 mm
02:21 PM 62.1°F16.7°C 58.2°F14.6°C 87% 17.1 mph NNW27.5 kmh NNW 19.0 mph30.6 kmh 29.68 in1005.1 mb 0.00 in0.0 mm 0.00 in0.0 mm 0.02 in0.5 mm
02:22 PM 62.2°F16.8°C 58.6°F14.8°C 88% 15.9 mph NNW25.6 kmh NNW 20.0 mph32.2 kmh 29.68 in1005.1 mb 0.00 in0.0 mm 0.00 in0.0 mm 0.02 in0.5 mm
02:23 PM 62.1°F16.7°C 58.5°F14.7°C 88% 18.4 mph NNW29.6 kmh NNW 21.0 mph33.8 kmh 29.68 in1005.1 mb 0.00 in0.0 mm 0.00 in0.0 mm 0.02 in0.5 mm
02:24 PM 62.1°F16.7°C 58.2°F14.6°C 87% 18.4 mph NNW29.6 kmh NNW 21.0 mph33.8 kmh 29.68 in1005.1 mb 0.00 in0.0 mm 0.00 in0.0 mm 0.02 in0.5 mm
02:25 PM 62.1°F16.7°C 58.5°F14.7°C 88% 18.4 mph NNW29.6 kmh NNW 21.0 mph33.8 kmh 29.68 in1005.1 mb 0.00 in0.0 mm 0.00 in0.0 mm 0.02 in0.5 mm
02:26 PM 62.1°F16.7°C 58.5°F14.7°C 88% 18.7 mph NNW30.1 kmh NNW 21.0 mph33.8 kmh 29.68 in1005.1 mb 0.00 in0.0 mm 0.00 in0.0 mm 0.02 in0.5 mm
02:27 PM 62.1°F16.7°C 58.2°F14.6°C 87% 19.7 mph NNW31.7 kmh NNW 21.0 mph33.8 kmh 29.68 in1005.1 mb 0.00 in0.0 mm 0.00 in0.0 mm 0.02 in0.5 mm
02:28 PM 62.0°F16.7°C 58.4°F14.7°C 88% 18.7 mph NNW30.1 kmh NNW 21.0 mph33.8 kmh 29.68 in1005.1 mb 0.00 in0.0 mm 0.00 in0.0 mm 0.02 in0.5 mm
02:29 PM 62.1°F16.7°C 58.5°F14.7°C 88% 17.1 mph NNW27.5 kmh NNW 20.0 mph32.2 kmh 29.68 in1005.1 mb 0.00 in0.0 mm 0.00 in0.0 mm 0.02 in0.5 mm
02:30 PM 62.1°F16.7°C 58.5°F14.7°C 88% 19.9 mph NNW32.0 kmh NNW 21.0 mph33.8 kmh 29.68 in1005.1 mb 0.00 in0.0 mm 0.00 in0.0 mm 0.02 in0.5 mm
02:31 PM 62.0°F16.7°C 58.4°F14.7°C 88% 19.8 mph NNW31.9 kmh NNW 21.0 mph33.8 kmh 29.68 in1005.1 mb 0.00 in0.0 mm 0.00 in0.0 mm 0.02 in0.5 mm
02:32 PM 62.0°F16.7°C 58.1°F14.5°C 87% 18.5 mph NW29.8 kmh NW 21.0 mph33.8 kmh 29.68 in1005.1 mb 0.00 in0.0 mm 0.00 in0.0 mm 0.02 in0.5 mm
02:33 PM 61.9°F16.6°C 58.0°F14.4°C 87% 21.1 mph NW34.0 kmh NW 22.0 mph35.4 kmh 29.68 in1005.1 mb 0.00 in0.0 mm 0.00 in0.0 mm 0.02 in0.5 mm
02:34 PM 61.9°F16.6°C 58.0°F14.4°C 87% 19.7 mph NW31.7 kmh NW 22.0 mph35.4 kmh 29.68 in1005.1 mb 0.00 in0.0 mm 0.00 in0.0 mm 0.02 in0.5 mm
02:35 PM 61.9°F16.6°C 58.3°F14.6°C 88% 20.0 mph NNW32.2 kmh NNW 22.0 mph35.4 kmh 29.68 in1005.1 mb 0.00 in0.0 mm 0.00 in0.0 mm 0.02 in0.5 mm
02:36 PM 61.9°F16.6°C 58.0°F14.4°C 87% 20.0 mph NNW32.2 kmh NNW 22.0 mph35.4 kmh 29.68 in1005.1 mb 0.00 in0.0 mm 0.00 in0.0 mm 0.02 in0.5 mm
02:37 PM 61.9°F16.6°C 58.3°F14.6°C 88% 18.9 mph NW30.4 kmh NW 22.0 mph35.4 kmh 29.68 in1005.1 mb 0.00 in0.0 mm 0.00 in0.0 mm 0.02 in0.5 mm
02:38 PM 61.9°F16.6°C 58.3°F14.6°C 88% 17.6 mph NW28.3 kmh NW 20.0 mph32.2 kmh 29.68 in1005.1 mb 0.00 in0.0 mm 0.00 in0.0 mm 0.02 in0.5 mm
02:39 PM 62.0°F16.7°C 58.4°F14.7°C 88% 18.4 mph NNW29.6 kmh NNW 21.0 mph33.8 kmh 29.68 in1005.1 mb 0.00 in0.0 mm 0.00 in0.0 mm 0.02 in0.5 mm
02:40 PM 61.9°F16.6°C 58.0°F14.4°C 87% 19.0 mph NW30.6 kmh NW 21.0 mph33.8 kmh 29.68 in1005.1 mb 0.00 in0.0 mm 0.00 in0.0 mm 0.02 in0.5 mm
02:41 PM 61.9°F16.6°C 58.0°F14.4°C 87% 19.7 mph NW31.7 kmh NW 21.0 mph33.8 kmh 29.68 in1005.1 mb 0.00 in0.0 mm 0.00 in0.0 mm 0.02 in0.5 mm
02:42 PM 61.9°F16.6°C 58.0°F14.4°C 87% 19.6 mph NW31.5 kmh NW 22.0 mph35.4 kmh 29.68 in1005.1 mb 0.00 in0.0 mm 0.00 in0.0 mm 0.02 in0.5 mm
02:43 PM 61.9°F16.6°C 58.0°F14.4°C 87% 19.5 mph NW31.4 kmh NW 22.0 mph35.4 kmh 29.68 in1005.1 mb 0.00 in0.0 mm 0.00 in0.0 mm 0.02 in0.5 mm
02:44 PM 61.9°F16.6°C 58.0°F14.4°C 87% 20.8 mph NW33.5 kmh NW 22.0 mph35.4 kmh 29.68 in1005.1 mb 0.00 in0.0 mm 0.00 in0.0 mm 0.02 in0.5 mm
02:45 PM 61.9°F16.6°C 58.0°F14.4°C 87% 20.6 mph NW33.2 kmh NW 22.0 mph35.4 kmh 29.68 in1005.1 mb 0.00 in0.0 mm 0.00 in0.0 mm 0.02 in0.5 mm
02:46 PM 61.8°F16.6°C 57.9°F14.4°C 87% 19.2 mph NW30.9 kmh NW 22.0 mph35.4 kmh 29.68 in1005.1 mb 0.00 in0.0 mm 0.00 in0.0 mm 0.02 in0.5 mm
02:47 PM 61.9°F16.6°C 58.0°F14.4°C 87% 18.7 mph NW30.1 kmh NW 21.0 mph33.8 kmh 29.68 in1005.1 mb 0.00 in0.0 mm 0.00 in0.0 mm 0.02 in0.5 mm
02:48 PM 61.8°F16.6°C 57.6°F14.2°C 86% 19.7 mph NW31.7 kmh NW 22.0 mph35.4 kmh 29.67 in1004.7 mb 0.00 in0.0 mm 0.00 in0.0 mm 0.02 in0.5 mm
02:49 PM 61.8°F16.6°C 58.2°F14.6°C 88% 17.0 mph NW27.4 kmh NW 22.0 mph35.4 kmh 29.67 in1004.7 mb 0.00 in0.0 mm 0.00 in0.0 mm 0.02 in0.5 mm
02:50 PM 61.8°F16.6°C 57.9°F14.4°C 87% 19.0 mph NW30.6 kmh NW 21.0 mph33.8 kmh 29.67 in1004.7 mb 0.00 in0.0 mm 0.00 in0.0 mm 0.02 in0.5 mm
02:51 PM 61.8°F16.6°C 57.6°F14.2°C 86% 20.6 mph NW33.2 kmh NW 22.0 mph35.4 kmh 29.67 in1004.7 mb 0.00 in0.0 mm 0.00 in0.0 mm 0.02 in0.5 mm
02:52 PM 61.8°F16.6°C 57.9°F14.4°C 87% 20.3 mph NW32.7 kmh NW 22.0 mph35.4 kmh 29.67 in1004.7 mb 0.00 in0.0 mm 0.00 in0.0 mm 0.02 in0.5 mm
02:53 PM 61.7°F16.5°C 57.1°F13.9°C 85% 19.8 mph NW31.9 kmh NW 22.0 mph35.4 kmh 29.67 in1004.7 mb 0.00 in0.0 mm 0.00 in0.0 mm 0.02 in0.5 mm
02:54 PM 61.8°F16.6°C 57.6°F14.2°C 86% 19.7 mph NW31.7 kmh NW 21.0 mph33.8 kmh 29.67 in1004.7 mb 0.00 in0.0 mm 0.00 in0.0 mm 0.02 in0.5 mm
02:55 PM 61.8°F16.6°C 57.6°F14.2°C 86% 18.9 mph NW30.4 kmh NW 21.0 mph33.8 kmh 29.67 in1004.7 mb 0.00 in0.0 mm 0.00 in0.0 mm 0.02 in0.5 mm
02:56 PM 61.7°F16.5°C 57.5°F14.2°C 86% 19.5 mph NW31.4 kmh NW 21.0 mph33.8 kmh 29.67 in1004.7 mb 0.00 in0.0 mm 0.00 in0.0 mm 0.02 in0.5 mm
02:57 PM 61.8°F16.6°C 57.9°F14.4°C 87% 18.3 mph NW29.5 kmh NW 21.0 mph33.8 kmh 29.67 in1004.7 mb 0.00 in0.0 mm 0.00 in0.0 mm 0.02 in0.5 mm
02:58 PM 61.7°F16.5°C 57.1°F13.9°C 85% 19.8 mph NW31.9 kmh NW 21.0 mph33.8 kmh 29.67 in1004.7 mb 0.00 in0.0 mm 0.00 in0.0 mm 0.02 in0.5 mm
02:59 PM 61.7°F16.5°C 56.8°F13.8°C 84% 18.6 mph NW29.9 kmh NW 21.0 mph33.8 kmh 29.67 in1004.7 mb 0.00 in0.0 mm 0.00 in0.0 mm 0.02 in0.5 mm
03:00 PM 61.7°F16.5°C 56.8°F13.8°C 84% 19.1 mph NW30.7 kmh NW 21.0 mph33.8 kmh 29.67 in1004.7 mb 0.00 in0.0 mm 0.00 in0.0 mm 0.02 in0.5 mm
03:01 PM 61.7°F16.5°C 57.1°F13.9°C 85% 18.6 mph NW29.9 kmh NW 21.0 mph33.8 kmh 29.67 in1004.7 mb 0.00 in0.0 mm 0.00 in0.0 mm 0.02 in0.5 mm
03:02 PM 61.8°F16.6°C 57.2°F14.0°C 85% 18.7 mph NW30.1 kmh NW 21.0 mph33.8 kmh 29.67 in1004.7 mb 0.00 in0.0 mm 0.00 in0.0 mm 0.02 in0.5 mm
03:03 PM 61.8°F16.6°C 57.2°F14.0°C 85% 20.1 mph NW32.3 kmh NW 22.0 mph35.4 kmh 29.67 in1004.7 mb 0.00 in0.0 mm 0.00 in0.0 mm 0.02 in0.5 mm
03:04 PM 61.8°F16.6°C 57.2°F14.0°C 85% 20.0 mph NW32.2 kmh NW 23.0 mph37.0 kmh 29.67 in1004.7 mb 0.00 in0.0 mm 0.00 in0.0 mm 0.02 in0.5 mm
03:05 PM 61.8°F16.6°C 56.9°F13.8°C 84% 18.7 mph NW30.1 kmh NW 23.0 mph37.0 kmh 29.67 in1004.7 mb 0.00 in0.0 mm 0.00 in0.0 mm 0.02 in0.5 mm
03:06 PM 61.8°F16.6°C 56.9°F13.8°C 84% 19.9 mph NW32.0 kmh NW 21.0 mph33.8 kmh 29.67 in1004.7 mb 0.00 in0.0 mm 0.00 in0.0 mm 0.02 in0.5 mm
03:07 PM 61.8°F16.6°C 56.9°F13.8°C 84% 20.1 mph NW32.3 kmh NW 21.0 mph33.8 kmh 29.67 in1004.7 mb 0.00 in0.0 mm 0.00 in0.0 mm 0.02 in0.5 mm
03:08 PM 61.8°F16.6°C 56.9°F13.8°C 84% 19.8 mph NW31.9 kmh NW 22.0 mph35.4 kmh 29.68 in1005.1 mb 0.00 in0.0 mm 0.00 in0.0 mm 0.02 in0.5 mm
03:09 PM 61.9°F16.6°C 57.0°F13.9°C 84% 19.4 mph NW31.2 kmh NW 22.0 mph35.4 kmh 29.68 in1005.1 mb 0.00 in0.0 mm 0.00 in0.0 mm 0.02 in0.5 mm
03:10 PM 61.9°F16.6°C 57.7°F14.3°C 86% 17.2 mph NW27.7 kmh NW 21.0 mph33.8 kmh 29.68 in1005.1 mb 0.00 in0.0 mm 0.00 in0.0 mm 0.02 in0.5 mm
03:11 PM 61.8°F16.6°C 57.2°F14.0°C 85% 18.0 mph NW29.0 kmh NW 21.0 mph33.8 kmh 29.68 in1005.1 mb 0.00 in0.0 mm 0.00 in0.0 mm 0.02 in0.5 mm
03:12 PM 61.9°F16.6°C 57.3°F14.1°C 85% 16.9 mph NW27.2 kmh NW 21.0 mph33.8 kmh 29.68 in1005.1 mb 0.00 in0.0 mm 0.00 in0.0 mm 0.02 in0.5 mm
03:13 PM 61.9°F16.6°C 57.0°F13.9°C 84% 17.4 mph NW28.0 kmh NW 20.0 mph32.2 kmh 29.68 in1005.1 mb 0.00 in0.0 mm 0.00 in0.0 mm 0.02 in0.5 mm
03:14 PM 61.9°F16.6°C 57.3°F14.1°C 85% 17.7 mph NW28.5 kmh NW 20.0 mph32.2 kmh 29.68 in1005.1 mb 0.00 in0.0 mm 0.00 in0.0 mm 0.02 in0.5 mm
03:15 PM 61.9°F16.6°C 57.3°F14.1°C 85% 15.0 mph NW24.1 kmh NW 19.0 mph30.6 kmh 29.68 in1005.1 mb 0.00 in0.0 mm 0.00 in0.0 mm 0.02 in0.5 mm
03:16 PM 61.9°F16.6°C 57.7°F14.3°C 86% 16.0 mph NW25.7 kmh NW 18.0 mph29.0 kmh 29.68 in1005.1 mb 0.00 in0.0 mm 0.00 in0.0 mm 0.02 in0.5 mm
03:17 PM 61.9°F16.6°C 57.0°F13.9°C 84% 17.2 mph NW27.7 kmh NW 20.0 mph32.2 kmh 29.68 in1005.1 mb 0.00 in0.0 mm 0.00 in0.0 mm 0.02 in0.5 mm
03:18 PM 61.8°F16.6°C 56.6°F13.7°C 83% 19.5 mph NW31.4 kmh NW 23.0 mph37.0 kmh 29.68 in1005.1 mb 0.00 in0.0 mm 0.00 in0.0 mm 0.02 in0.5 mm
03:19 PM 61.8°F16.6°C 56.2°F13.4°C 82% 18.5 mph NW29.8 kmh NW 23.0 mph37.0 kmh 29.68 in1005.1 mb 0.00 in0.0 mm 0.00 in0.0 mm 0.02 in0.5 mm
03:20 PM 61.8°F16.6°C 56.9°F13.8°C 84% 18.2 mph NW29.3 kmh NW 21.0 mph33.8 kmh 29.68 in1005.1 mb 0.00 in0.0 mm 0.00 in0.0 mm 0.02 in0.5 mm
03:21 PM 61.8°F16.6°C 56.2°F13.4°C 82% 17.9 mph NW28.8 kmh NW 21.0 mph33.8 kmh 29.68 in1005.1 mb 0.00 in0.0 mm 0.00 in0.0 mm 0.02 in0.5 mm
03:22 PM 61.8°F16.6°C 56.6°F13.7°C 83% 18.9 mph NW30.4 kmh NW 21.0 mph33.8 kmh 29.68 in1005.1 mb 0.00 in0.0 mm 0.00 in0.0 mm 0.02 in0.5 mm
03:23 PM 61.8°F16.6°C 56.9°F13.8°C 84% 17.1 mph NW27.5 kmh NW 21.0 mph33.8 kmh 29.68 in1005.1 mb 0.00 in0.0 mm 0.00 in0.0 mm 0.02 in0.5 mm
03:24 PM 61.8°F16.6°C 56.6°F13.7°C 83% 19.3 mph NW31.1 kmh NW 23.0 mph37.0 kmh 29.68 in1005.1 mb 0.00 in0.0 mm 0.00 in0.0 mm 0.02 in0.5 mm
03:25 PM 61.8°F16.6°C 56.6°F13.7°C 83% 19.9 mph NW32.0 kmh NW 23.0 mph37.0 kmh 29.68 in1005.1 mb 0.00 in0.0 mm 0.00 in0.0 mm 0.02 in0.5 mm
03:26 PM 61.8°F16.6°C 56.6°F13.7°C 83% 19.7 mph NW31.7 kmh NW 23.0 mph37.0 kmh 29.68 in1005.1 mb 0.00 in0.0 mm 0.00 in0.0 mm 0.02 in0.5 mm
03:27 PM 61.8°F16.6°C 56.6°F13.7°C 83% 17.9 mph NW28.8 kmh NW 21.0 mph33.8 kmh 29.68 in1005.1 mb 0.00 in0.0 mm 0.00 in0.0 mm 0.02 in0.5 mm
03:28 PM 61.8°F16.6°C 56.9°F13.8°C 84% 19.5 mph NW31.4 kmh NW 21.0 mph33.8 kmh 29.68 in1005.1 mb 0.00 in0.0 mm 0.00 in0.0 mm 0.02 in0.5 mm
03:29 PM 61.8°F16.6°C 56.6°F13.7°C 83% 20.1 mph NW32.3 kmh NW 21.0 mph33.8 kmh 29.68 in1005.1 mb 0.00 in0.0 mm 0.00 in0.0 mm 0.02 in0.5 mm
03:30 PM 61.7°F16.5°C 56.5°F13.6°C 83% 20.0 mph NW32.2 kmh NW 23.0 mph37.0 kmh 29.68 in1005.1 mb 0.01 in0.3 mm 0.60 in15.2 mm 0.03 in0.8 mm
03:31 PM 61.6°F16.4°C 56.7°F13.7°C 84% 19.2 mph NW30.9 kmh NW 23.0 mph37.0 kmh 29.68 in1005.1 mb 0.01 in0.3 mm 0.00 in0.0 mm 0.03 in0.8 mm
03:32 PM 61.5°F16.4°C 56.9°F13.8°C 85% 18.7 mph NW30.1 kmh NW 23.0 mph37.0 kmh 29.68 in1005.1 mb 0.01 in0.3 mm 0.00 in0.0 mm 0.03 in0.8 mm
03:33 PM 61.4°F16.3°C 56.2°F13.4°C 83% 18.3 mph NW29.5 kmh NW 23.0 mph37.0 kmh 29.68 in1005.1 mb 0.02 in0.5 mm 0.60 in15.2 mm 0.04 in1.0 mm
03:34 PM 61.4°F16.3°C 56.5°F13.6°C 84% 18.4 mph NW29.6 kmh NW 23.0 mph37.0 kmh 29.68 in1005.1 mb 0.02 in0.5 mm 0.00 in0.0 mm 0.04 in1.0 mm
03:35 PM 61.4°F16.3°C 56.5°F13.6°C 84% 18.3 mph NW29.5 kmh NW 21.0 mph33.8 kmh 29.68 in1005.1 mb 0.02 in0.5 mm 0.00 in0.0 mm 0.04 in1.0 mm
03:36 PM 61.3°F16.3°C 56.7°F13.7°C 85% 17.7 mph NW28.5 kmh NW 21.0 mph33.8 kmh 29.69 in1005.4 mb 0.02 in0.5 mm 0.00 in0.0 mm 0.05 in1.3 mm
03:37 PM 61.3°F16.3°C 56.4°F13.6°C 84% 19.3 mph NW31.1 kmh NW 21.0 mph33.8 kmh 29.69 in1005.4 mb 0.02 in0.5 mm 0.00 in0.0 mm 0.05 in1.3 mm
03:38 PM 61.3°F16.3°C 56.7°F13.7°C 85% 18.6 mph NW29.9 kmh NW 21.0 mph33.8 kmh 29.69 in1005.4 mb 0.02 in0.5 mm 0.00 in0.0 mm 0.05 in1.3 mm
03:39 PM 61.3°F16.3°C 57.1°F13.9°C 86% 18.1 mph NW29.1 kmh NW 21.0 mph33.8 kmh 29.69 in1005.4 mb 0.02 in0.5 mm 0.00 in0.0 mm 0.05 in1.3 mm
03:40 PM 61.3°F16.3°C 56.4°F13.6°C 84% 18.1 mph NW29.1 kmh NW 21.0 mph33.8 kmh 29.69 in1005.4 mb 0.02 in0.5 mm 0.00 in0.0 mm 0.05 in1.3 mm
03:41 PM 61.3°F16.3°C 56.7°F13.7°C 85% 17.0 mph NW27.4 kmh NW 20.0 mph32.2 kmh 29.69 in1005.4 mb 0.02 in0.5 mm 0.00 in0.0 mm 0.05 in1.3 mm
03:42 PM 61.3°F16.3°C 56.7°F13.7°C 85% 16.6 mph NW26.7 kmh NW 18.0 mph29.0 kmh 29.69 in1005.4 mb 0.03 in0.8 mm 0.60 in15.2 mm 0.06 in1.5 mm
03:43 PM 61.2°F16.2°C 56.3°F13.5°C 84% 18.7 mph NW30.1 kmh NW 22.0 mph35.4 kmh 29.69 in1005.4 mb 0.03 in0.8 mm 0.00 in0.0 mm 0.06 in1.5 mm
03:44 PM 61.2°F16.2°C 56.7°F13.7°C 85% 15.5 mph NW24.9 kmh NW 22.0 mph35.4 kmh 29.69 in1005.4 mb 0.03 in0.8 mm 0.00 in0.0 mm 0.06 in1.5 mm
03:45 PM 61.1°F16.2°C 56.2°F13.4°C 84% 15.4 mph WNW24.8 kmh WNW 18.0 mph29.0 kmh 29.69 in1005.4 mb 0.04 in1.0 mm 0.60 in15.2 mm 0.06 in1.5 mm
03:46 PM 61.0°F16.1°C 56.5°F13.6°C 85% 16.1 mph NW25.9 kmh NW 18.0 mph29.0 kmh 29.69 in1005.4 mb 0.04 in1.0 mm 0.00 in0.0 mm 0.06 in1.5 mm
03:47 PM 60.9°F16.1°C 56.0°F13.3°C 84% 17.8 mph NW28.6 kmh NW 20.0 mph32.2 kmh 29.69 in1005.4 mb 0.05 in1.3 mm 0.60 in15.2 mm 0.07 in1.8 mm
03:48 PM 60.9°F16.1°C 56.0°F13.3°C 84% 17.1 mph NW27.5 kmh NW 20.0 mph32.2 kmh 29.69 in1005.4 mb 0.06 in1.5 mm 0.60 in15.2 mm 0.08 in2.0 mm
03:49 PM 60.9°F16.1°C 56.7°F13.7°C 86% 14.2 mph NW22.9 kmh NW 19.0 mph30.6 kmh 29.69 in1005.4 mb 0.06 in1.5 mm 0.00 in0.0 mm 0.08 in2.0 mm
03:50 PM 60.8°F16.0°C 55.9°F13.3°C 84% 17.4 mph NW28.0 kmh NW 22.0 mph35.4 kmh 29.69 in1005.4 mb 0.06 in1.5 mm 0.00 in0.0 mm 0.08 in2.0 mm
03:51 PM 60.7°F15.9°C 55.5°F13.1°C 83% 18.8 mph NW30.3 kmh NW 22.0 mph35.4 kmh 29.69 in1005.4 mb 0.06 in1.5 mm 0.00 in0.0 mm 0.09 in2.3 mm
03:52 PM 60.8°F16.0°C 55.9°F13.3°C 84% 17.7 mph NW28.5 kmh NW 21.0 mph33.8 kmh 29.69 in1005.4 mb 0.06 in1.5 mm 0.00 in0.0 mm 0.09 in2.3 mm
03:53 PM 60.8°F16.0°C 56.3°F13.5°C 85% 17.1 mph NW27.5 kmh NW 20.0 mph32.2 kmh 29.69 in1005.4 mb 0.07 in1.8 mm 0.60 in15.2 mm 0.09 in2.3 mm
03:54 PM 60.8°F16.0°C 56.6°F13.7°C 86% 16.5 mph NW26.6 kmh NW 19.0 mph30.6 kmh 29.69 in1005.4 mb 0.07 in1.8 mm 0.00 in0.0 mm 0.09 in2.3 mm
03:55 PM 60.7°F15.9°C 55.8°F13.2°C 84% 17.8 mph NW28.6 kmh NW 21.0 mph33.8 kmh 29.69 in1005.4 mb 0.08 in2.0 mm 0.60 in15.2 mm 0.10 in2.5 mm
03:56 PM 60.8°F16.0°C 56.3°F13.5°C 85% 16.6 mph NW26.7 kmh NW 21.0 mph33.8 kmh 29.69 in1005.4 mb 0.08 in2.0 mm 0.00 in0.0 mm 0.10 in2.5 mm
03:57 PM 60.7°F15.9°C 56.2°F13.4°C 85% 16.6 mph NW26.7 kmh NW 18.0 mph29.0 kmh 29.69 in1005.4 mb 0.09 in2.3 mm 0.60 in15.2 mm 0.11 in2.8 mm
03:58 PM 60.7°F15.9°C 56.8°F13.8°C 87% 14.1 mph NW22.7 kmh NW 18.0 mph29.0 kmh 29.69 in1005.4 mb 0.09 in2.3 mm 0.00 in0.0 mm 0.11 in2.8 mm
03:59 PM 60.6°F15.9°C 56.1°F13.4°C 85% 15.7 mph NW25.3 kmh NW 17.0 mph27.4 kmh 29.69 in1005.4 mb 0.09 in2.3 mm 0.00 in0.0 mm 0.12 in3.0 mm
04:00 PM 60.5°F15.8°C 56.3°F13.5°C 86% 14.6 mph NW23.5 kmh NW 17.0 mph27.4 kmh 29.69 in1005.4 mb 0.10 in2.5 mm 0.01 in0.3 mm 0.13 in3.3 mm
04:01 PM 60.5°F15.8°C 56.0°F13.3°C 85% 13.9 mph NW22.4 kmh NW 16.0 mph25.7 kmh 29.69 in1005.4 mb 0.10 in2.5 mm 0.00 in0.0 mm 0.13 in3.3 mm
04:02 PM 60.4°F15.8°C 56.2°F13.4°C 86% 15.0 mph NW24.1 kmh NW 18.0 mph29.0 kmh 29.69 in1005.4 mb 0.11 in2.8 mm 0.60 in15.2 mm 0.13 in3.3 mm
04:03 PM 60.2°F15.7°C 56.0°F13.3°C 86% 14.5 mph NW23.3 kmh NW 19.0 mph30.6 kmh 29.69 in1005.4 mb 0.11 in2.8 mm 0.00 in0.0 mm 0.13 in3.3 mm
04:04 PM 60.2°F15.7°C 56.0°F13.3°C 86% 15.4 mph NW24.8 kmh NW 18.0 mph29.0 kmh 29.69 in1005.4 mb 0.12 in3.0 mm 0.60 in15.2 mm 0.14 in3.6 mm
04:05 PM 60.2°F15.7°C 56.0°F13.3°C 86% 14.0 mph NW22.5 kmh NW 17.0 mph27.4 kmh 29.69 in1005.4 mb 0.12 in3.0 mm 0.00 in0.0 mm 0.14 in3.6 mm
04:06 PM 60.1°F15.6°C 56.2°F13.4°C 87% 13.4 mph NW21.6 kmh NW 15.0 mph24.1 kmh 29.69 in1005.4 mb 0.13 in3.3 mm 0.60 in15.2 mm 0.15 in3.8 mm
04:07 PM 60.2°F15.7°C 56.6°F13.7°C 88% 14.0 mph NW22.5 kmh NW 15.0 mph24.1 kmh 29.69 in1005.4 mb 0.13 in3.3 mm 0.00 in0.0 mm 0.15 in3.8 mm
04:08 PM 60.1°F15.6°C 56.5°F13.6°C 88% 14.3 mph NW23.0 kmh NW 17.0 mph27.4 kmh 29.69 in1005.4 mb 0.13 in3.3 mm 0.00 in0.0 mm 0.16 in4.1 mm
04:09 PM 60.1°F15.6°C 56.2°F13.4°C 87% 14.8 mph NW23.8 kmh NW 17.0 mph27.4 kmh 29.69 in1005.4 mb 0.14 in3.6 mm 0.60 in15.2 mm 0.17 in4.3 mm
04:10 PM 60.0°F15.6°C 56.1°F13.4°C 87% 14.4 mph NW23.2 kmh NW 16.0 mph25.7 kmh 29.69 in1005.4 mb 0.14 in3.6 mm 0.00 in0.0 mm 0.17 in4.3 mm
04:11 PM 60.0°F15.6°C 56.4°F13.6°C 88% 13.5 mph WNW21.7 kmh WNW 16.0 mph25.7 kmh 29.69 in1005.4 mb 0.15 in3.8 mm 0.60 in15.2 mm 0.17 in4.3 mm
04:12 PM 60.0°F15.6°C 56.4°F13.6°C 88% 13.7 mph NW22.0 kmh NW 15.0 mph24.1 kmh 29.70 in1005.8 mb 0.15 in3.8 mm 0.00 in0.0 mm 0.17 in4.3 mm
04:13 PM 59.8°F15.4°C 56.2°F13.4°C 88% 11.9 mph WNW19.2 kmh WNW 15.0 mph24.1 kmh 29.70 in1005.8 mb 0.16 in4.1 mm 0.60 in15.2 mm 0.18 in4.6 mm
04:14 PM 59.8°F15.4°C 56.2°F13.4°C 88% 11.8 mph NW19.0 kmh NW 13.0 mph20.9 kmh 29.69 in1005.4 mb 0.16 in4.1 mm 0.00 in0.0 mm 0.18 in4.6 mm
04:15 PM 59.8°F15.4°C 56.5°F13.6°C 89% 13.3 mph NW21.4 kmh NW 15.0 mph24.1 kmh 29.69 in1005.4 mb 0.17 in4.3 mm 0.60 in15.2 mm 0.19 in4.8 mm
04:16 PM 59.7°F15.4°C 56.5°F13.6°C 89% 12.4 mph NW20.0 kmh NW 15.0 mph24.1 kmh 29.70 in1005.8 mb 0.17 in4.3 mm 0.00 in0.0 mm 0.20 in5.1 mm
04:17 PM 59.6°F15.3°C 56.4°F13.6°C 89% 12.4 mph NW20.0 kmh NW 14.0 mph22.5 kmh 29.70 in1005.8 mb 0.18 in4.6 mm 0.60 in15.2 mm 0.20 in5.1 mm
04:18 PM 59.7°F15.4°C 56.8°F13.8°C 90% 11.4 mph WNW18.3 kmh WNW 14.0 mph22.5 kmh 29.70 in1005.8 mb 0.18 in4.6 mm 0.00 in0.0 mm 0.20 in5.1 mm
04:19 PM 59.6°F15.3°C 56.4°F13.6°C 89% 12.7 mph NW20.4 kmh NW 14.0 mph22.5 kmh 29.69 in1005.4 mb 0.19 in4.8 mm 0.60 in15.2 mm 0.21 in5.3 mm
04:20 PM 59.5°F15.3°C 56.3°F13.5°C 89% 10.3 mph WNW16.6 kmh WNW 14.0 mph22.5 kmh 29.69 in1005.4 mb 0.20 in5.1 mm 0.60 in15.2 mm 0.22 in5.6 mm
04:21 PM 59.5°F15.3°C 56.6°F13.7°C 90% 12.1 mph NW19.5 kmh NW 14.0 mph22.5 kmh 29.69 in1005.4 mb 0.20 in5.1 mm 0.00 in0.0 mm 0.22 in5.6 mm
04:22 PM 59.5°F15.3°C 56.6°F13.7°C 90% 11.3 mph WNW18.2 kmh WNW 14.0 mph22.5 kmh 29.70 in1005.8 mb 0.20 in5.1 mm 0.00 in0.0 mm 0.23 in5.8 mm
04:23 PM 59.4°F15.2°C 56.2°F13.4°C 89% 13.5 mph WNW21.7 kmh WNW 16.0 mph25.7 kmh 29.69 in1005.4 mb 0.21 in5.3 mm 0.60 in15.2 mm 0.24 in6.1 mm
04:24 PM 59.3°F15.2°C 56.1°F13.4°C 89% 14.3 mph NW23.0 kmh NW 16.0 mph25.7 kmh 29.69 in1005.4 mb 0.21 in5.3 mm 0.00 in0.0 mm 0.24 in6.1 mm
04:25 PM 59.4°F15.2°C 56.5°F13.6°C 90% 13.3 mph NW21.4 kmh NW 16.0 mph25.7 kmh 29.69 in1005.4 mb 0.22 in5.6 mm 0.60 in15.2 mm 0.24 in6.1 mm
04:26 PM 59.4°F15.2°C 56.5°F13.6°C 90% 13.7 mph WNW22.0 kmh WNW 15.0 mph24.1 kmh 29.69 in1005.4 mb 0.23 in5.8 mm 0.60 in15.2 mm 0.25 in6.4 mm
04:27 PM 59.5°F15.3°C 56.6°F13.7°C 90% 14.4 mph NW23.2 kmh NW 17.0 mph27.4 kmh 29.70 in1005.8 mb 0.24 in6.1 mm 0.60 in15.2 mm 0.26 in6.6 mm
04:28 PM 59.4°F15.2°C 56.8°F13.8°C 91% 13.1 mph NW21.1 kmh NW 17.0 mph27.4 kmh 29.70 in1005.8 mb 0.24 in6.1 mm 0.00 in0.0 mm 0.27 in6.9 mm
04:29 PM 59.4°F15.2°C 56.5°F13.6°C 90% 13.6 mph NW21.9 kmh NW 15.0 mph24.1 kmh 29.70 in1005.8 mb 0.24 in6.1 mm 0.00 in0.0 mm 0.27 in6.9 mm
04:30 PM 59.4°F15.2°C 56.2°F13.4°C 89% 13.6 mph NW21.9 kmh NW 16.0 mph25.7 kmh 29.69 in1005.4 mb 0.24 in6.1 mm 0.00 in0.0 mm 0.28 in7.1 mm
04:31 PM 59.3°F15.2°C 56.4°F13.6°C 90% 13.7 mph NW22.0 kmh NW 16.0 mph25.7 kmh 29.70 in1005.8 mb 0.24 in6.1 mm 0.00 in0.0 mm 0.28 in7.1 mm
04:32 PM 59.3°F15.2°C 56.4°F13.6°C 90% 13.4 mph NW21.6 kmh NW 16.0 mph25.7 kmh 29.69 in1005.4 mb 0.25 in6.4 mm 0.60 in15.2 mm 0.28 in7.1 mm
04:33 PM 59.3°F15.2°C 56.4°F13.6°C 90% 14.5 mph NW23.3 kmh NW 17.0 mph27.4 kmh 29.69 in1005.4 mb 0.25 in6.4 mm 0.00 in0.0 mm 0.29 in7.4 mm
04:34 PM 59.4°F15.2°C 56.8°F13.8°C 91% 14.1 mph NW22.7 kmh NW 17.0 mph27.4 kmh 29.69 in1005.4 mb 0.25 in6.4 mm 0.00 in0.0 mm 0.29 in7.4 mm
04:35 PM 59.3°F15.2°C 56.4°F13.6°C 90% 13.2 mph NW21.2 kmh NW 16.0 mph25.7 kmh 29.69 in1005.4 mb 0.26 in6.6 mm 0.60 in15.2 mm 0.30 in7.6 mm
04:36 PM 59.4°F15.2°C 56.8°F13.8°C 91% 13.9 mph NW22.4 kmh NW 15.0 mph24.1 kmh 29.69 in1005.4 mb 0.25 in6.4 mm 0.00 in0.0 mm 0.30 in7.6 mm
04:37 PM 59.3°F15.2°C 56.4°F13.6°C 90% 13.8 mph NW22.2 kmh NW 15.0 mph24.1 kmh 29.69 in1005.4 mb 0.26 in6.6 mm 0.60 in15.2 mm 0.31 in7.9 mm
04:38 PM 59.3°F15.2°C 56.7°F13.7°C 91% 14.4 mph NW23.2 kmh NW 16.0 mph25.7 kmh 29.69 in1005.4 mb 0.26 in6.6 mm 0.00 in0.0 mm 0.31 in7.9 mm
04:39 PM 59.3°F15.2°C 56.4°F13.6°C 90% 14.6 mph NW23.5 kmh NW 16.0 mph25.7 kmh 29.69 in1005.4 mb 0.27 in6.9 mm 0.60 in15.2 mm 0.31 in7.9 mm
04:40 PM 59.3°F15.2°C 56.1°F13.4°C 89% 14.0 mph NW22.5 kmh NW 16.0 mph25.7 kmh 29.69 in1005.4 mb 0.27 in6.9 mm 0.00 in0.0 mm 0.31 in7.9 mm
04:41 PM 59.2°F15.1°C 56.0°F13.3°C 89% 14.8 mph NW23.8 kmh NW 16.0 mph25.7 kmh 29.69 in1005.4 mb 0.28 in7.1 mm 0.60 in15.2 mm 0.32 in8.1 mm
04:42 PM 59.2°F15.1°C 56.3°F13.5°C 90% 13.7 mph NW22.0 kmh NW 16.0 mph25.7 kmh 29.69 in1005.4 mb 0.27 in6.9 mm 0.00 in0.0 mm 0.32 in8.1 mm
04:43 PM 59.2°F15.1°C 56.0°F13.3°C 89% 15.0 mph NW24.1 kmh NW 17.0 mph27.4 kmh 29.69 in1005.4 mb 0.28 in7.1 mm 0.60 in15.2 mm 0.33 in8.4 mm
04:44 PM 59.2°F15.1°C 56.6°F13.7°C 91% 13.1 mph NW21.1 kmh NW 17.0 mph27.4 kmh 29.69 in1005.4 mb 0.28 in7.1 mm 0.00 in0.0 mm 0.33 in8.4 mm
04:45 PM 59.3°F15.2°C 56.7°F13.7°C 91% 12.5 mph NW20.1 kmh NW 15.0 mph24.1 kmh 29.69 in1005.4 mb 0.27 in6.9 mm 0.00 in0.0 mm 0.33 in8.4 mm
04:46 PM 59.3°F15.2°C 56.7°F13.7°C 91% 13.6 mph NW21.9 kmh NW 17.0 mph27.4 kmh 29.69 in1005.4 mb 0.28 in7.1 mm 0.60 in15.2 mm 0.34 in8.6 mm
04:47 PM 59.2°F15.1°C 56.6°F13.7°C 91% 14.5 mph NW23.3 kmh NW 17.0 mph27.4 kmh 29.69 in1005.4 mb 0.28 in7.1 mm 0.00 in0.0 mm 0.35 in8.9 mm
04:48 PM 59.2°F15.1°C 56.3°F13.5°C 90% 15.3 mph NW24.6 kmh NW 18.0 mph29.0 kmh 29.69 in1005.4 mb 0.27 in6.9 mm 0.00 in0.0 mm 0.35 in8.9 mm
04:49 PM 59.1°F15.1°C 56.2°F13.4°C 90% 13.4 mph WNW21.6 kmh WNW 18.0 mph29.0 kmh 29.69 in1005.4 mb 0.27 in6.9 mm 0.00 in0.0 mm 0.35 in8.9 mm
04:50 PM 59.2°F15.1°C 56.6°F13.7°C 91% 12.6 mph NW20.3 kmh NW 15.0 mph24.1 kmh 29.69 in1005.4 mb 0.28 in7.1 mm 0.60 in15.2 mm 0.35 in8.9 mm
04:51 PM 59.2°F15.1°C 56.3°F13.5°C 90% 14.4 mph WNW23.2 kmh WNW 17.0 mph27.4 kmh 29.69 in1005.4 mb 0.27 in6.9 mm 0.00 in0.0 mm 0.35 in8.9 mm
04:52 PM 59.1°F15.1°C 56.2°F13.4°C 90% 15.0 mph WNW24.1 kmh WNW 17.0 mph27.4 kmh 29.68 in1005.1 mb 0.27 in6.9 mm 0.00 in0.0 mm 0.35 in8.9 mm
04:53 PM 59.1°F15.1°C 56.2°F13.4°C 90% 14.0 mph WNW22.5 kmh WNW 16.0 mph25.7 kmh 29.69 in1005.4 mb 0.27 in6.9 mm 0.00 in0.0 mm 0.36 in9.1 mm
04:54 PM 59.1°F15.1°C 56.2°F13.4°C 90% 13.0 mph WNW20.9 kmh WNW 16.0 mph25.7 kmh 29.69 in1005.4 mb 0.27 in6.9 mm 0.00 in0.0 mm 0.36 in9.1 mm
04:55 PM 59.1°F15.1°C 56.2°F13.4°C 90% 13.3 mph WNW21.4 kmh WNW 15.0 mph24.1 kmh 29.69 in1005.4 mb 0.26 in6.6 mm 0.00 in0.0 mm 0.36 in9.1 mm
04:56 PM 59.0°F15.0°C 56.1°F13.4°C 90% 13.4 mph WNW21.6 kmh WNW 15.0 mph24.1 kmh 29.69 in1005.4 mb 0.26 in6.6 mm 0.00 in0.0 mm 0.36 in9.1 mm
04:57 PM 59.0°F15.0°C 56.1°F13.4°C 90% 13.2 mph WNW21.2 kmh WNW 15.0 mph24.1 kmh 29.69 in1005.4 mb 0.26 in6.6 mm 0.00 in0.0 mm 0.37 in9.4 mm
04:58 PM 59.0°F15.0°C 56.4°F13.6°C 91% 13.1 mph WNW21.1 kmh WNW 16.0 mph25.7 kmh 29.69 in1005.4 mb 0.26 in6.6 mm 0.00 in0.0 mm 0.37 in9.4 mm
04:59 PM 58.9°F14.9°C 56.0°F13.3°C 90% 13.1 mph WNW21.1 kmh WNW 16.0 mph25.7 kmh 29.69 in1005.4 mb 0.25 in6.4 mm 0.00 in0.0 mm 0.37 in9.4 mm
05:00 PM 58.9°F14.9°C 56.3°F13.5°C 91% 11.5 mph WNW18.5 kmh WNW 15.0 mph24.1 kmh 29.69 in1005.4 mb 0.24 in6.1 mm 0.00 in0.0 mm 0.37 in9.4 mm
05:01 PM 58.9°F14.9°C 56.3°F13.5°C 91% 11.5 mph WNW18.5 kmh WNW 14.0 mph22.5 kmh 29.69 in1005.4 mb 0.24 in6.1 mm 0.00 in0.0 mm 0.37 in9.4 mm
05:02 PM 58.9°F14.9°C 56.6°F13.7°C 92% 14.0 mph WNW22.5 kmh WNW 16.0 mph25.7 kmh 29.69 in1005.4 mb 0.24 in6.1 mm 0.00 in0.0 mm 0.37 in9.4 mm
05:03 PM 58.9°F14.9°C 56.3°F13.5°C 91% 12.6 mph NW20.3 kmh NW 16.0 mph25.7 kmh 29.69 in1005.4 mb 0.24 in6.1 mm 0.00 in0.0 mm 0.37 in9.4 mm
05:04 PM 58.9°F14.9°C 56.0°F13.3°C 90% 12.9 mph WNW20.8 kmh WNW 14.0 mph22.5 kmh 29.69 in1005.4 mb 0.24 in6.1 mm 0.00 in0.0 mm 0.38 in9.7 mm
05:05 PM 58.9°F14.9°C 56.3°F13.5°C 91% 12.5 mph NW20.1 kmh NW 14.0 mph22.5 kmh 29.69 in1005.4 mb 0.24 in6.1 mm 0.00 in0.0 mm 0.38 in9.7 mm
05:06 PM 58.9°F14.9°C 56.3°F13.5°C 91% 13.2 mph WNW21.2 kmh WNW 15.0 mph24.1 kmh 29.69 in1005.4 mb 0.23 in5.8 mm 0.00 in0.0 mm 0.38 in9.7 mm
05:07 PM 58.9°F14.9°C 56.0°F13.3°C 90% 11.8 mph WNW19.0 kmh WNW 15.0 mph24.1 kmh 29.69 in1005.4 mb 0.23 in5.8 mm 0.00 in0.0 mm 0.38 in9.7 mm
05:08 PM 59.0°F15.0°C 56.4°F13.6°C 91% 11.5 mph WNW18.5 kmh WNW 14.0 mph22.5 kmh 29.69 in1005.4 mb 0.22 in5.6 mm 0.00 in0.0 mm 0.38 in9.7 mm
05:09 PM 58.9°F14.9°C 56.3°F13.5°C 91% 12.0 mph WNW19.3 kmh WNW 14.0 mph22.5 kmh 29.69 in1005.4 mb 0.21 in5.3 mm 0.00 in0.0 mm 0.38 in9.7 mm
05:10 PM 58.9°F14.9°C 56.3°F13.5°C 91% 12.6 mph WNW20.3 kmh WNW 14.0 mph22.5 kmh 29.69 in1005.4 mb 0.21 in5.3 mm 0.00 in0.0 mm 0.38 in9.7 mm
05:11 PM 58.9°F14.9°C 56.3°F13.5°C 91% 12.8 mph WNW20.6 kmh WNW 15.0 mph24.1 kmh 29.69 in1005.4 mb 0.20 in5.1 mm 0.00 in0.0 mm 0.38 in9.7 mm
05:12 PM 58.9°F14.9°C 56.0°F13.3°C 90% 13.0 mph WNW20.9 kmh WNW 15.0 mph24.1 kmh 29.69 in1005.4 mb 0.20 in5.1 mm 0.00 in0.0 mm 0.38 in9.7 mm
05:13 PM 58.9°F14.9°C 56.0°F13.3°C 90% 13.0 mph WNW20.9 kmh WNW 15.0 mph24.1 kmh 29.69 in1005.4 mb 0.20 in5.1 mm 0.00 in0.0 mm 0.38 in9.7 mm
05:14 PM 58.9°F14.9°C 56.3°F13.5°C 91% 12.5 mph WNW20.1 kmh WNW 14.0 mph22.5 kmh 29.69 in1005.4 mb 0.20 in5.1 mm 0.00 in0.0 mm 0.39 in9.9 mm
05:15 PM 58.9°F14.9°C 56.0°F13.3°C 90% 13.3 mph WNW21.4 kmh WNW 15.0 mph24.1 kmh 29.69 in1005.4 mb 0.20 in5.1 mm 0.00 in0.0 mm 0.39 in9.9 mm
05:16 PM 58.9°F14.9°C 56.3°F13.5°C 91% 12.7 mph WNW20.4 kmh WNW 15.0 mph24.1 kmh 29.69 in1005.4 mb 0.19 in4.8 mm 0.00 in0.0 mm 0.39 in9.9 mm
05:17 PM 58.9°F14.9°C 56.3°F13.5°C 91% 11.5 mph WNW18.5 kmh WNW 14.0 mph22.5 kmh 29.69 in1005.4 mb 0.18 in4.6 mm 0.00 in0.0 mm 0.39 in9.9 mm
05:18 PM 58.9°F14.9°C 56.6°F13.7°C 92% 12.3 mph WNW19.8 kmh WNW 14.0 mph22.5 kmh 29.69 in1005.4 mb 0.18 in4.6 mm 0.00 in0.0 mm 0.39 in9.9 mm
05:19 PM 58.9°F14.9°C 56.3°F13.5°C 91% 11.8 mph WNW19.0 kmh WNW 14.0 mph22.5 kmh 29.69 in1005.4 mb 0.17 in4.3 mm 0.00 in0.0 mm 0.39 in9.9 mm
05:20 PM 58.9°F14.9°C 56.0°F13.3°C 90% 13.0 mph WNW20.9 kmh WNW 14.0 mph22.5 kmh 29.69 in1005.4 mb 0.17 in4.3 mm 0.00 in0.0 mm 0.39 in9.9 mm
05:21 PM 58.9°F14.9°C 56.3°F13.5°C 91% 11.7 mph WNW18.8 kmh WNW 14.0 mph22.5 kmh 29.69 in1005.4 mb 0.17 in4.3 mm 0.00 in0.0 mm 0.39 in9.9 mm
05:22 PM 58.9°F14.9°C 56.3°F13.5°C 91% 11.8 mph WNW19.0 kmh WNW 13.0 mph20.9 kmh 29.69 in1005.4 mb 0.16 in4.1 mm 0.00 in0.0 mm 0.39 in9.9 mm
05:23 PM 58.9°F14.9°C 56.3°F13.5°C 91% 12.7 mph WNW20.4 kmh WNW 15.0 mph24.1 kmh 29.69 in1005.4 mb 0.15 in3.8 mm 0.00 in0.0 mm 0.39 in9.9 mm
05:24 PM 58.9°F14.9°C 56.6°F13.7°C 92% 11.0 mph WNW17.7 kmh WNW 15.0 mph24.1 kmh 29.69 in1005.4 mb 0.15 in3.8 mm 0.00 in0.0 mm 0.39 in9.9 mm
05:25 PM 58.9°F14.9°C 56.6°F13.7°C 92% 11.1 mph WNW17.9 kmh WNW 13.0 mph20.9 kmh 29.69 in1005.4 mb 0.14 in3.6 mm 0.00 in0.0 mm 0.39 in9.9 mm
05:26 PM 58.9°F14.9°C 56.3°F13.5°C 91% 11.5 mph WNW18.5 kmh WNW 13.0 mph20.9 kmh 29.69 in1005.4 mb 0.13 in3.3 mm 0.00 in0.0 mm 0.39 in9.9 mm
05:27 PM 58.9°F14.9°C 56.3°F13.5°C 91% 10.0 mph WNW16.1 kmh WNW 13.0 mph20.9 kmh 29.69 in1005.4 mb 0.13 in3.3 mm 0.00 in0.0 mm 0.39 in9.9 mm
05:28 PM 58.9°F14.9°C 56.6°F13.7°C 92% 11.7 mph WNW18.8 kmh WNW 14.0 mph22.5 kmh 29.69 in1005.4 mb 0.13 in3.3 mm 0.00 in0.0 mm 0.39 in9.9 mm
05:29 PM 58.9°F14.9°C 56.3°F13.5°C 91% 11.1 mph WNW17.9 kmh WNW 14.0 mph22.5 kmh 29.69 in1005.4 mb 0.13 in3.3 mm 0.00 in0.0 mm 0.39 in9.9 mm
05:30 PM 58.9°F14.9°C 56.6°F13.7°C 92% 11.6 mph WNW18.7 kmh WNW 14.0 mph22.5 kmh 29.69 in1005.4 mb 0.12 in3.0 mm 0.00 in0.0 mm 0.39 in9.9 mm
05:31 PM 58.9°F14.9°C 56.6°F13.7°C 92% 11.1 mph WNW17.9 kmh WNW 14.0 mph22.5 kmh 29.69 in1005.4 mb 0.12 in3.0 mm 0.00 in0.0 mm 0.39 in9.9 mm
05:32 PM 58.9°F14.9°C 56.6°F13.7°C 92% 11.5 mph WNW18.5 kmh WNW 14.0 mph22.5 kmh 29.69 in1005.4 mb 0.11 in2.8 mm 0.00 in0.0 mm 0.39 in9.9 mm
05:33 PM 58.9°F14.9°C 56.6°F13.7°C 92% 10.3 mph WNW16.6 kmh WNW 13.0 mph20.9 kmh 29.69 in1005.4 mb 0.10 in2.5 mm 0.00 in0.0 mm 0.39 in9.9 mm
05:34 PM 58.9°F14.9°C 56.6°F13.7°C 92% 12.2 mph WNW19.6 kmh WNW 14.0 mph22.5 kmh 29.69 in1005.4 mb 0.10 in2.5 mm 0.00 in0.0 mm 0.39 in9.9 mm
05:35 PM 58.9°F14.9°C 56.6°F13.7°C 92% 10.4 mph WNW16.7 kmh WNW 14.0 mph22.5 kmh 29.69 in1005.4 mb 0.09 in2.3 mm 0.00 in0.0 mm 0.39 in9.9 mm
05:36 PM 59.0°F15.0°C 56.7°F13.7°C 92% 10.1 mph WNW16.3 kmh WNW 14.0 mph22.5 kmh 29.69 in1005.4 mb 0.09 in2.3 mm 0.00 in0.0 mm 0.39 in9.9 mm
05:37 PM 58.9°F14.9°C 56.6°F13.7°C 92% 12.1 mph WNW19.5 kmh WNW 14.0 mph22.5 kmh 29.69 in1005.4 mb 0.09 in2.3 mm 0.00 in0.0 mm 0.39 in9.9 mm
05:38 PM 58.9°F14.9°C 56.3°F13.5°C 91% 12.3 mph WNW19.8 kmh WNW 14.0 mph22.5 kmh 29.69 in1005.4 mb 0.09 in2.3 mm 0.00 in0.0 mm 0.39 in9.9 mm
05:39 PM 58.9°F14.9°C 56.6°F13.7°C 92% 11.7 mph WNW18.8 kmh WNW 15.0 mph24.1 kmh 29.69 in1005.4 mb 0.08 in2.0 mm 0.00 in0.0 mm 0.39 in9.9 mm
05:40 PM 58.9°F14.9°C 56.6°F13.7°C 92% 12.7 mph WNW20.4 kmh WNW 16.0 mph25.7 kmh 29.69 in1005.4 mb 0.08 in2.0 mm 0.00 in0.0 mm 0.39 in9.9 mm
05:41 PM 58.9°F14.9°C 56.6°F13.7°C 92% 10.7 mph WNW17.2 kmh WNW 16.0 mph25.7 kmh 29.69 in1005.4 mb 0.07 in1.8 mm 0.00 in0.0 mm 0.39 in9.9 mm
05:42 PM 58.9°F14.9°C 56.6°F13.7°C 92% 9.9 mph WNW15.9 kmh WNW 12.0 mph19.3 kmh 29.69 in1005.4 mb 0.07 in1.8 mm 0.00 in0.0 mm 0.39 in9.9 mm
05:43 PM 58.9°F14.9°C 56.6°F13.7°C 92% 11.0 mph WNW17.7 kmh WNW 14.0 mph22.5 kmh 29.69 in1005.4 mb 0.06 in1.5 mm 0.00 in0.0 mm 0.39 in9.9 mm
05:44 PM 58.9°F14.9°C 56.3°F13.5°C 91% 10.9 mph WNW17.5 kmh WNW 14.0 mph22.5 kmh 29.69 in1005.4 mb 0.06 in1.5 mm 0.00 in0.0 mm 0.39 in9.9 mm
05:45 PM 58.9°F14.9°C 56.3°F13.5°C 91% 12.4 mph WNW20.0 kmh WNW 15.0 mph24.1 kmh 29.69 in1005.4 mb 0.06 in1.5 mm 0.00 in0.0 mm 0.39 in9.9 mm
05:46 PM 58.8°F14.9°C 56.5°F13.6°C 92% 11.3 mph WNW18.2 kmh WNW 15.0 mph24.1 kmh 29.69 in1005.4 mb 0.06 in1.5 mm 0.00 in0.0 mm 0.39 in9.9 mm
05:47 PM 58.9°F14.9°C 56.6°F13.7°C 92% 12.1 mph WNW19.5 kmh WNW 14.0 mph22.5 kmh 29.69 in1005.4 mb 0.06 in1.5 mm 0.00 in0.0 mm 0.40 in10.2 mm
05:48 PM 58.9°F14.9°C 56.3°F13.5°C 91% 11.4 mph WNW18.3 kmh WNW 14.0 mph22.5 kmh 29.69 in1005.4 mb 0.06 in1.5 mm 0.00 in0.0 mm 0.40 in10.2 mm
05:49 PM 58.9°F14.9°C 56.6°F13.7°C 92% 10.7 mph WNW17.2 kmh WNW 16.0 mph25.7 kmh 29.69 in1005.4 mb 0.06 in1.5 mm 0.00 in0.0 mm 0.40 in10.2 mm
05:50 PM 58.8°F14.9°C 55.9°F13.3°C 90% 12.9 mph WNW20.8 kmh WNW 16.0 mph25.7 kmh 29.69 in1005.4 mb 0.05 in1.3 mm 0.00 in0.0 mm 0.40 in10.2 mm
05:51 PM 58.9°F14.9°C 56.6°F13.7°C 92% 11.0 mph WNW17.7 kmh WNW 15.0 mph24.1 kmh 29.69 in1005.4 mb 0.05 in1.3 mm 0.00 in0.0 mm 0.40 in10.2 mm
05:52 PM 58.9°F14.9°C 56.3°F13.5°C 91% 11.0 mph WNW17.7 kmh WNW 12.0 mph19.3 kmh 29.69 in1005.4 mb 0.05 in1.3 mm 0.00 in0.0 mm 0.40 in10.2 mm
05:53 PM 58.9°F14.9°C 56.3°F13.5°C 91% 10.8 mph WNW17.4 kmh WNW 12.0 mph19.3 kmh 29.69 in1005.4 mb 0.04 in1.0 mm 0.00 in0.0 mm 0.40 in10.2 mm
05:54 PM 58.9°F14.9°C 56.6°F13.7°C 92% 12.9 mph WNW20.8 kmh WNW 14.0 mph22.5 kmh 29.69 in1005.4 mb 0.04 in1.0 mm 0.00 in0.0 mm 0.40 in10.2 mm
05:55 PM 58.8°F14.9°C 56.2°F13.4°C 91% 13.0 mph WNW20.9 kmh WNW 17.0 mph27.4 kmh 29.69 in1005.4 mb 0.04 in1.0 mm 0.00 in0.0 mm 0.40 in10.2 mm
05:56 PM 58.9°F14.9°C 56.3°F13.5°C 91% 13.3 mph WNW21.4 kmh WNW 17.0 mph27.4 kmh 29.69 in1005.4 mb 0.04 in1.0 mm 0.00 in0.0 mm 0.40 in10.2 mm
05:57 PM 58.9°F14.9°C 56.3°F13.5°C 91% 10.7 mph WNW17.2 kmh WNW 15.0 mph24.1 kmh 29.69 in1005.4 mb 0.03 in0.8 mm 0.00 in0.0 mm 0.40 in10.2 mm
05:58 PM 58.9°F14.9°C 56.3°F13.5°C 91% 14.5 mph WNW23.3 kmh WNW 17.0 mph27.4 kmh 29.69 in1005.4 mb 0.03 in0.8 mm 0.00 in0.0 mm 0.40 in10.2 mm
05:59 PM 58.9°F14.9°C 56.0°F13.3°C 90% 12.0 mph WNW19.3 kmh WNW 17.0 mph27.4 kmh 29.69 in1005.4 mb 0.03 in0.8 mm 0.00 in0.0 mm 0.40 in10.2 mm
06:00 PM 58.8°F14.9°C 56.2°F13.4°C 91% 13.1 mph WNW21.1 kmh WNW 16.0 mph25.7 kmh 29.69 in1005.4 mb 0.03 in0.8 mm 0.00 in0.0 mm 0.40 in10.2 mm
06:01 PM 58.8°F14.9°C 56.2°F13.4°C 91% 13.4 mph WNW21.6 kmh WNW 17.0 mph27.4 kmh 29.69 in1005.4 mb 0.03 in0.8 mm 0.00 in0.0 mm 0.40 in10.2 mm
06:02 PM 58.9°F14.9°C 56.3°F13.5°C 91% 12.9 mph WNW20.8 kmh WNW 17.0 mph27.4 kmh 29.69 in1005.4 mb 0.03 in0.8 mm 0.00 in0.0 mm 0.40 in10.2 mm
06:03 PM 58.9°F14.9°C 56.0°F13.3°C 90% 13.1 mph WNW21.1 kmh WNW 15.0 mph24.1 kmh 29.69 in1005.4 mb 0.03 in0.8 mm 0.00 in0.0 mm 0.40 in10.2 mm
06:04 PM 58.9°F14.9°C 56.3°F13.5°C 91% 12.9 mph WNW20.8 kmh WNW 14.0 mph22.5 kmh 29.69 in1005.4 mb 0.02 in0.5 mm 0.00 in0.0 mm 0.40 in10.2 mm
06:05 PM 58.9°F14.9°C 56.3°F13.5°C 91% 12.2 mph WNW19.6 kmh WNW 14.0 mph22.5 kmh 29.69 in1005.4 mb 0.02 in0.5 mm 0.00 in0.0 mm 0.40 in10.2 mm
06:06 PM 58.9°F14.9°C 56.3°F13.5°C 91% 13.2 mph WNW21.2 kmh WNW 15.0 mph24.1 kmh 29.69 in1005.4 mb 0.02 in0.5 mm 0.00 in0.0 mm 0.40 in10.2 mm
06:07 PM 58.9°F14.9°C 56.3°F13.5°C 91% 13.3 mph NW21.4 kmh NW 15.0 mph24.1 kmh 29.69 in1005.4 mb 0.02 in0.5 mm 0.00 in0.0 mm 0.40 in10.2 mm
06:08 PM 58.9°F14.9°C 56.0°F13.3°C 90% 12.2 mph WNW19.6 kmh WNW 15.0 mph24.1 kmh 29.69 in1005.4 mb 0.02 in0.5 mm 0.00 in0.0 mm 0.40 in10.2 mm
06:09 PM 58.9°F14.9°C 56.3°F13.5°C 91% 12.7 mph WNW20.4 kmh WNW 15.0 mph24.1 kmh 29.69 in1005.4 mb 0.02 in0.5 mm 0.00 in0.0 mm 0.40 in10.2 mm
06:10 PM 58.8°F14.9°C 55.9°F13.3°C 90% 12.4 mph WNW20.0 kmh WNW 15.0 mph24.1 kmh 29.69 in1005.4 mb 0.03 in0.8 mm 0.60 in15.2 mm 0.41 in10.4 mm
06:11 PM 58.9°F14.9°C 56.0°F13.3°C 90% 13.0 mph WNW20.9 kmh WNW 16.0 mph25.7 kmh 29.69 in1005.4 mb 0.03 in0.8 mm 0.00 in0.0 mm 0.41 in10.4 mm
06:12 PM 58.9°F14.9°C 56.0°F13.3°C 90% 14.1 mph WNW22.7 kmh WNW 16.0 mph25.7 kmh 29.69 in1005.4 mb 0.03 in0.8 mm 0.00 in0.0 mm 0.41 in10.4 mm
06:13 PM 58.9°F14.9°C 56.0°F13.3°C 90% 14.1 mph WNW22.7 kmh WNW 16.0 mph25.7 kmh 29.69 in1005.4 mb 0.03 in0.8 mm 0.00 in0.0 mm 0.41 in10.4 mm
06:14 PM 58.9°F14.9°C 56.0°F13.3°C 90% 14.2 mph WNW22.9 kmh WNW 16.0 mph25.7 kmh 29.69 in1005.4 mb 0.02 in0.5 mm 0.00 in0.0 mm 0.41 in10.4 mm
06:15 PM 58.8°F14.9°C 55.9°F13.3°C 90% 14.8 mph WNW23.8 kmh WNW 17.0 mph27.4 kmh 29.69 in1005.4 mb 0.02 in0.5 mm 0.00 in0.0 mm 0.41 in10.4 mm
06:16 PM 58.9°F14.9°C 56.0°F13.3°C 90% 13.4 mph WNW21.6 kmh WNW 17.0 mph27.4 kmh 29.69 in1005.4 mb 0.02 in0.5 mm 0.00 in0.0 mm 0.41 in10.4 mm
06:17 PM 58.9°F14.9°C 56.3°F13.5°C 91% 11.2 mph WNW18.0 kmh WNW 17.0 mph27.4 kmh 29.69 in1005.4 mb 0.02 in0.5 mm 0.00 in0.0 mm 0.41 in10.4 mm
06:18 PM 58.9°F14.9°C 56.3°F13.5°C 91% 13.4 mph WNW21.6 kmh WNW 15.0 mph24.1 kmh 29.69 in1005.4 mb 0.02 in0.5 mm 0.00 in0.0 mm 0.41 in10.4 mm
06:19 PM 58.9°F14.9°C 56.3°F13.5°C 91% 12.0 mph WNW19.3 kmh WNW 15.0 mph24.1 kmh 29.69 in1005.4 mb 0.02 in0.5 mm 0.00 in0.0 mm 0.41 in10.4 mm
06:20 PM 58.9°F14.9°C 56.3°F13.5°C 91% 12.5 mph WNW20.1 kmh WNW 14.0 mph22.5 kmh 29.69 in1005.4 mb 0.02 in0.5 mm 0.00 in0.0 mm 0.41 in10.4 mm
06:21 PM 58.9°F14.9°C 56.0°F13.3°C 90% 12.9 mph WNW20.8 kmh WNW 15.0 mph24.1 kmh 29.69 in1005.4 mb 0.02 in0.5 mm 0.00 in0.0 mm 0.41 in10.4 mm
06:22 PM 58.9°F14.9°C 56.3°F13.5°C 91% 13.0 mph WNW20.9 kmh WNW 15.0 mph24.1 kmh 29.69 in1005.4 mb 0.02 in0.5 mm 0.00 in0.0 mm 0.41 in10.4 mm
06:23 PM 58.9°F14.9°C 56.3°F13.5°C 91% 13.7 mph WNW22.0 kmh WNW 17.0 mph27.4 kmh 29.69 in1005.4 mb 0.02 in0.5 mm 0.00 in0.0 mm 0.41 in10.4 mm
06:24 PM 59.0°F15.0°C 56.4°F13.6°C 91% 14.1 mph WNW22.7 kmh WNW 17.0 mph27.4 kmh 29.69 in1005.4 mb 0.02 in0.5 mm 0.00 in0.0 mm 0.41 in10.4 mm
06:25 PM 58.9°F14.9°C 56.3°F13.5°C 91% 11.7 mph WNW18.8 kmh WNW 16.0 mph25.7 kmh 29.69 in1005.4 mb 0.02 in0.5 mm 0.00 in0.0 mm 0.41 in10.4 mm
06:26 PM 58.9°F14.9°C 56.0°F13.3°C 90% 15.2 mph WNW24.5 kmh WNW 17.0 mph27.4 kmh 29.68 in1005.1 mb 0.02 in0.5 mm 0.00 in0.0 mm 0.41 in10.4 mm
06:27 PM 58.9°F14.9°C 56.3°F13.5°C 91% 14.3 mph WNW23.0 kmh WNW 17.0 mph27.4 kmh 29.69 in1005.4 mb 0.02 in0.5 mm 0.00 in0.0 mm 0.41 in10.4 mm
06:28 PM 58.9°F14.9°C 56.3°F13.5°C 91% 14.3 mph WNW23.0 kmh WNW 17.0 mph27.4 kmh 29.68 in1005.1 mb 0.02 in0.5 mm 0.00 in0.0 mm 0.41 in10.4 mm
06:29 PM 58.8°F14.9°C 55.9°F13.3°C 90% 13.3 mph WNW21.4 kmh WNW 17.0 mph27.4 kmh 29.69 in1005.4 mb 0.02 in0.5 mm 0.00 in0.0 mm 0.41 in10.4 mm
06:30 PM 58.9°F14.9°C 56.0°F13.3°C 90% 12.3 mph WNW19.8 kmh WNW 16.0 mph25.7 kmh 29.68 in1005.1 mb 0.02 in0.5 mm 0.00 in0.0 mm 0.41 in10.4 mm
06:31 PM 58.9°F14.9°C 56.3°F13.5°C 91% 12.8 mph WNW20.6 kmh WNW 16.0 mph25.7 kmh 29.68 in1005.1 mb 0.02 in0.5 mm 0.00 in0.0 mm 0.41 in10.4 mm
06:32 PM 58.9°F14.9°C 56.3°F13.5°C 91% 15.4 mph WNW24.8 kmh WNW 17.0 mph27.4 kmh 29.68 in1005.1 mb 0.02 in0.5 mm 0.00 in0.0 mm 0.41 in10.4 mm
06:33 PM 58.9°F14.9°C 56.0°F13.3°C 90% 15.3 mph WNW24.6 kmh WNW 17.0 mph27.4 kmh 29.68 in1005.1 mb 0.02 in0.5 mm 0.00 in0.0 mm 0.41 in10.4 mm
06:34 PM 58.9°F14.9°C 56.3°F13.5°C 91% 15.0 mph WNW24.1 kmh WNW 17.0 mph27.4 kmh 29.68 in1005.1 mb 0.02 in0.5 mm 0.00 in0.0 mm 0.41 in10.4 mm
06:35 PM 58.9°F14.9°C 56.3°F13.5°C 91% 13.5 mph WNW21.7 kmh WNW 17.0 mph27.4 kmh 29.68 in1005.1 mb 0.02 in0.5 mm 0.00 in0.0 mm 0.41 in10.4 mm
06:36 PM 58.9°F14.9°C 56.3°F13.5°C 91% 14.7 mph WNW23.7 kmh WNW 17.0 mph27.4 kmh 29.68 in1005.1 mb 0.02 in0.5 mm 0.00 in0.0 mm 0.41 in10.4 mm
06:37 PM 58.9°F14.9°C 56.6°F13.7°C 92% 14.2 mph WNW22.9 kmh WNW 17.0 mph27.4 kmh 29.68 in1005.1 mb 0.02 in0.5 mm 0.00 in0.0 mm 0.41 in10.4 mm
06:38 PM 58.9°F14.9°C 56.0°F13.3°C 90% 14.5 mph WNW23.3 kmh WNW 17.0 mph27.4 kmh 29.69 in1005.4 mb 0.02 in0.5 mm 0.00 in0.0 mm 0.41 in10.4 mm
06:39 PM 58.9°F14.9°C 56.3°F13.5°C 91% 14.3 mph WNW23.0 kmh WNW 18.0 mph29.0 kmh 29.68 in1005.1 mb 0.02 in0.5 mm 0.00 in0.0 mm 0.41 in10.4 mm
06:40 PM 58.9°F14.9°C 56.3°F13.5°C 91% 14.3 mph WNW23.0 kmh WNW 18.0 mph29.0 kmh 29.69 in1005.4 mb 0.02 in0.5 mm 0.00 in0.0 mm 0.41 in10.4 mm
06:41 PM 58.9°F14.9°C 56.6°F13.7°C 92% 14.3 mph WNW23.0 kmh WNW 16.0 mph25.7 kmh 29.69 in1005.4 mb 0.02 in0.5 mm 0.00 in0.0 mm 0.41 in10.4 mm
06:42 PM 58.9°F14.9°C 56.3°F13.5°C 91% 14.2 mph WNW22.9 kmh WNW 17.0 mph27.4 kmh 29.69 in1005.4 mb 0.02 in0.5 mm 0.00 in0.0 mm 0.41 in10.4 mm
06:43 PM 58.9°F14.9°C 56.3°F13.5°C 91% 13.1 mph WNW21.1 kmh WNW 17.0 mph27.4 kmh 29.69 in1005.4 mb 0.02 in0.5 mm 0.00 in0.0 mm 0.41 in10.4 mm
06:44 PM 58.9°F14.9°C 56.3°F13.5°C 91% 12.8 mph WNW20.6 kmh WNW 16.0 mph25.7 kmh 29.69 in1005.4 mb 0.02 in0.5 mm 0.00 in0.0 mm 0.41 in10.4 mm
06:45 PM 58.9°F14.9°C 56.0°F13.3°C 90% 16.5 mph WNW26.6 kmh WNW 19.0 mph30.6 kmh 29.69 in1005.4 mb 0.02 in0.5 mm 0.00 in0.0 mm 0.41 in10.4 mm
06:46 PM 58.9°F14.9°C 56.3°F13.5°C 91% 15.0 mph WNW24.1 kmh WNW 19.0 mph30.6 kmh 29.69 in1005.4 mb 0.02 in0.5 mm 0.00 in0.0 mm 0.41 in10.4 mm
06:47 PM 58.9°F14.9°C 56.3°F13.5°C 91% 15.5 mph WNW24.9 kmh WNW 19.0 mph30.6 kmh 29.69 in1005.4 mb 0.01 in0.3 mm 0.00 in0.0 mm 0.41 in10.4 mm
06:48 PM 58.9°F14.9°C 56.3°F13.5°C 91% 14.8 mph WNW23.8 kmh WNW 19.0 mph30.6 kmh 29.69 in1005.4 mb 0.01 in0.3 mm 0.00 in0.0 mm 0.41 in10.4 mm
06:49 PM 58.9°F14.9°C 56.3°F13.5°C 91% 13.9 mph NW22.4 kmh NW 17.0 mph27.4 kmh 29.69 in1005.4 mb 0.01 in0.3 mm 0.00 in0.0 mm 0.41 in10.4 mm
06:50 PM 59.0°F15.0°C 56.7°F13.7°C 92% 13.3 mph WNW21.4 kmh WNW 17.0 mph27.4 kmh 29.69 in1005.4 mb 0.01 in0.3 mm 0.00 in0.0 mm 0.41 in10.4 mm
06:51 PM 59.0°F15.0°C 56.4°F13.6°C 91% 15.6 mph WNW25.1 kmh WNW 17.0 mph27.4 kmh 29.69 in1005.4 mb 0.01 in0.3 mm 0.00 in0.0 mm 0.41 in10.4 mm
06:52 PM 58.9°F14.9°C 56.0°F13.3°C 90% 15.4 mph WNW24.8 kmh WNW 18.0 mph29.0 kmh 29.69 in1005.4 mb 0.01 in0.3 mm 0.00 in0.0 mm 0.41 in10.4 mm
06:53 PM 59.0°F15.0°C 56.4°F13.6°C 91% 15.2 mph WNW24.5 kmh WNW 18.0 mph29.0 kmh 29.69 in1005.4 mb 0.01 in0.3 mm 0.00 in0.0 mm 0.41 in10.4 mm
06:54 PM 59.0°F15.0°C 56.4°F13.6°C 91% 14.5 mph NW23.3 kmh NW 18.0 mph29.0 kmh 29.69 in1005.4 mb 0.01 in0.3 mm 0.00 in0.0 mm 0.41 in10.4 mm
06:55 PM 59.0°F15.0°C 56.1°F13.4°C 90% 17.0 mph NW27.4 kmh NW 20.0 mph32.2 kmh 29.69 in1005.4 mb 0.01 in0.3 mm 0.00 in0.0 mm 0.41 in10.4 mm
06:56 PM 59.0°F15.0°C 56.4°F13.6°C 91% 14.5 mph NW23.3 kmh NW 20.0 mph32.2 kmh 29.69 in1005.4 mb 0.01 in0.3 mm 0.00 in0.0 mm 0.41 in10.4 mm
06:57 PM 59.1°F15.1°C 56.5°F13.6°C 91% 18.0 mph WNW29.0 kmh WNW 20.0 mph32.2 kmh 29.69 in1005.4 mb 0.01 in0.3 mm 0.00 in0.0 mm 0.41 in10.4 mm
06:58 PM 59.1°F15.1°C 56.2°F13.4°C 90% 16.0 mph WNW25.7 kmh WNW 18.0 mph29.0 kmh 29.69 in1005.4 mb 0.01 in0.3 mm 0.00 in0.0 mm 0.41 in10.4 mm
06:59 PM 59.1°F15.1°C 56.5°F13.6°C 91% 17.7 mph WNW28.5 kmh WNW 19.0 mph30.6 kmh 29.69 in1005.4 mb 0.01 in0.3 mm 0.00 in0.0 mm 0.41 in10.4 mm
07:00 PM 59.1°F15.1°C 56.2°F13.4°C 90% 15.9 mph NW25.6 kmh NW 19.0 mph30.6 kmh 29.69 in1005.4 mb 0.01 in0.3 mm 0.00 in0.0 mm 0.41 in10.4 mm
07:01 PM 59.1°F15.1°C 56.2°F13.4°C 90% 13.8 mph NW22.2 kmh NW 19.0 mph30.6 kmh 29.69 in1005.4 mb 0.01 in0.3 mm 0.00 in0.0 mm 0.41 in10.4 mm
07:02 PM 59.2°F15.1°C 56.9°F13.8°C 92% 14.4 mph NW23.2 kmh NW 17.0 mph27.4 kmh 29.69 in1005.4 mb 0.01 in0.3 mm 0.00 in0.0 mm 0.41 in10.4 mm
07:03 PM 59.1°F15.1°C 56.5°F13.6°C 91% 17.0 mph NW27.4 kmh NW 20.0 mph32.2 kmh 29.69 in1005.4 mb 0.01 in0.3 mm 0.00 in0.0 mm 0.41 in10.4 mm
07:04 PM 59.1°F15.1°C 56.2°F13.4°C 90% 15.1 mph NW24.3 kmh NW 20.0 mph32.2 kmh 29.69 in1005.4 mb 0.01 in0.3 mm 0.00 in0.0 mm 0.41 in10.4 mm
07:05 PM 59.1°F15.1°C 56.5°F13.6°C 91% 16.9 mph NW27.2 kmh NW 19.0 mph30.6 kmh 29.69 in1005.4 mb 0.01 in0.3 mm 0.00 in0.0 mm 0.41 in10.4 mm
07:06 PM 59.1°F15.1°C 55.9°F13.3°C 89% 17.8 mph NW28.6 kmh NW 20.0 mph32.2 kmh 29.69 in1005.4 mb 0.01 in0.3 mm 0.00 in0.0 mm 0.41 in10.4 mm
07:07 PM 59.1°F15.1°C 56.2°F13.4°C 90% 16.7 mph NW26.9 kmh NW 20.0 mph32.2 kmh 29.69 in1005.4 mb 0.01 in0.3 mm 0.00 in0.0 mm 0.41 in10.4 mm
07:08 PM 59.1°F15.1°C 56.2°F13.4°C 90% 16.5 mph NW26.6 kmh NW 18.0 mph29.0 kmh 29.69 in1005.4 mb 0.01 in0.3 mm 0.00 in0.0 mm 0.41 in10.4 mm
07:09 PM 59.1°F15.1°C 56.2°F13.4°C 90% 14.4 mph NW23.2 kmh NW 18.0 mph29.0 kmh 29.69 in1005.4 mb 0.01 in0.3 mm 0.00 in0.0 mm 0.41 in10.4 mm
07:10 PM 59.2°F15.1°C 56.6°F13.7°C 91% 15.5 mph NW24.9 kmh NW 19.0 mph30.6 kmh 29.69 in1005.4 mb 0.00 in0.0 mm 0.00 in0.0 mm 0.41 in10.4 mm
07:11 PM 59.1°F15.1°C 55.9°F13.3°C 89% 15.5 mph NW24.9 kmh NW 19.0 mph30.6 kmh 29.69 in1005.4 mb 0.00 in0.0 mm 0.00 in0.0 mm 0.41 in10.4 mm
07:12 PM 59.1°F15.1°C 56.2°F13.4°C 90% 15.2 mph NW24.5 kmh NW 17.0 mph27.4 kmh 29.70 in1005.8 mb 0.00 in0.0 mm 0.00 in0.0 mm 0.41 in10.4 mm
07:13 PM 59.2°F15.1°C 56.6°F13.7°C 91% 12.8 mph NW20.6 kmh NW 17.0 mph27.4 kmh 29.69 in1005.4 mb 0.00 in0.0 mm 0.00 in0.0 mm 0.41 in10.4 mm
07:14 PM 59.2°F15.1°C 56.6°F13.7°C 91% 14.4 mph NW23.2 kmh NW 16.0 mph25.7 kmh 29.70 in1005.8 mb 0.00 in0.0 mm 0.00 in0.0 mm 0.41 in10.4 mm
07:15 PM 59.2°F15.1°C 56.3°F13.5°C 90% 14.7 mph NW23.7 kmh NW 17.0 mph27.4 kmh 29.69 in1005.4 mb 0.00 in0.0 mm 0.00 in0.0 mm 0.41 in10.4 mm
07:16 PM 59.1°F15.1°C 56.2°F13.4°C 90% 13.0 mph WNW20.9 kmh WNW 17.0 mph27.4 kmh 29.69 in1005.4 mb 0.00 in0.0 mm 0.00 in0.0 mm 0.41 in10.4 mm
07:17 PM 59.1°F15.1°C 56.2°F13.4°C 90% 14.3 mph WNW23.0 kmh WNW 17.0 mph27.4 kmh 29.69 in1005.4 mb 0.00 in0.0 mm 0.00 in0.0 mm 0.41 in10.4 mm
07:18 PM 59.1°F15.1°C 56.5°F13.6°C 91% 15.2 mph NW24.5 kmh NW 17.0 mph27.4 kmh 29.70 in1005.8 mb 0.00 in0.0 mm 0.00 in0.0 mm 0.41 in10.4 mm
07:19 PM 59.1°F15.1°C 56.5°F13.6°C 91% 13.4 mph WNW21.6 kmh WNW 17.0 mph27.4 kmh 29.69 in1005.4 mb 0.00 in0.0 mm 0.00 in0.0 mm 0.41 in10.4 mm
07:20 PM 59.1°F15.1°C 56.5°F13.6°C 91% 14.5 mph WNW23.3 kmh WNW 17.0 mph27.4 kmh 29.69 in1005.4 mb 0.00 in0.0 mm 0.00 in0.0 mm 0.41 in10.4 mm
07:21 PM 59.1°F15.1°C 56.5°F13.6°C 91% 14.3 mph NW23.0 kmh NW 17.0 mph27.4 kmh 29.69 in1005.4 mb 0.00 in0.0 mm 0.00 in0.0 mm 0.41 in10.4 mm
07:22 PM 59.1°F15.1°C 56.2°F13.4°C 90% 14.5 mph WNW23.3 kmh WNW 17.0 mph27.4 kmh 29.69 in1005.4 mb 0.00 in0.0 mm 0.00 in0.0 mm 0.41 in10.4 mm
07:23 PM 59.1°F15.1°C 56.2°F13.4°C 90% 17.4 mph NW28.0 kmh NW 21.0 mph33.8 kmh 29.69 in1005.4 mb 0.01 in0.3 mm 0.60 in15.2 mm 0.42 in10.7 mm
07:24 PM 59.0°F15.0°C 56.1°F13.4°C 90% 13.7 mph WNW22.0 kmh WNW 21.0 mph33.8 kmh 29.69 in1005.4 mb 0.01 in0.3 mm 0.00 in0.0 mm 0.42 in10.7 mm
07:25 PM 59.1°F15.1°C 56.5°F13.6°C 91% 13.2 mph WNW21.2 kmh WNW 17.0 mph27.4 kmh 29.69 in1005.4 mb 0.01 in0.3 mm 0.00 in0.0 mm 0.42 in10.7 mm
07:26 PM 59.1°F15.1°C 56.5°F13.6°C 91% 13.4 mph WNW21.6 kmh WNW 17.0 mph27.4 kmh 29.69 in1005.4 mb 0.01 in0.3 mm 0.00 in0.0 mm 0.42 in10.7 mm
07:27 PM 59.1°F15.1°C 56.5°F13.6°C 91% 15.8 mph NW25.4 kmh NW 19.0 mph30.6 kmh 29.69 in1005.4 mb 0.01 in0.3 mm 0.00 in0.0 mm 0.42 in10.7 mm
07:28 PM 59.1°F15.1°C 56.2°F13.4°C 90% 13.7 mph WNW22.0 kmh WNW 19.0 mph30.6 kmh 29.69 in1005.4 mb 0.01 in0.3 mm 0.00 in0.0 mm 0.42 in10.7 mm
07:29 PM 59.0°F15.0°C 56.1°F13.4°C 90% 13.9 mph WNW22.4 kmh WNW 16.0 mph25.7 kmh 29.69 in1005.4 mb 0.01 in0.3 mm 0.00 in0.0 mm 0.42 in10.7 mm
07:30 PM 59.0°F15.0°C 56.1°F13.4°C 90% 16.2 mph WNW26.1 kmh WNW 19.0 mph30.6 kmh 29.69 in1005.4 mb 0.01 in0.3 mm 0.00 in0.0 mm 0.42 in10.7 mm
07:31 PM 58.9°F14.9°C 56.0°F13.3°C 90% 17.7 mph WNW28.5 kmh WNW 20.0 mph32.2 kmh 29.69 in1005.4 mb 0.01 in0.3 mm 0.00 in0.0 mm 0.42 in10.7 mm
07:32 PM 58.9°F14.9°C 56.0°F13.3°C 90% 15.9 mph WNW25.6 kmh WNW 20.0 mph32.2 kmh 29.69 in1005.4 mb